<?xml version="1.0" encoding="UTF-8" standalone="no" ?>
<gpx xmlns="http://www.topografix.com/GPX/1/1" xmlns:xsi="http://www.w3.org/2001/XMLSchema-instance" xsi:schemaLocation="http://www.topografix.com/GPX/1/1 http://www.topografix.com/GPX/1/1/gpx.xsd" version="1.1" creator="VisuGPX - https://www.visugpx.com">
  <metadata>
    <name>Jura_Poligny</name>
  </metadata>
  <trk>
    <name><![CDATA[13-JUIL-22 12:23:26 PM]]></name>
    <extensions>
      <line xmlns="http://www.topografix.com/GPX/gpx_style/0/2">
        <color>0000FF</color>
        <width>4</width>
      </line>
    </extensions>
    <trkseg>
      <trkpt lat="46.83359" lon="5.69777">
        <ele>316.89</ele>
        <time>2022-07-12T19:33:29Z</time>
      </trkpt>
      <trkpt lat="46.83363" lon="5.69777">
        <ele>317.85</ele>
        <time>2022-07-12T19:34:00Z</time>
      </trkpt>
      <trkpt lat="46.83357" lon="5.69779">
        <ele>316.89</ele>
        <time>2022-07-12T19:34:36Z</time>
      </trkpt>
      <trkpt lat="46.83356" lon="5.69778">
        <ele>319.3</ele>
        <time>2022-07-12T19:34:44Z</time>
      </trkpt>
      <trkpt lat="46.83356" lon="5.69778">
        <ele>319.3</ele>
        <time>2022-07-12T19:34:45Z</time>
      </trkpt>
      <trkpt lat="46.83356" lon="5.69777">
        <ele>318.81</ele>
        <time>2022-07-12T19:34:51Z</time>
      </trkpt>
      <trkpt lat="46.83362" lon="5.69777">
        <ele>293.82</ele>
        <time>2022-07-13T06:56:13Z</time>
      </trkpt>
      <trkpt lat="46.83344" lon="5.69787">
        <ele>297.67</ele>
        <time>2022-07-13T06:56:38Z</time>
      </trkpt>
      <trkpt lat="46.83346" lon="5.69787">
        <ele>299.11</ele>
        <time>2022-07-13T06:56:41Z</time>
      </trkpt>
      <trkpt lat="46.83346" lon="5.69788">
        <ele>302.47</ele>
        <time>2022-07-13T06:56:44Z</time>
      </trkpt>
      <trkpt lat="46.83346" lon="5.69788">
        <ele>302.47</ele>
        <time>2022-07-13T06:56:45Z</time>
      </trkpt>
      <trkpt lat="46.83347" lon="5.69789">
        <ele>305.84</ele>
        <time>2022-07-13T06:56:48Z</time>
      </trkpt>
      <trkpt lat="46.83347" lon="5.69788">
        <ele>307.28</ele>
        <time>2022-07-13T06:56:50Z</time>
      </trkpt>
      <trkpt lat="46.83348" lon="5.69787">
        <ele>310.64</ele>
        <time>2022-07-13T06:56:53Z</time>
      </trkpt>
      <trkpt lat="46.83349" lon="5.69785">
        <ele>312.57</ele>
        <time>2022-07-13T06:56:55Z</time>
      </trkpt>
      <trkpt lat="46.83352" lon="5.69781">
        <ele>314.01</ele>
        <time>2022-07-13T06:56:59Z</time>
      </trkpt>
      <trkpt lat="46.83355" lon="5.69774">
        <ele>315.93</ele>
        <time>2022-07-13T06:57:02Z</time>
      </trkpt>
      <trkpt lat="46.83363" lon="5.69767">
        <ele>316.89</ele>
        <time>2022-07-13T06:57:05Z</time>
      </trkpt>
      <trkpt lat="46.83365" lon="5.69765">
        <ele>318.81</ele>
        <time>2022-07-13T06:57:06Z</time>
      </trkpt>
      <trkpt lat="46.83367" lon="5.69764">
        <ele>318.81</ele>
        <time>2022-07-13T06:57:07Z</time>
      </trkpt>
      <trkpt lat="46.8337" lon="5.69764">
        <ele>319.78</ele>
        <time>2022-07-13T06:57:08Z</time>
      </trkpt>
      <trkpt lat="46.83372" lon="5.69764">
        <ele>319.78</ele>
        <time>2022-07-13T06:57:09Z</time>
      </trkpt>
      <trkpt lat="46.83375" lon="5.69765">
        <ele>320.26</ele>
        <time>2022-07-13T06:57:10Z</time>
      </trkpt>
      <trkpt lat="46.83378" lon="5.69765">
        <ele>321.22</ele>
        <time>2022-07-13T06:57:12Z</time>
      </trkpt>
      <trkpt lat="46.83392" lon="5.6977">
        <ele>324.58</ele>
        <time>2022-07-13T06:57:18Z</time>
      </trkpt>
      <trkpt lat="46.83409" lon="5.69773">
        <ele>327.47</ele>
        <time>2022-07-13T06:57:24Z</time>
      </trkpt>
      <trkpt lat="46.83423" lon="5.69781">
        <ele>330.35</ele>
        <time>2022-07-13T06:57:34Z</time>
      </trkpt>
      <trkpt lat="46.83423" lon="5.69782">
        <ele>330.83</ele>
        <time>2022-07-13T06:57:36Z</time>
      </trkpt>
      <trkpt lat="46.83425" lon="5.69784">
        <ele>331.79</ele>
        <time>2022-07-13T06:57:39Z</time>
      </trkpt>
      <trkpt lat="46.8343" lon="5.69779">
        <ele>333.23</ele>
        <time>2022-07-13T06:57:52Z</time>
      </trkpt>
      <trkpt lat="46.83435" lon="5.69776">
        <ele>336.6</ele>
        <time>2022-07-13T06:58:18Z</time>
      </trkpt>
      <trkpt lat="46.83433" lon="5.69779">
        <ele>337.56</ele>
        <time>2022-07-13T06:58:48Z</time>
      </trkpt>
      <trkpt lat="46.83431" lon="5.69776">
        <ele>337.08</ele>
        <time>2022-07-13T06:59:25Z</time>
      </trkpt>
      <trkpt lat="46.83432" lon="5.69773">
        <ele>337.08</ele>
        <time>2022-07-13T06:59:57Z</time>
      </trkpt>
      <trkpt lat="46.83435" lon="5.69772">
        <ele>337.56</ele>
        <time>2022-07-13T07:00:15Z</time>
      </trkpt>
      <trkpt lat="46.83437" lon="5.69772">
        <ele>337.56</ele>
        <time>2022-07-13T07:00:17Z</time>
      </trkpt>
      <trkpt lat="46.83438" lon="5.69773">
        <ele>337.08</ele>
        <time>2022-07-13T07:00:18Z</time>
      </trkpt>
      <trkpt lat="46.83439" lon="5.69775">
        <ele>337.08</ele>
        <time>2022-07-13T07:00:23Z</time>
      </trkpt>
      <trkpt lat="46.83439" lon="5.69777">
        <ele>337.08</ele>
        <time>2022-07-13T07:00:24Z</time>
      </trkpt>
      <trkpt lat="46.83438" lon="5.69791">
        <ele>337.56</ele>
        <time>2022-07-13T07:00:29Z</time>
      </trkpt>
      <trkpt lat="46.83436" lon="5.69796">
        <ele>337.08</ele>
        <time>2022-07-13T07:00:31Z</time>
      </trkpt>
      <trkpt lat="46.83436" lon="5.69799">
        <ele>337.08</ele>
        <time>2022-07-13T07:00:32Z</time>
      </trkpt>
      <trkpt lat="46.83437" lon="5.69801">
        <ele>336.6</ele>
        <time>2022-07-13T07:00:33Z</time>
      </trkpt>
      <trkpt lat="46.83438" lon="5.69804">
        <ele>337.56</ele>
        <time>2022-07-13T07:00:34Z</time>
      </trkpt>
      <trkpt lat="46.8344" lon="5.69805">
        <ele>338.04</ele>
        <time>2022-07-13T07:00:35Z</time>
      </trkpt>
      <trkpt lat="46.83442" lon="5.69806">
        <ele>337.08</ele>
        <time>2022-07-13T07:00:36Z</time>
      </trkpt>
      <trkpt lat="46.83451" lon="5.69807">
        <ele>337.56</ele>
        <time>2022-07-13T07:00:42Z</time>
      </trkpt>
      <trkpt lat="46.83452" lon="5.6981">
        <ele>337.56</ele>
        <time>2022-07-13T07:00:43Z</time>
      </trkpt>
      <trkpt lat="46.83451" lon="5.69813">
        <ele>336.6</ele>
        <time>2022-07-13T07:00:44Z</time>
      </trkpt>
      <trkpt lat="46.83451" lon="5.69816">
        <ele>336.6</ele>
        <time>2022-07-13T07:00:45Z</time>
      </trkpt>
      <trkpt lat="46.8345" lon="5.69819">
        <ele>336.6</ele>
        <time>2022-07-13T07:00:46Z</time>
      </trkpt>
      <trkpt lat="46.83449" lon="5.69823">
        <ele>337.08</ele>
        <time>2022-07-13T07:00:47Z</time>
      </trkpt>
      <trkpt lat="46.83448" lon="5.69826">
        <ele>338.04</ele>
        <time>2022-07-13T07:00:48Z</time>
      </trkpt>
      <trkpt lat="46.83448" lon="5.6983">
        <ele>338.04</ele>
        <time>2022-07-13T07:00:49Z</time>
      </trkpt>
      <trkpt lat="46.83436" lon="5.69892">
        <ele>339.48</ele>
        <time>2022-07-13T07:01:05Z</time>
      </trkpt>
      <trkpt lat="46.83442" lon="5.69955">
        <ele>340.44</ele>
        <time>2022-07-13T07:01:19Z</time>
      </trkpt>
      <trkpt lat="46.83452" lon="5.70016">
        <ele>341.41</ele>
        <time>2022-07-13T07:01:33Z</time>
      </trkpt>
      <trkpt lat="46.83464" lon="5.70081">
        <ele>342.37</ele>
        <time>2022-07-13T07:01:49Z</time>
      </trkpt>
      <trkpt lat="46.83473" lon="5.70137">
        <ele>342.85</ele>
        <time>2022-07-13T07:02:03Z</time>
      </trkpt>
      <trkpt lat="46.83486" lon="5.70188">
        <ele>343.81</ele>
        <time>2022-07-13T07:02:19Z</time>
      </trkpt>
      <trkpt lat="46.83487" lon="5.7019">
        <ele>344.29</ele>
        <time>2022-07-13T07:02:20Z</time>
      </trkpt>
      <trkpt lat="46.83489" lon="5.70191">
        <ele>343.81</ele>
        <time>2022-07-13T07:02:21Z</time>
      </trkpt>
      <trkpt lat="46.83512" lon="5.70182">
        <ele>343.33</ele>
        <time>2022-07-13T07:02:31Z</time>
      </trkpt>
      <trkpt lat="46.83537" lon="5.70146">
        <ele>341.41</ele>
        <time>2022-07-13T07:02:39Z</time>
      </trkpt>
      <trkpt lat="46.83542" lon="5.70142">
        <ele>341.41</ele>
        <time>2022-07-13T07:02:40Z</time>
      </trkpt>
      <trkpt lat="46.83607" lon="5.70073">
        <ele>338.52</ele>
        <time>2022-07-13T07:02:55Z</time>
      </trkpt>
      <trkpt lat="46.83672" lon="5.70008">
        <ele>335.16</ele>
        <time>2022-07-13T07:03:09Z</time>
      </trkpt>
      <trkpt lat="46.83728" lon="5.69951">
        <ele>331.79</ele>
        <time>2022-07-13T07:03:20Z</time>
      </trkpt>
      <trkpt lat="46.83809" lon="5.69864">
        <ele>327.95</ele>
        <time>2022-07-13T07:03:36Z</time>
      </trkpt>
      <trkpt lat="46.83851" lon="5.69807">
        <ele>324.1</ele>
        <time>2022-07-13T07:03:44Z</time>
      </trkpt>
      <trkpt lat="46.83857" lon="5.69797">
        <ele>324.1</ele>
        <time>2022-07-13T07:03:45Z</time>
      </trkpt>
      <trkpt lat="46.83893" lon="5.6973">
        <ele>322.66</ele>
        <time>2022-07-13T07:03:52Z</time>
      </trkpt>
      <trkpt lat="46.83898" lon="5.69725">
        <ele>322.18</ele>
        <time>2022-07-13T07:03:53Z</time>
      </trkpt>
      <trkpt lat="46.83902" lon="5.69721">
        <ele>322.18</ele>
        <time>2022-07-13T07:03:54Z</time>
      </trkpt>
      <trkpt lat="46.83906" lon="5.69719">
        <ele>323.14</ele>
        <time>2022-07-13T07:03:55Z</time>
      </trkpt>
      <trkpt lat="46.8391" lon="5.69717">
        <ele>323.14</ele>
        <time>2022-07-13T07:03:56Z</time>
      </trkpt>
      <trkpt lat="46.83914" lon="5.69715">
        <ele>322.18</ele>
        <time>2022-07-13T07:03:57Z</time>
      </trkpt>
      <trkpt lat="46.83918" lon="5.69713">
        <ele>322.66</ele>
        <time>2022-07-13T07:03:58Z</time>
      </trkpt>
      <trkpt lat="46.83922" lon="5.69712">
        <ele>322.66</ele>
        <time>2022-07-13T07:03:59Z</time>
      </trkpt>
      <trkpt lat="46.83999" lon="5.69695">
        <ele>320.74</ele>
        <time>2022-07-13T07:04:15Z</time>
      </trkpt>
      <trkpt lat="46.8404" lon="5.69669">
        <ele>319.78</ele>
        <time>2022-07-13T07:04:23Z</time>
      </trkpt>
      <trkpt lat="46.84124" lon="5.69613">
        <ele>318.81</ele>
        <time>2022-07-13T07:04:40Z</time>
      </trkpt>
      <trkpt lat="46.8414" lon="5.69601">
        <ele>316.41</ele>
        <time>2022-07-13T07:04:43Z</time>
      </trkpt>
      <trkpt lat="46.84185" lon="5.69558">
        <ele>314.97</ele>
        <time>2022-07-13T07:04:52Z</time>
      </trkpt>
      <trkpt lat="46.842" lon="5.6952">
        <ele>314.49</ele>
        <time>2022-07-13T07:04:58Z</time>
      </trkpt>
      <trkpt lat="46.84201" lon="5.69513">
        <ele>314.97</ele>
        <time>2022-07-13T07:04:59Z</time>
      </trkpt>
      <trkpt lat="46.84212" lon="5.69473">
        <ele>314.01</ele>
        <time>2022-07-13T07:05:05Z</time>
      </trkpt>
      <trkpt lat="46.84227" lon="5.69413">
        <ele>312.09</ele>
        <time>2022-07-13T07:05:14Z</time>
      </trkpt>
      <trkpt lat="46.8423" lon="5.69407">
        <ele>311.6</ele>
        <time>2022-07-13T07:05:15Z</time>
      </trkpt>
      <trkpt lat="46.84233" lon="5.694">
        <ele>311.6</ele>
        <time>2022-07-13T07:05:16Z</time>
      </trkpt>
      <trkpt lat="46.84237" lon="5.69395">
        <ele>310.64</ele>
        <time>2022-07-13T07:05:17Z</time>
      </trkpt>
      <trkpt lat="46.84242" lon="5.69389">
        <ele>311.12</ele>
        <time>2022-07-13T07:05:18Z</time>
      </trkpt>
      <trkpt lat="46.84247" lon="5.69385">
        <ele>310.64</ele>
        <time>2022-07-13T07:05:19Z</time>
      </trkpt>
      <trkpt lat="46.84252" lon="5.69382">
        <ele>310.16</ele>
        <time>2022-07-13T07:05:20Z</time>
      </trkpt>
      <trkpt lat="46.84258" lon="5.6938">
        <ele>310.16</ele>
        <time>2022-07-13T07:05:21Z</time>
      </trkpt>
      <trkpt lat="46.84264" lon="5.69379">
        <ele>309.68</ele>
        <time>2022-07-13T07:05:22Z</time>
      </trkpt>
      <trkpt lat="46.8427" lon="5.69378">
        <ele>309.2</ele>
        <time>2022-07-13T07:05:23Z</time>
      </trkpt>
      <trkpt lat="46.84277" lon="5.69378">
        <ele>309.2</ele>
        <time>2022-07-13T07:05:24Z</time>
      </trkpt>
      <trkpt lat="46.84284" lon="5.69378">
        <ele>308.72</ele>
        <time>2022-07-13T07:05:25Z</time>
      </trkpt>
      <trkpt lat="46.84359" lon="5.6941">
        <ele>305.84</ele>
        <time>2022-07-13T07:05:37Z</time>
      </trkpt>
      <trkpt lat="46.84446" lon="5.69477">
        <ele>303.43</ele>
        <time>2022-07-13T07:05:53Z</time>
      </trkpt>
      <trkpt lat="46.84451" lon="5.69477">
        <ele>303.43</ele>
        <time>2022-07-13T07:05:54Z</time>
      </trkpt>
      <trkpt lat="46.84455" lon="5.69474">
        <ele>302.95</ele>
        <time>2022-07-13T07:05:55Z</time>
      </trkpt>
      <trkpt lat="46.84458" lon="5.69469">
        <ele>303.43</ele>
        <time>2022-07-13T07:05:56Z</time>
      </trkpt>
      <trkpt lat="46.84461" lon="5.69462">
        <ele>302.95</ele>
        <time>2022-07-13T07:05:57Z</time>
      </trkpt>
      <trkpt lat="46.84462" lon="5.69455">
        <ele>302.95</ele>
        <time>2022-07-13T07:05:58Z</time>
      </trkpt>
      <trkpt lat="46.84464" lon="5.69448">
        <ele>302.95</ele>
        <time>2022-07-13T07:05:59Z</time>
      </trkpt>
      <trkpt lat="46.84492" lon="5.69314">
        <ele>301.51</ele>
        <time>2022-07-13T07:06:17Z</time>
      </trkpt>
      <trkpt lat="46.84512" lon="5.6922">
        <ele>301.03</ele>
        <time>2022-07-13T07:06:30Z</time>
      </trkpt>
      <trkpt lat="46.84514" lon="5.69213">
        <ele>300.55</ele>
        <time>2022-07-13T07:06:31Z</time>
      </trkpt>
      <trkpt lat="46.84517" lon="5.69208">
        <ele>300.07</ele>
        <time>2022-07-13T07:06:32Z</time>
      </trkpt>
      <trkpt lat="46.84521" lon="5.69203">
        <ele>299.59</ele>
        <time>2022-07-13T07:06:33Z</time>
      </trkpt>
      <trkpt lat="46.84525" lon="5.69199">
        <ele>300.07</ele>
        <time>2022-07-13T07:06:34Z</time>
      </trkpt>
      <trkpt lat="46.8453" lon="5.69197">
        <ele>300.55</ele>
        <time>2022-07-13T07:06:35Z</time>
      </trkpt>
      <trkpt lat="46.84535" lon="5.69195">
        <ele>300.55</ele>
        <time>2022-07-13T07:06:36Z</time>
      </trkpt>
      <trkpt lat="46.8454" lon="5.69193">
        <ele>300.55</ele>
        <time>2022-07-13T07:06:37Z</time>
      </trkpt>
      <trkpt lat="46.84545" lon="5.69193">
        <ele>300.55</ele>
        <time>2022-07-13T07:06:38Z</time>
      </trkpt>
      <trkpt lat="46.8455" lon="5.69193">
        <ele>301.03</ele>
        <time>2022-07-13T07:06:39Z</time>
      </trkpt>
      <trkpt lat="46.84555" lon="5.69193">
        <ele>300.07</ele>
        <time>2022-07-13T07:06:40Z</time>
      </trkpt>
      <trkpt lat="46.8456" lon="5.69193">
        <ele>300.07</ele>
        <time>2022-07-13T07:06:41Z</time>
      </trkpt>
      <trkpt lat="46.84565" lon="5.69195">
        <ele>300.07</ele>
        <time>2022-07-13T07:06:42Z</time>
      </trkpt>
      <trkpt lat="46.84569" lon="5.69196">
        <ele>300.55</ele>
        <time>2022-07-13T07:06:43Z</time>
      </trkpt>
      <trkpt lat="46.84582" lon="5.69201">
        <ele>299.59</ele>
        <time>2022-07-13T07:06:46Z</time>
      </trkpt>
      <trkpt lat="46.84586" lon="5.69204">
        <ele>300.07</ele>
        <time>2022-07-13T07:06:47Z</time>
      </trkpt>
      <trkpt lat="46.84589" lon="5.69207">
        <ele>300.07</ele>
        <time>2022-07-13T07:06:48Z</time>
      </trkpt>
      <trkpt lat="46.84651" lon="5.69261">
        <ele>301.03</ele>
        <time>2022-07-13T07:07:06Z</time>
      </trkpt>
      <trkpt lat="46.84709" lon="5.69313">
        <ele>301.03</ele>
        <time>2022-07-13T07:07:23Z</time>
      </trkpt>
      <trkpt lat="46.84756" lon="5.69354">
        <ele>300.55</ele>
        <time>2022-07-13T07:07:37Z</time>
      </trkpt>
      <trkpt lat="46.84793" lon="5.69384">
        <ele>301.51</ele>
        <time>2022-07-13T07:07:48Z</time>
      </trkpt>
      <trkpt lat="46.84796" lon="5.69383">
        <ele>301.51</ele>
        <time>2022-07-13T07:07:49Z</time>
      </trkpt>
      <trkpt lat="46.84798" lon="5.69381">
        <ele>301.03</ele>
        <time>2022-07-13T07:07:50Z</time>
      </trkpt>
      <trkpt lat="46.84798" lon="5.69377">
        <ele>301.03</ele>
        <time>2022-07-13T07:07:51Z</time>
      </trkpt>
      <trkpt lat="46.84798" lon="5.69373">
        <ele>301.51</ele>
        <time>2022-07-13T07:07:52Z</time>
      </trkpt>
      <trkpt lat="46.84798" lon="5.69368">
        <ele>301.51</ele>
        <time>2022-07-13T07:07:53Z</time>
      </trkpt>
      <trkpt lat="46.848" lon="5.69363">
        <ele>301.51</ele>
        <time>2022-07-13T07:07:54Z</time>
      </trkpt>
      <trkpt lat="46.84803" lon="5.69358">
        <ele>300.55</ele>
        <time>2022-07-13T07:07:55Z</time>
      </trkpt>
      <trkpt lat="46.84806" lon="5.69354">
        <ele>301.03</ele>
        <time>2022-07-13T07:07:56Z</time>
      </trkpt>
      <trkpt lat="46.84825" lon="5.69325">
        <ele>299.59</ele>
        <time>2022-07-13T07:08:02Z</time>
      </trkpt>
      <trkpt lat="46.84861" lon="5.69272">
        <ele>299.11</ele>
        <time>2022-07-13T07:08:12Z</time>
      </trkpt>
      <trkpt lat="46.84869" lon="5.69263">
        <ele>298.63</ele>
        <time>2022-07-13T07:08:14Z</time>
      </trkpt>
      <trkpt lat="46.84922" lon="5.6918">
        <ele>296.7</ele>
        <time>2022-07-13T07:08:29Z</time>
      </trkpt>
      <trkpt lat="46.84978" lon="5.69098">
        <ele>295.74</ele>
        <time>2022-07-13T07:08:44Z</time>
      </trkpt>
      <trkpt lat="46.85032" lon="5.69015">
        <ele>295.26</ele>
        <time>2022-07-13T07:08:59Z</time>
      </trkpt>
      <trkpt lat="46.85085" lon="5.68928">
        <ele>293.34</ele>
        <time>2022-07-13T07:09:14Z</time>
      </trkpt>
      <trkpt lat="46.85158" lon="5.68813">
        <ele>291.9</ele>
        <time>2022-07-13T07:09:34Z</time>
      </trkpt>
      <trkpt lat="46.85237" lon="5.68697">
        <ele>289.97</ele>
        <time>2022-07-13T07:09:56Z</time>
      </trkpt>
      <trkpt lat="46.85305" lon="5.6858">
        <ele>288.05</ele>
        <time>2022-07-13T07:10:17Z</time>
      </trkpt>
      <trkpt lat="46.8536" lon="5.68476">
        <ele>287.57</ele>
        <time>2022-07-13T07:10:36Z</time>
      </trkpt>
      <trkpt lat="46.85425" lon="5.68354">
        <ele>286.13</ele>
        <time>2022-07-13T07:10:58Z</time>
      </trkpt>
      <trkpt lat="46.85496" lon="5.68222">
        <ele>284.69</ele>
        <time>2022-07-13T07:11:22Z</time>
      </trkpt>
      <trkpt lat="46.85552" lon="5.68115">
        <ele>283.25</ele>
        <time>2022-07-13T07:11:43Z</time>
      </trkpt>
      <trkpt lat="46.85578" lon="5.68065">
        <ele>283.25</ele>
        <time>2022-07-13T07:11:57Z</time>
      </trkpt>
      <trkpt lat="46.85574" lon="5.68064">
        <ele>282.28</ele>
        <time>2022-07-13T07:12:27Z</time>
      </trkpt>
      <trkpt lat="46.85577" lon="5.68064">
        <ele>282.28</ele>
        <time>2022-07-13T07:12:41Z</time>
      </trkpt>
      <trkpt lat="46.85578" lon="5.68064">
        <ele>281.8</ele>
        <time>2022-07-13T07:12:42Z</time>
      </trkpt>
      <trkpt lat="46.8558" lon="5.68064">
        <ele>281.8</ele>
        <time>2022-07-13T07:12:43Z</time>
      </trkpt>
      <trkpt lat="46.85581" lon="5.68063">
        <ele>282.28</ele>
        <time>2022-07-13T07:12:44Z</time>
      </trkpt>
      <trkpt lat="46.85582" lon="5.68062">
        <ele>281.8</ele>
        <time>2022-07-13T07:12:45Z</time>
      </trkpt>
      <trkpt lat="46.85584" lon="5.68059">
        <ele>281.8</ele>
        <time>2022-07-13T07:12:56Z</time>
      </trkpt>
      <trkpt lat="46.85584" lon="5.68057">
        <ele>281.32</ele>
        <time>2022-07-13T07:12:57Z</time>
      </trkpt>
      <trkpt lat="46.85586" lon="5.68055">
        <ele>281.32</ele>
        <time>2022-07-13T07:12:58Z</time>
      </trkpt>
      <trkpt lat="46.85607" lon="5.68012">
        <ele>281.8</ele>
        <time>2022-07-13T07:13:11Z</time>
      </trkpt>
      <trkpt lat="46.85653" lon="5.67927">
        <ele>280.84</ele>
        <time>2022-07-13T07:13:28Z</time>
      </trkpt>
      <trkpt lat="46.85715" lon="5.67809">
        <ele>279.4</ele>
        <time>2022-07-13T07:13:49Z</time>
      </trkpt>
      <trkpt lat="46.85743" lon="5.67761">
        <ele>278.92</ele>
        <time>2022-07-13T07:13:58Z</time>
      </trkpt>
      <trkpt lat="46.85746" lon="5.67757">
        <ele>278.92</ele>
        <time>2022-07-13T07:13:59Z</time>
      </trkpt>
      <trkpt lat="46.8575" lon="5.67755">
        <ele>278.92</ele>
        <time>2022-07-13T07:14:00Z</time>
      </trkpt>
      <trkpt lat="46.85754" lon="5.67753">
        <ele>278.92</ele>
        <time>2022-07-13T07:14:01Z</time>
      </trkpt>
      <trkpt lat="46.85759" lon="5.67752">
        <ele>278.44</ele>
        <time>2022-07-13T07:14:02Z</time>
      </trkpt>
      <trkpt lat="46.85763" lon="5.67752">
        <ele>278.44</ele>
        <time>2022-07-13T07:14:03Z</time>
      </trkpt>
      <trkpt lat="46.85768" lon="5.67752">
        <ele>278.92</ele>
        <time>2022-07-13T07:14:04Z</time>
      </trkpt>
      <trkpt lat="46.85772" lon="5.67754">
        <ele>278.92</ele>
        <time>2022-07-13T07:14:05Z</time>
      </trkpt>
      <trkpt lat="46.85777" lon="5.67756">
        <ele>278.92</ele>
        <time>2022-07-13T07:14:06Z</time>
      </trkpt>
      <trkpt lat="46.85781" lon="5.67758">
        <ele>278.44</ele>
        <time>2022-07-13T07:14:07Z</time>
      </trkpt>
      <trkpt lat="46.85803" lon="5.67783">
        <ele>278.44</ele>
        <time>2022-07-13T07:14:14Z</time>
      </trkpt>
      <trkpt lat="46.85806" lon="5.67795">
        <ele>278.44</ele>
        <time>2022-07-13T07:14:16Z</time>
      </trkpt>
      <trkpt lat="46.85809" lon="5.67812">
        <ele>278.92</ele>
        <time>2022-07-13T07:14:19Z</time>
      </trkpt>
      <trkpt lat="46.85846" lon="5.67893">
        <ele>279.4</ele>
        <time>2022-07-13T07:14:36Z</time>
      </trkpt>
      <trkpt lat="46.85895" lon="5.68002">
        <ele>278.92</ele>
        <time>2022-07-13T07:14:58Z</time>
      </trkpt>
      <trkpt lat="46.85925" lon="5.68055">
        <ele>279.88</ele>
        <time>2022-07-13T07:15:09Z</time>
      </trkpt>
      <trkpt lat="46.85929" lon="5.68058">
        <ele>279.88</ele>
        <time>2022-07-13T07:15:10Z</time>
      </trkpt>
      <trkpt lat="46.85933" lon="5.68061">
        <ele>279.4</ele>
        <time>2022-07-13T07:15:11Z</time>
      </trkpt>
      <trkpt lat="46.85936" lon="5.68063">
        <ele>278.92</ele>
        <time>2022-07-13T07:15:12Z</time>
      </trkpt>
      <trkpt lat="46.8594" lon="5.68065">
        <ele>279.4</ele>
        <time>2022-07-13T07:15:13Z</time>
      </trkpt>
      <trkpt lat="46.85944" lon="5.68066">
        <ele>279.88</ele>
        <time>2022-07-13T07:15:14Z</time>
      </trkpt>
      <trkpt lat="46.85948" lon="5.68067">
        <ele>279.4</ele>
        <time>2022-07-13T07:15:15Z</time>
      </trkpt>
      <trkpt lat="46.85995" lon="5.68088">
        <ele>281.32</ele>
        <time>2022-07-13T07:15:29Z</time>
      </trkpt>
      <trkpt lat="46.86019" lon="5.68119">
        <ele>282.77</ele>
        <time>2022-07-13T07:15:44Z</time>
      </trkpt>
      <trkpt lat="46.86022" lon="5.68118">
        <ele>282.28</ele>
        <time>2022-07-13T07:15:45Z</time>
      </trkpt>
      <trkpt lat="46.86041" lon="5.681">
        <ele>281.8</ele>
        <time>2022-07-13T07:15:51Z</time>
      </trkpt>
      <trkpt lat="46.86044" lon="5.68096">
        <ele>281.8</ele>
        <time>2022-07-13T07:15:52Z</time>
      </trkpt>
      <trkpt lat="46.86047" lon="5.68092">
        <ele>281.32</ele>
        <time>2022-07-13T07:15:53Z</time>
      </trkpt>
      <trkpt lat="46.86049" lon="5.68087">
        <ele>281.8</ele>
        <time>2022-07-13T07:15:54Z</time>
      </trkpt>
      <trkpt lat="46.8605" lon="5.68082">
        <ele>281.32</ele>
        <time>2022-07-13T07:15:55Z</time>
      </trkpt>
      <trkpt lat="46.86051" lon="5.68076">
        <ele>281.32</ele>
        <time>2022-07-13T07:15:56Z</time>
      </trkpt>
      <trkpt lat="46.86064" lon="5.68022">
        <ele>279.88</ele>
        <time>2022-07-13T07:16:06Z</time>
      </trkpt>
      <trkpt lat="46.86101" lon="5.67908">
        <ele>280.36</ele>
        <time>2022-07-13T07:16:25Z</time>
      </trkpt>
      <trkpt lat="46.86111" lon="5.67876">
        <ele>279.4</ele>
        <time>2022-07-13T07:16:30Z</time>
      </trkpt>
      <trkpt lat="46.86114" lon="5.6787">
        <ele>278.92</ele>
        <time>2022-07-13T07:16:31Z</time>
      </trkpt>
      <trkpt lat="46.86144" lon="5.67784">
        <ele>280.36</ele>
        <time>2022-07-13T07:16:46Z</time>
      </trkpt>
      <trkpt lat="46.8616" lon="5.67733">
        <ele>280.36</ele>
        <time>2022-07-13T07:16:56Z</time>
      </trkpt>
      <trkpt lat="46.86161" lon="5.67721">
        <ele>280.36</ele>
        <time>2022-07-13T07:16:58Z</time>
      </trkpt>
      <trkpt lat="46.86161" lon="5.67714">
        <ele>279.88</ele>
        <time>2022-07-13T07:16:59Z</time>
      </trkpt>
      <trkpt lat="46.86161" lon="5.67708">
        <ele>279.88</ele>
        <time>2022-07-13T07:17:00Z</time>
      </trkpt>
      <trkpt lat="46.86156" lon="5.67595">
        <ele>278.44</ele>
        <time>2022-07-13T07:17:17Z</time>
      </trkpt>
      <trkpt lat="46.86165" lon="5.67443">
        <ele>277.96</ele>
        <time>2022-07-13T07:17:39Z</time>
      </trkpt>
      <trkpt lat="46.86177" lon="5.67365">
        <ele>277.48</ele>
        <time>2022-07-13T07:17:54Z</time>
      </trkpt>
      <trkpt lat="46.86184" lon="5.67335">
        <ele>276.52</ele>
        <time>2022-07-13T07:18:06Z</time>
      </trkpt>
      <trkpt lat="46.86184" lon="5.67331">
        <ele>277</ele>
        <time>2022-07-13T07:18:07Z</time>
      </trkpt>
      <trkpt lat="46.86185" lon="5.67328">
        <ele>276.52</ele>
        <time>2022-07-13T07:18:08Z</time>
      </trkpt>
      <trkpt lat="46.86185" lon="5.67324">
        <ele>277</ele>
        <time>2022-07-13T07:18:09Z</time>
      </trkpt>
      <trkpt lat="46.86186" lon="5.6732">
        <ele>277.48</ele>
        <time>2022-07-13T07:18:10Z</time>
      </trkpt>
      <trkpt lat="46.86188" lon="5.67317">
        <ele>277</ele>
        <time>2022-07-13T07:18:11Z</time>
      </trkpt>
      <trkpt lat="46.86223" lon="5.67255">
        <ele>277.96</ele>
        <time>2022-07-13T07:18:29Z</time>
      </trkpt>
      <trkpt lat="46.86222" lon="5.67237">
        <ele>277</ele>
        <time>2022-07-13T07:18:33Z</time>
      </trkpt>
      <trkpt lat="46.86219" lon="5.67232">
        <ele>277</ele>
        <time>2022-07-13T07:18:34Z</time>
      </trkpt>
      <trkpt lat="46.86216" lon="5.67227">
        <ele>276.52</ele>
        <time>2022-07-13T07:18:35Z</time>
      </trkpt>
      <trkpt lat="46.86212" lon="5.67222">
        <ele>276.04</ele>
        <time>2022-07-13T07:18:36Z</time>
      </trkpt>
      <trkpt lat="46.86207" lon="5.67218">
        <ele>276.52</ele>
        <time>2022-07-13T07:18:37Z</time>
      </trkpt>
      <trkpt lat="46.86167" lon="5.67184">
        <ele>274.59</ele>
        <time>2022-07-13T07:18:45Z</time>
      </trkpt>
      <trkpt lat="46.86162" lon="5.67179">
        <ele>274.11</ele>
        <time>2022-07-13T07:18:46Z</time>
      </trkpt>
      <trkpt lat="46.86147" lon="5.67164">
        <ele>273.63</ele>
        <time>2022-07-13T07:18:49Z</time>
      </trkpt>
      <trkpt lat="46.86143" lon="5.67158">
        <ele>274.11</ele>
        <time>2022-07-13T07:18:50Z</time>
      </trkpt>
      <trkpt lat="46.8614" lon="5.6715">
        <ele>273.63</ele>
        <time>2022-07-13T07:18:51Z</time>
      </trkpt>
      <trkpt lat="46.86138" lon="5.67142">
        <ele>272.67</ele>
        <time>2022-07-13T07:18:52Z</time>
      </trkpt>
      <trkpt lat="46.86137" lon="5.67134">
        <ele>273.15</ele>
        <time>2022-07-13T07:18:53Z</time>
      </trkpt>
      <trkpt lat="46.86136" lon="5.67126">
        <ele>272.67</ele>
        <time>2022-07-13T07:18:54Z</time>
      </trkpt>
      <trkpt lat="46.86136" lon="5.67119">
        <ele>273.15</ele>
        <time>2022-07-13T07:18:55Z</time>
      </trkpt>
      <trkpt lat="46.86137" lon="5.67112">
        <ele>272.67</ele>
        <time>2022-07-13T07:18:56Z</time>
      </trkpt>
      <trkpt lat="46.86145" lon="5.67022">
        <ele>273.15</ele>
        <time>2022-07-13T07:19:11Z</time>
      </trkpt>
      <trkpt lat="46.86151" lon="5.6691">
        <ele>272.19</ele>
        <time>2022-07-13T07:19:28Z</time>
      </trkpt>
      <trkpt lat="46.86187" lon="5.66785">
        <ele>271.71</ele>
        <time>2022-07-13T07:19:48Z</time>
      </trkpt>
      <trkpt lat="46.86236" lon="5.66681">
        <ele>271.71</ele>
        <time>2022-07-13T07:20:07Z</time>
      </trkpt>
      <trkpt lat="46.86253" lon="5.66651">
        <ele>271.71</ele>
        <time>2022-07-13T07:20:13Z</time>
      </trkpt>
      <trkpt lat="46.86256" lon="5.66647">
        <ele>271.71</ele>
        <time>2022-07-13T07:20:14Z</time>
      </trkpt>
      <trkpt lat="46.86257" lon="5.66641">
        <ele>271.71</ele>
        <time>2022-07-13T07:20:15Z</time>
      </trkpt>
      <trkpt lat="46.86259" lon="5.66636">
        <ele>271.71</ele>
        <time>2022-07-13T07:20:16Z</time>
      </trkpt>
      <trkpt lat="46.86261" lon="5.6663">
        <ele>271.23</ele>
        <time>2022-07-13T07:20:17Z</time>
      </trkpt>
      <trkpt lat="46.86261" lon="5.66625">
        <ele>271.71</ele>
        <time>2022-07-13T07:20:18Z</time>
      </trkpt>
      <trkpt lat="46.86262" lon="5.66619">
        <ele>271.23</ele>
        <time>2022-07-13T07:20:19Z</time>
      </trkpt>
      <trkpt lat="46.86262" lon="5.66613">
        <ele>270.75</ele>
        <time>2022-07-13T07:20:20Z</time>
      </trkpt>
      <trkpt lat="46.86261" lon="5.66606">
        <ele>270.75</ele>
        <time>2022-07-13T07:20:21Z</time>
      </trkpt>
      <trkpt lat="46.8626" lon="5.666">
        <ele>270.75</ele>
        <time>2022-07-13T07:20:22Z</time>
      </trkpt>
      <trkpt lat="46.86258" lon="5.66593">
        <ele>270.75</ele>
        <time>2022-07-13T07:20:23Z</time>
      </trkpt>
      <trkpt lat="46.86256" lon="5.66586">
        <ele>270.75</ele>
        <time>2022-07-13T07:20:24Z</time>
      </trkpt>
      <trkpt lat="46.86253" lon="5.66579">
        <ele>270.75</ele>
        <time>2022-07-13T07:20:25Z</time>
      </trkpt>
      <trkpt lat="46.86201" lon="5.66486">
        <ele>269.31</ele>
        <time>2022-07-13T07:20:40Z</time>
      </trkpt>
      <trkpt lat="46.86136" lon="5.66426">
        <ele>269.79</ele>
        <time>2022-07-13T07:20:56Z</time>
      </trkpt>
      <trkpt lat="46.86079" lon="5.66403">
        <ele>270.27</ele>
        <time>2022-07-13T07:21:11Z</time>
      </trkpt>
      <trkpt lat="46.86037" lon="5.66382">
        <ele>268.83</ele>
        <time>2022-07-13T07:21:21Z</time>
      </trkpt>
      <trkpt lat="46.85959" lon="5.66337">
        <ele>269.79</ele>
        <time>2022-07-13T07:21:39Z</time>
      </trkpt>
      <trkpt lat="46.85924" lon="5.66284">
        <ele>271.23</ele>
        <time>2022-07-13T07:21:52Z</time>
      </trkpt>
      <trkpt lat="46.85888" lon="5.66208">
        <ele>272.67</ele>
        <time>2022-07-13T07:22:08Z</time>
      </trkpt>
      <trkpt lat="46.85843" lon="5.66115">
        <ele>270.75</ele>
        <time>2022-07-13T07:22:24Z</time>
      </trkpt>
      <trkpt lat="46.85827" lon="5.66072">
        <ele>269.79</ele>
        <time>2022-07-13T07:22:30Z</time>
      </trkpt>
      <trkpt lat="46.85826" lon="5.66066">
        <ele>269.31</ele>
        <time>2022-07-13T07:22:31Z</time>
      </trkpt>
      <trkpt lat="46.85819" lon="5.66025">
        <ele>268.35</ele>
        <time>2022-07-13T07:22:37Z</time>
      </trkpt>
      <trkpt lat="46.85789" lon="5.65934">
        <ele>268.35</ele>
        <time>2022-07-13T07:22:53Z</time>
      </trkpt>
      <trkpt lat="46.85787" lon="5.65928">
        <ele>269.31</ele>
        <time>2022-07-13T07:22:54Z</time>
      </trkpt>
      <trkpt lat="46.85786" lon="5.65922">
        <ele>269.31</ele>
        <time>2022-07-13T07:22:55Z</time>
      </trkpt>
      <trkpt lat="46.85786" lon="5.65916">
        <ele>268.83</ele>
        <time>2022-07-13T07:22:56Z</time>
      </trkpt>
      <trkpt lat="46.85787" lon="5.65911">
        <ele>269.31</ele>
        <time>2022-07-13T07:22:57Z</time>
      </trkpt>
      <trkpt lat="46.85787" lon="5.65905">
        <ele>269.31</ele>
        <time>2022-07-13T07:22:58Z</time>
      </trkpt>
      <trkpt lat="46.85798" lon="5.65815">
        <ele>269.79</ele>
        <time>2022-07-13T07:23:12Z</time>
      </trkpt>
      <trkpt lat="46.858" lon="5.65787">
        <ele>269.79</ele>
        <time>2022-07-13T07:23:16Z</time>
      </trkpt>
      <trkpt lat="46.85799" lon="5.65758">
        <ele>269.31</ele>
        <time>2022-07-13T07:23:20Z</time>
      </trkpt>
      <trkpt lat="46.8579" lon="5.65649">
        <ele>268.83</ele>
        <time>2022-07-13T07:23:35Z</time>
      </trkpt>
      <trkpt lat="46.85769" lon="5.65532">
        <ele>268.83</ele>
        <time>2022-07-13T07:23:52Z</time>
      </trkpt>
      <trkpt lat="46.8577" lon="5.65525">
        <ele>268.83</ele>
        <time>2022-07-13T07:23:53Z</time>
      </trkpt>
      <trkpt lat="46.85771" lon="5.65518">
        <ele>268.83</ele>
        <time>2022-07-13T07:23:54Z</time>
      </trkpt>
      <trkpt lat="46.85773" lon="5.6551">
        <ele>268.35</ele>
        <time>2022-07-13T07:23:55Z</time>
      </trkpt>
      <trkpt lat="46.85783" lon="5.65472">
        <ele>266.9</ele>
        <time>2022-07-13T07:24:00Z</time>
      </trkpt>
      <trkpt lat="46.85784" lon="5.65464">
        <ele>266.9</ele>
        <time>2022-07-13T07:24:01Z</time>
      </trkpt>
      <trkpt lat="46.85785" lon="5.65456">
        <ele>266.9</ele>
        <time>2022-07-13T07:24:02Z</time>
      </trkpt>
      <trkpt lat="46.85784" lon="5.65449">
        <ele>266.42</ele>
        <time>2022-07-13T07:24:03Z</time>
      </trkpt>
      <trkpt lat="46.85784" lon="5.65441">
        <ele>266.42</ele>
        <time>2022-07-13T07:24:04Z</time>
      </trkpt>
      <trkpt lat="46.85783" lon="5.65434">
        <ele>266.9</ele>
        <time>2022-07-13T07:24:05Z</time>
      </trkpt>
      <trkpt lat="46.85771" lon="5.65364">
        <ele>269.31</ele>
        <time>2022-07-13T07:24:18Z</time>
      </trkpt>
      <trkpt lat="46.85767" lon="5.65296">
        <ele>270.75</ele>
        <time>2022-07-13T07:24:32Z</time>
      </trkpt>
      <trkpt lat="46.85764" lon="5.65221">
        <ele>270.27</ele>
        <time>2022-07-13T07:24:45Z</time>
      </trkpt>
      <trkpt lat="46.85751" lon="5.65116">
        <ele>270.27</ele>
        <time>2022-07-13T07:25:00Z</time>
      </trkpt>
      <trkpt lat="46.85745" lon="5.65024">
        <ele>270.75</ele>
        <time>2022-07-13T07:25:16Z</time>
      </trkpt>
      <trkpt lat="46.85752" lon="5.64948">
        <ele>272.19</ele>
        <time>2022-07-13T07:25:30Z</time>
      </trkpt>
      <trkpt lat="46.85756" lon="5.64868">
        <ele>273.15</ele>
        <time>2022-07-13T07:25:44Z</time>
      </trkpt>
      <trkpt lat="46.85755" lon="5.64783">
        <ele>274.11</ele>
        <time>2022-07-13T07:26:00Z</time>
      </trkpt>
      <trkpt lat="46.85757" lon="5.64705">
        <ele>276.04</ele>
        <time>2022-07-13T07:26:15Z</time>
      </trkpt>
      <trkpt lat="46.85752" lon="5.64634">
        <ele>277</ele>
        <time>2022-07-13T07:26:29Z</time>
      </trkpt>
      <trkpt lat="46.85748" lon="5.64581">
        <ele>276.52</ele>
        <time>2022-07-13T07:26:37Z</time>
      </trkpt>
      <trkpt lat="46.85753" lon="5.64563">
        <ele>275.56</ele>
        <time>2022-07-13T07:26:40Z</time>
      </trkpt>
      <trkpt lat="46.85756" lon="5.64557">
        <ele>275.07</ele>
        <time>2022-07-13T07:26:41Z</time>
      </trkpt>
      <trkpt lat="46.8577" lon="5.64502">
        <ele>273.63</ele>
        <time>2022-07-13T07:26:49Z</time>
      </trkpt>
      <trkpt lat="46.85772" lon="5.64495">
        <ele>274.59</ele>
        <time>2022-07-13T07:26:50Z</time>
      </trkpt>
      <trkpt lat="46.85775" lon="5.64479">
        <ele>274.59</ele>
        <time>2022-07-13T07:26:52Z</time>
      </trkpt>
      <trkpt lat="46.85774" lon="5.64472">
        <ele>274.59</ele>
        <time>2022-07-13T07:26:53Z</time>
      </trkpt>
      <trkpt lat="46.85773" lon="5.64465">
        <ele>274.59</ele>
        <time>2022-07-13T07:26:54Z</time>
      </trkpt>
      <trkpt lat="46.85764" lon="5.64404">
        <ele>273.63</ele>
        <time>2022-07-13T07:27:03Z</time>
      </trkpt>
      <trkpt lat="46.8576" lon="5.64386">
        <ele>273.63</ele>
        <time>2022-07-13T07:27:06Z</time>
      </trkpt>
      <trkpt lat="46.85759" lon="5.64381">
        <ele>273.63</ele>
        <time>2022-07-13T07:27:07Z</time>
      </trkpt>
      <trkpt lat="46.85758" lon="5.64375">
        <ele>273.15</ele>
        <time>2022-07-13T07:27:08Z</time>
      </trkpt>
      <trkpt lat="46.85758" lon="5.64369">
        <ele>274.11</ele>
        <time>2022-07-13T07:27:09Z</time>
      </trkpt>
      <trkpt lat="46.85759" lon="5.64363">
        <ele>273.63</ele>
        <time>2022-07-13T07:27:10Z</time>
      </trkpt>
      <trkpt lat="46.85761" lon="5.64358">
        <ele>273.63</ele>
        <time>2022-07-13T07:27:11Z</time>
      </trkpt>
      <trkpt lat="46.85762" lon="5.64352">
        <ele>273.63</ele>
        <time>2022-07-13T07:27:12Z</time>
      </trkpt>
      <trkpt lat="46.85765" lon="5.64347">
        <ele>273.63</ele>
        <time>2022-07-13T07:27:13Z</time>
      </trkpt>
      <trkpt lat="46.85767" lon="5.64341">
        <ele>273.63</ele>
        <time>2022-07-13T07:27:14Z</time>
      </trkpt>
      <trkpt lat="46.85796" lon="5.64272">
        <ele>272.67</ele>
        <time>2022-07-13T07:27:28Z</time>
      </trkpt>
      <trkpt lat="46.85811" lon="5.6423">
        <ele>271.71</ele>
        <time>2022-07-13T07:27:40Z</time>
      </trkpt>
      <trkpt lat="46.85824" lon="5.64182">
        <ele>271.23</ele>
        <time>2022-07-13T07:27:51Z</time>
      </trkpt>
      <trkpt lat="46.85825" lon="5.64181">
        <ele>271.23</ele>
        <time>2022-07-13T07:27:52Z</time>
      </trkpt>
      <trkpt lat="46.85827" lon="5.64179">
        <ele>271.23</ele>
        <time>2022-07-13T07:27:53Z</time>
      </trkpt>
      <trkpt lat="46.85827" lon="5.64175">
        <ele>271.23</ele>
        <time>2022-07-13T07:28:07Z</time>
      </trkpt>
      <trkpt lat="46.85825" lon="5.64164">
        <ele>270.75</ele>
        <time>2022-07-13T07:28:35Z</time>
      </trkpt>
      <trkpt lat="46.85823" lon="5.64159">
        <ele>271.23</ele>
        <time>2022-07-13T07:29:10Z</time>
      </trkpt>
      <trkpt lat="46.85823" lon="5.64159">
        <ele>271.71</ele>
        <time>2022-07-13T07:29:40Z</time>
      </trkpt>
      <trkpt lat="46.85823" lon="5.64158">
        <ele>272.19</ele>
        <time>2022-07-13T07:30:17Z</time>
      </trkpt>
      <trkpt lat="46.85826" lon="5.64161">
        <ele>271.23</ele>
        <time>2022-07-13T07:30:59Z</time>
      </trkpt>
      <trkpt lat="46.85826" lon="5.64161">
        <ele>271.23</ele>
        <time>2022-07-13T07:31:36Z</time>
      </trkpt>
      <trkpt lat="46.85829" lon="5.64171">
        <ele>271.23</ele>
        <time>2022-07-13T07:31:59Z</time>
      </trkpt>
      <trkpt lat="46.85831" lon="5.64177">
        <ele>271.71</ele>
        <time>2022-07-13T07:32:17Z</time>
      </trkpt>
      <trkpt lat="46.8583" lon="5.64176">
        <ele>271.23</ele>
        <time>2022-07-13T07:32:18Z</time>
      </trkpt>
      <trkpt lat="46.85829" lon="5.64175">
        <ele>272.19</ele>
        <time>2022-07-13T07:32:19Z</time>
      </trkpt>
      <trkpt lat="46.85828" lon="5.64175">
        <ele>272.19</ele>
        <time>2022-07-13T07:32:20Z</time>
      </trkpt>
      <trkpt lat="46.85827" lon="5.64174">
        <ele>271.71</ele>
        <time>2022-07-13T07:32:21Z</time>
      </trkpt>
      <trkpt lat="46.85825" lon="5.64172">
        <ele>271.23</ele>
        <time>2022-07-13T07:32:22Z</time>
      </trkpt>
      <trkpt lat="46.85825" lon="5.64169">
        <ele>270.75</ele>
        <time>2022-07-13T07:32:23Z</time>
      </trkpt>
      <trkpt lat="46.85825" lon="5.64166">
        <ele>271.23</ele>
        <time>2022-07-13T07:32:24Z</time>
      </trkpt>
      <trkpt lat="46.85825" lon="5.64164">
        <ele>271.23</ele>
        <time>2022-07-13T07:32:25Z</time>
      </trkpt>
      <trkpt lat="46.85826" lon="5.64161">
        <ele>271.23</ele>
        <time>2022-07-13T07:32:26Z</time>
      </trkpt>
      <trkpt lat="46.85827" lon="5.64158">
        <ele>271.23</ele>
        <time>2022-07-13T07:32:27Z</time>
      </trkpt>
      <trkpt lat="46.85828" lon="5.64155">
        <ele>271.23</ele>
        <time>2022-07-13T07:32:28Z</time>
      </trkpt>
      <trkpt lat="46.8583" lon="5.64151">
        <ele>271.23</ele>
        <time>2022-07-13T07:32:29Z</time>
      </trkpt>
      <trkpt lat="46.85859" lon="5.64074">
        <ele>270.75</ele>
        <time>2022-07-13T07:32:45Z</time>
      </trkpt>
      <trkpt lat="46.85871" lon="5.64048">
        <ele>270.75</ele>
        <time>2022-07-13T07:32:50Z</time>
      </trkpt>
      <trkpt lat="46.85874" lon="5.64044">
        <ele>270.75</ele>
        <time>2022-07-13T07:32:51Z</time>
      </trkpt>
      <trkpt lat="46.85878" lon="5.6404">
        <ele>269.79</ele>
        <time>2022-07-13T07:32:52Z</time>
      </trkpt>
      <trkpt lat="46.85881" lon="5.64037">
        <ele>269.79</ele>
        <time>2022-07-13T07:32:53Z</time>
      </trkpt>
      <trkpt lat="46.85885" lon="5.64034">
        <ele>269.79</ele>
        <time>2022-07-13T07:32:54Z</time>
      </trkpt>
      <trkpt lat="46.85889" lon="5.64033">
        <ele>269.79</ele>
        <time>2022-07-13T07:32:55Z</time>
      </trkpt>
      <trkpt lat="46.85893" lon="5.64033">
        <ele>269.79</ele>
        <time>2022-07-13T07:32:56Z</time>
      </trkpt>
      <trkpt lat="46.85898" lon="5.64033">
        <ele>270.27</ele>
        <time>2022-07-13T07:32:57Z</time>
      </trkpt>
      <trkpt lat="46.8593" lon="5.64032">
        <ele>269.31</ele>
        <time>2022-07-13T07:33:03Z</time>
      </trkpt>
      <trkpt lat="46.85935" lon="5.6403">
        <ele>269.31</ele>
        <time>2022-07-13T07:33:04Z</time>
      </trkpt>
      <trkpt lat="46.85939" lon="5.64028">
        <ele>269.31</ele>
        <time>2022-07-13T07:33:05Z</time>
      </trkpt>
      <trkpt lat="46.85962" lon="5.64012">
        <ele>268.83</ele>
        <time>2022-07-13T07:33:10Z</time>
      </trkpt>
      <trkpt lat="46.85966" lon="5.64008">
        <ele>268.83</ele>
        <time>2022-07-13T07:33:11Z</time>
      </trkpt>
      <trkpt lat="46.8597" lon="5.64003">
        <ele>268.35</ele>
        <time>2022-07-13T07:33:12Z</time>
      </trkpt>
      <trkpt lat="46.85973" lon="5.63998">
        <ele>268.35</ele>
        <time>2022-07-13T07:33:13Z</time>
      </trkpt>
      <trkpt lat="46.85976" lon="5.63992">
        <ele>268.35</ele>
        <time>2022-07-13T07:33:14Z</time>
      </trkpt>
      <trkpt lat="46.85978" lon="5.63985">
        <ele>268.83</ele>
        <time>2022-07-13T07:33:15Z</time>
      </trkpt>
      <trkpt lat="46.8598" lon="5.63979">
        <ele>268.35</ele>
        <time>2022-07-13T07:33:16Z</time>
      </trkpt>
      <trkpt lat="46.85993" lon="5.63918">
        <ele>266.42</ele>
        <time>2022-07-13T07:33:24Z</time>
      </trkpt>
      <trkpt lat="46.86" lon="5.63864">
        <ele>265.94</ele>
        <time>2022-07-13T07:33:30Z</time>
      </trkpt>
      <trkpt lat="46.86019" lon="5.63733">
        <ele>264.02</ele>
        <time>2022-07-13T07:33:47Z</time>
      </trkpt>
      <trkpt lat="46.86026" lon="5.63704">
        <ele>264.02</ele>
        <time>2022-07-13T07:33:51Z</time>
      </trkpt>
      <trkpt lat="46.86026" lon="5.63696">
        <ele>264.5</ele>
        <time>2022-07-13T07:33:52Z</time>
      </trkpt>
      <trkpt lat="46.86027" lon="5.63688">
        <ele>264.02</ele>
        <time>2022-07-13T07:33:53Z</time>
      </trkpt>
      <trkpt lat="46.86027" lon="5.6368">
        <ele>264.5</ele>
        <time>2022-07-13T07:33:54Z</time>
      </trkpt>
      <trkpt lat="46.86027" lon="5.63673">
        <ele>264.5</ele>
        <time>2022-07-13T07:33:55Z</time>
      </trkpt>
      <trkpt lat="46.86024" lon="5.63644">
        <ele>264.02</ele>
        <time>2022-07-13T07:33:59Z</time>
      </trkpt>
      <trkpt lat="46.8602" lon="5.63622">
        <ele>264.5</ele>
        <time>2022-07-13T07:34:02Z</time>
      </trkpt>
      <trkpt lat="46.8602" lon="5.63615">
        <ele>264.02</ele>
        <time>2022-07-13T07:34:03Z</time>
      </trkpt>
      <trkpt lat="46.86022" lon="5.63517">
        <ele>263.06</ele>
        <time>2022-07-13T07:34:16Z</time>
      </trkpt>
      <trkpt lat="46.86021" lon="5.6351">
        <ele>263.06</ele>
        <time>2022-07-13T07:34:17Z</time>
      </trkpt>
      <trkpt lat="46.8602" lon="5.63503">
        <ele>263.54</ele>
        <time>2022-07-13T07:34:18Z</time>
      </trkpt>
      <trkpt lat="46.86018" lon="5.63497">
        <ele>263.06</ele>
        <time>2022-07-13T07:34:19Z</time>
      </trkpt>
      <trkpt lat="46.86016" lon="5.6349">
        <ele>263.06</ele>
        <time>2022-07-13T07:34:20Z</time>
      </trkpt>
      <trkpt lat="46.86013" lon="5.63484">
        <ele>263.06</ele>
        <time>2022-07-13T07:34:21Z</time>
      </trkpt>
      <trkpt lat="46.8601" lon="5.63478">
        <ele>262.58</ele>
        <time>2022-07-13T07:34:22Z</time>
      </trkpt>
      <trkpt lat="46.86007" lon="5.63472">
        <ele>263.06</ele>
        <time>2022-07-13T07:34:23Z</time>
      </trkpt>
      <trkpt lat="46.85996" lon="5.6345">
        <ele>263.06</ele>
        <time>2022-07-13T07:34:27Z</time>
      </trkpt>
      <trkpt lat="46.85995" lon="5.63444">
        <ele>263.54</ele>
        <time>2022-07-13T07:34:28Z</time>
      </trkpt>
      <trkpt lat="46.85994" lon="5.63438">
        <ele>263.06</ele>
        <time>2022-07-13T07:34:29Z</time>
      </trkpt>
      <trkpt lat="46.85993" lon="5.63431">
        <ele>263.54</ele>
        <time>2022-07-13T07:34:30Z</time>
      </trkpt>
      <trkpt lat="46.85993" lon="5.63425">
        <ele>263.54</ele>
        <time>2022-07-13T07:34:31Z</time>
      </trkpt>
      <trkpt lat="46.85993" lon="5.63419">
        <ele>263.54</ele>
        <time>2022-07-13T07:34:32Z</time>
      </trkpt>
      <trkpt lat="46.85994" lon="5.63414">
        <ele>263.54</ele>
        <time>2022-07-13T07:34:33Z</time>
      </trkpt>
      <trkpt lat="46.86008" lon="5.63313">
        <ele>263.54</ele>
        <time>2022-07-13T07:34:50Z</time>
      </trkpt>
      <trkpt lat="46.86016" lon="5.63189">
        <ele>261.62</ele>
        <time>2022-07-13T07:35:05Z</time>
      </trkpt>
      <trkpt lat="46.86023" lon="5.63096">
        <ele>264.02</ele>
        <time>2022-07-13T07:35:19Z</time>
      </trkpt>
      <trkpt lat="46.86038" lon="5.63045">
        <ele>263.54</ele>
        <time>2022-07-13T07:35:28Z</time>
      </trkpt>
      <trkpt lat="46.86041" lon="5.63041">
        <ele>264.02</ele>
        <time>2022-07-13T07:35:29Z</time>
      </trkpt>
      <trkpt lat="46.86044" lon="5.63036">
        <ele>264.02</ele>
        <time>2022-07-13T07:35:30Z</time>
      </trkpt>
      <trkpt lat="46.86047" lon="5.63032">
        <ele>263.54</ele>
        <time>2022-07-13T07:35:31Z</time>
      </trkpt>
      <trkpt lat="46.86051" lon="5.63029">
        <ele>264.02</ele>
        <time>2022-07-13T07:35:32Z</time>
      </trkpt>
      <trkpt lat="46.86054" lon="5.63026">
        <ele>263.54</ele>
        <time>2022-07-13T07:35:33Z</time>
      </trkpt>
      <trkpt lat="46.86113" lon="5.62983">
        <ele>260.17</ele>
        <time>2022-07-13T07:35:47Z</time>
      </trkpt>
      <trkpt lat="46.86158" lon="5.62952">
        <ele>257.29</ele>
        <time>2022-07-13T07:35:54Z</time>
      </trkpt>
      <trkpt lat="46.86197" lon="5.62906">
        <ele>256.33</ele>
        <time>2022-07-13T07:36:00Z</time>
      </trkpt>
      <trkpt lat="46.86202" lon="5.62898">
        <ele>256.33</ele>
        <time>2022-07-13T07:36:01Z</time>
      </trkpt>
      <trkpt lat="46.86233" lon="5.62811">
        <ele>257.29</ele>
        <time>2022-07-13T07:36:13Z</time>
      </trkpt>
      <trkpt lat="46.86252" lon="5.62738">
        <ele>256.81</ele>
        <time>2022-07-13T07:36:23Z</time>
      </trkpt>
      <trkpt lat="46.86253" lon="5.62717">
        <ele>257.29</ele>
        <time>2022-07-13T07:36:26Z</time>
      </trkpt>
      <trkpt lat="46.8625" lon="5.62661">
        <ele>257.77</ele>
        <time>2022-07-13T07:36:35Z</time>
      </trkpt>
      <trkpt lat="46.8625" lon="5.62655">
        <ele>257.77</ele>
        <time>2022-07-13T07:36:36Z</time>
      </trkpt>
      <trkpt lat="46.86251" lon="5.62648">
        <ele>258.25</ele>
        <time>2022-07-13T07:36:37Z</time>
      </trkpt>
      <trkpt lat="46.86272" lon="5.62554">
        <ele>257.77</ele>
        <time>2022-07-13T07:36:54Z</time>
      </trkpt>
      <trkpt lat="46.86286" lon="5.62492">
        <ele>257.29</ele>
        <time>2022-07-13T07:37:07Z</time>
      </trkpt>
      <trkpt lat="46.86302" lon="5.62424">
        <ele>253.93</ele>
        <time>2022-07-13T07:37:16Z</time>
      </trkpt>
      <trkpt lat="46.86311" lon="5.62394">
        <ele>253.93</ele>
        <time>2022-07-13T07:37:19Z</time>
      </trkpt>
      <trkpt lat="46.86315" lon="5.62385">
        <ele>252.96</ele>
        <time>2022-07-13T07:37:20Z</time>
      </trkpt>
      <trkpt lat="46.8632" lon="5.62378">
        <ele>252.96</ele>
        <time>2022-07-13T07:37:21Z</time>
      </trkpt>
      <trkpt lat="46.86326" lon="5.62372">
        <ele>252.96</ele>
        <time>2022-07-13T07:37:22Z</time>
      </trkpt>
      <trkpt lat="46.86333" lon="5.62368">
        <ele>252.48</ele>
        <time>2022-07-13T07:37:23Z</time>
      </trkpt>
      <trkpt lat="46.86406" lon="5.62349">
        <ele>252.48</ele>
        <time>2022-07-13T07:37:36Z</time>
      </trkpt>
      <trkpt lat="46.86495" lon="5.62356">
        <ele>252.96</ele>
        <time>2022-07-13T07:37:54Z</time>
      </trkpt>
      <trkpt lat="46.86542" lon="5.62359">
        <ele>252.96</ele>
        <time>2022-07-13T07:38:07Z</time>
      </trkpt>
      <trkpt lat="46.86556" lon="5.62363">
        <ele>252.96</ele>
        <time>2022-07-13T07:38:10Z</time>
      </trkpt>
      <trkpt lat="46.866" lon="5.62374">
        <ele>252.96</ele>
        <time>2022-07-13T07:38:19Z</time>
      </trkpt>
      <trkpt lat="46.86605" lon="5.62374">
        <ele>252.96</ele>
        <time>2022-07-13T07:38:20Z</time>
      </trkpt>
      <trkpt lat="46.8661" lon="5.62374">
        <ele>252.96</ele>
        <time>2022-07-13T07:38:21Z</time>
      </trkpt>
      <trkpt lat="46.86643" lon="5.62365">
        <ele>252.96</ele>
        <time>2022-07-13T07:38:29Z</time>
      </trkpt>
      <trkpt lat="46.86695" lon="5.62339">
        <ele>252.96</ele>
        <time>2022-07-13T07:38:43Z</time>
      </trkpt>
      <trkpt lat="46.86737" lon="5.62359">
        <ele>254.89</ele>
        <time>2022-07-13T07:38:56Z</time>
      </trkpt>
      <trkpt lat="46.86778" lon="5.62385">
        <ele>257.29</ele>
        <time>2022-07-13T07:39:13Z</time>
      </trkpt>
      <trkpt lat="46.86827" lon="5.62388">
        <ele>259.69</ele>
        <time>2022-07-13T07:39:33Z</time>
      </trkpt>
      <trkpt lat="46.86867" lon="5.62403">
        <ele>262.1</ele>
        <time>2022-07-13T07:39:49Z</time>
      </trkpt>
      <trkpt lat="46.86909" lon="5.6242">
        <ele>264.02</ele>
        <time>2022-07-13T07:40:06Z</time>
      </trkpt>
      <trkpt lat="46.86938" lon="5.62428">
        <ele>266.9</ele>
        <time>2022-07-13T07:40:20Z</time>
      </trkpt>
      <trkpt lat="46.86972" lon="5.62432">
        <ele>269.31</ele>
        <time>2022-07-13T07:40:36Z</time>
      </trkpt>
      <trkpt lat="46.86995" lon="5.62414">
        <ele>270.75</ele>
        <time>2022-07-13T07:40:53Z</time>
      </trkpt>
      <trkpt lat="46.87013" lon="5.62398">
        <ele>273.15</ele>
        <time>2022-07-13T07:41:08Z</time>
      </trkpt>
      <trkpt lat="46.87031" lon="5.6237">
        <ele>275.56</ele>
        <time>2022-07-13T07:41:25Z</time>
      </trkpt>
      <trkpt lat="46.87048" lon="5.62337">
        <ele>278.44</ele>
        <time>2022-07-13T07:41:43Z</time>
      </trkpt>
      <trkpt lat="46.87062" lon="5.62292">
        <ele>278.92</ele>
        <time>2022-07-13T07:41:58Z</time>
      </trkpt>
      <trkpt lat="46.87089" lon="5.62222">
        <ele>280.36</ele>
        <time>2022-07-13T07:42:14Z</time>
      </trkpt>
      <trkpt lat="46.87126" lon="5.6215">
        <ele>278.44</ele>
        <time>2022-07-13T07:42:30Z</time>
      </trkpt>
      <trkpt lat="46.87167" lon="5.62096">
        <ele>278.44</ele>
        <time>2022-07-13T07:42:47Z</time>
      </trkpt>
      <trkpt lat="46.8719" lon="5.62077">
        <ele>277.48</ele>
        <time>2022-07-13T07:42:53Z</time>
      </trkpt>
      <trkpt lat="46.87194" lon="5.62072">
        <ele>277.48</ele>
        <time>2022-07-13T07:42:54Z</time>
      </trkpt>
      <trkpt lat="46.87198" lon="5.62067">
        <ele>277</ele>
        <time>2022-07-13T07:42:55Z</time>
      </trkpt>
      <trkpt lat="46.87206" lon="5.62054">
        <ele>277</ele>
        <time>2022-07-13T07:42:57Z</time>
      </trkpt>
      <trkpt lat="46.87224" lon="5.62007">
        <ele>276.52</ele>
        <time>2022-07-13T07:43:04Z</time>
      </trkpt>
      <trkpt lat="46.87265" lon="5.6194">
        <ele>276.04</ele>
        <time>2022-07-13T07:43:19Z</time>
      </trkpt>
      <trkpt lat="46.87273" lon="5.61934">
        <ele>276.04</ele>
        <time>2022-07-13T07:43:22Z</time>
      </trkpt>
      <trkpt lat="46.87273" lon="5.61933">
        <ele>276.04</ele>
        <time>2022-07-13T07:43:23Z</time>
      </trkpt>
      <trkpt lat="46.87272" lon="5.61933">
        <ele>276.04</ele>
        <time>2022-07-13T07:43:24Z</time>
      </trkpt>
      <trkpt lat="46.87268" lon="5.61938">
        <ele>276.04</ele>
        <time>2022-07-13T07:43:36Z</time>
      </trkpt>
      <trkpt lat="46.87266" lon="5.61941">
        <ele>276.04</ele>
        <time>2022-07-13T07:43:51Z</time>
      </trkpt>
      <trkpt lat="46.87265" lon="5.61942">
        <ele>276.52</ele>
        <time>2022-07-13T07:43:52Z</time>
      </trkpt>
      <trkpt lat="46.87266" lon="5.61944">
        <ele>275.56</ele>
        <time>2022-07-13T07:43:54Z</time>
      </trkpt>
      <trkpt lat="46.87267" lon="5.61944">
        <ele>276.04</ele>
        <time>2022-07-13T07:43:55Z</time>
      </trkpt>
      <trkpt lat="46.87269" lon="5.61942">
        <ele>276.04</ele>
        <time>2022-07-13T07:43:56Z</time>
      </trkpt>
      <trkpt lat="46.87299" lon="5.61919">
        <ele>277</ele>
        <time>2022-07-13T07:44:11Z</time>
      </trkpt>
      <trkpt lat="46.87268" lon="5.61938">
        <ele>279.88</ele>
        <time>2022-07-13T07:46:53Z</time>
      </trkpt>
      <trkpt lat="46.8751" lon="5.61809">
        <ele>277.48</ele>
        <time>2022-07-13T07:47:12Z</time>
      </trkpt>
      <trkpt lat="46.87511" lon="5.61807">
        <ele>274.11</ele>
        <time>2022-07-13T07:47:23Z</time>
      </trkpt>
      <trkpt lat="46.87509" lon="5.618">
        <ele>272.67</ele>
        <time>2022-07-13T07:47:50Z</time>
      </trkpt>
      <trkpt lat="46.87511" lon="5.61802">
        <ele>272.19</ele>
        <time>2022-07-13T07:47:58Z</time>
      </trkpt>
      <trkpt lat="46.87522" lon="5.6181">
        <ele>272.19</ele>
        <time>2022-07-13T07:48:13Z</time>
      </trkpt>
      <trkpt lat="46.87521" lon="5.6181">
        <ele>272.19</ele>
        <time>2022-07-13T07:48:46Z</time>
      </trkpt>
      <trkpt lat="46.87521" lon="5.61811">
        <ele>272.19</ele>
        <time>2022-07-13T07:49:18Z</time>
      </trkpt>
      <trkpt lat="46.87522" lon="5.61812">
        <ele>272.67</ele>
        <time>2022-07-13T07:49:55Z</time>
      </trkpt>
      <trkpt lat="46.87524" lon="5.61811">
        <ele>271.71</ele>
        <time>2022-07-13T07:50:28Z</time>
      </trkpt>
      <trkpt lat="46.87523" lon="5.61812">
        <ele>271.23</ele>
        <time>2022-07-13T07:51:09Z</time>
      </trkpt>
      <trkpt lat="46.87521" lon="5.61811">
        <ele>271.71</ele>
        <time>2022-07-13T07:51:36Z</time>
      </trkpt>
      <trkpt lat="46.87524" lon="5.61811">
        <ele>272.19</ele>
        <time>2022-07-13T07:51:56Z</time>
      </trkpt>
      <trkpt lat="46.87533" lon="5.61817">
        <ele>272.67</ele>
        <time>2022-07-13T07:52:03Z</time>
      </trkpt>
      <trkpt lat="46.87535" lon="5.61818">
        <ele>272.19</ele>
        <time>2022-07-13T07:52:04Z</time>
      </trkpt>
      <trkpt lat="46.87537" lon="5.61819">
        <ele>272.19</ele>
        <time>2022-07-13T07:52:05Z</time>
      </trkpt>
      <trkpt lat="46.87539" lon="5.61819">
        <ele>272.19</ele>
        <time>2022-07-13T07:52:06Z</time>
      </trkpt>
      <trkpt lat="46.87573" lon="5.61835">
        <ele>272.19</ele>
        <time>2022-07-13T07:52:18Z</time>
      </trkpt>
      <trkpt lat="46.87634" lon="5.61865">
        <ele>272.19</ele>
        <time>2022-07-13T07:52:35Z</time>
      </trkpt>
      <trkpt lat="46.8766" lon="5.61877">
        <ele>272.67</ele>
        <time>2022-07-13T07:52:43Z</time>
      </trkpt>
      <trkpt lat="46.87661" lon="5.61879">
        <ele>273.15</ele>
        <time>2022-07-13T07:52:44Z</time>
      </trkpt>
      <trkpt lat="46.8766" lon="5.61882">
        <ele>272.67</ele>
        <time>2022-07-13T07:53:01Z</time>
      </trkpt>
      <trkpt lat="46.87662" lon="5.6188">
        <ele>272.19</ele>
        <time>2022-07-13T07:53:16Z</time>
      </trkpt>
      <trkpt lat="46.87664" lon="5.6188">
        <ele>272.19</ele>
        <time>2022-07-13T07:53:17Z</time>
      </trkpt>
      <trkpt lat="46.87665" lon="5.6188">
        <ele>272.67</ele>
        <time>2022-07-13T07:53:18Z</time>
      </trkpt>
      <trkpt lat="46.87667" lon="5.6188">
        <ele>272.19</ele>
        <time>2022-07-13T07:53:19Z</time>
      </trkpt>
      <trkpt lat="46.87669" lon="5.6188">
        <ele>272.67</ele>
        <time>2022-07-13T07:53:20Z</time>
      </trkpt>
      <trkpt lat="46.87671" lon="5.61881">
        <ele>272.67</ele>
        <time>2022-07-13T07:53:21Z</time>
      </trkpt>
      <trkpt lat="46.8771" lon="5.61901">
        <ele>274.11</ele>
        <time>2022-07-13T07:53:34Z</time>
      </trkpt>
      <trkpt lat="46.87777" lon="5.61948">
        <ele>274.11</ele>
        <time>2022-07-13T07:53:50Z</time>
      </trkpt>
      <trkpt lat="46.87845" lon="5.62015">
        <ele>273.15</ele>
        <time>2022-07-13T07:54:05Z</time>
      </trkpt>
      <trkpt lat="46.8793" lon="5.62071">
        <ele>270.75</ele>
        <time>2022-07-13T07:54:20Z</time>
      </trkpt>
      <trkpt lat="46.87936" lon="5.62073">
        <ele>269.79</ele>
        <time>2022-07-13T07:54:21Z</time>
      </trkpt>
      <trkpt lat="46.87943" lon="5.62074">
        <ele>270.27</ele>
        <time>2022-07-13T07:54:22Z</time>
      </trkpt>
      <trkpt lat="46.87949" lon="5.62075">
        <ele>270.27</ele>
        <time>2022-07-13T07:54:23Z</time>
      </trkpt>
      <trkpt lat="46.87956" lon="5.62075">
        <ele>270.27</ele>
        <time>2022-07-13T07:54:24Z</time>
      </trkpt>
      <trkpt lat="46.88033" lon="5.62049">
        <ele>266.9</ele>
        <time>2022-07-13T07:54:35Z</time>
      </trkpt>
      <trkpt lat="46.88132" lon="5.62033">
        <ele>264.02</ele>
        <time>2022-07-13T07:54:48Z</time>
      </trkpt>
      <trkpt lat="46.88189" lon="5.62023">
        <ele>262.58</ele>
        <time>2022-07-13T07:54:56Z</time>
      </trkpt>
      <trkpt lat="46.88263" lon="5.62065">
        <ele>261.14</ele>
        <time>2022-07-13T07:55:08Z</time>
      </trkpt>
      <trkpt lat="46.88298" lon="5.62127">
        <ele>258.25</ele>
        <time>2022-07-13T07:55:17Z</time>
      </trkpt>
      <trkpt lat="46.88303" lon="5.62133">
        <ele>258.25</ele>
        <time>2022-07-13T07:55:18Z</time>
      </trkpt>
      <trkpt lat="46.88328" lon="5.62159">
        <ele>257.29</ele>
        <time>2022-07-13T07:55:23Z</time>
      </trkpt>
      <trkpt lat="46.88334" lon="5.62162">
        <ele>256.81</ele>
        <time>2022-07-13T07:55:24Z</time>
      </trkpt>
      <trkpt lat="46.88432" lon="5.622">
        <ele>253.93</ele>
        <time>2022-07-13T07:55:38Z</time>
      </trkpt>
      <trkpt lat="46.88534" lon="5.62246">
        <ele>250.56</ele>
        <time>2022-07-13T07:55:51Z</time>
      </trkpt>
      <trkpt lat="46.88598" lon="5.62255">
        <ele>247.2</ele>
        <time>2022-07-13T07:55:58Z</time>
      </trkpt>
      <trkpt lat="46.88607" lon="5.62258">
        <ele>246.72</ele>
        <time>2022-07-13T07:55:59Z</time>
      </trkpt>
      <trkpt lat="46.88689" lon="5.623">
        <ele>245.75</ele>
        <time>2022-07-13T07:56:10Z</time>
      </trkpt>
      <trkpt lat="46.88764" lon="5.62311">
        <ele>246.72</ele>
        <time>2022-07-13T07:56:23Z</time>
      </trkpt>
      <trkpt lat="46.88823" lon="5.62316">
        <ele>248.16</ele>
        <time>2022-07-13T07:56:38Z</time>
      </trkpt>
      <trkpt lat="46.88874" lon="5.62321">
        <ele>249.12</ele>
        <time>2022-07-13T07:56:51Z</time>
      </trkpt>
      <trkpt lat="46.88946" lon="5.62339">
        <ele>248.16</ele>
        <time>2022-07-13T07:57:07Z</time>
      </trkpt>
      <trkpt lat="46.89007" lon="5.62353">
        <ele>248.16</ele>
        <time>2022-07-13T07:57:20Z</time>
      </trkpt>
      <trkpt lat="46.89085" lon="5.6235">
        <ele>245.75</ele>
        <time>2022-07-13T07:57:34Z</time>
      </trkpt>
      <trkpt lat="46.89102" lon="5.62347">
        <ele>245.75</ele>
        <time>2022-07-13T07:57:37Z</time>
      </trkpt>
      <trkpt lat="46.89189" lon="5.62333">
        <ele>243.83</ele>
        <time>2022-07-13T07:57:51Z</time>
      </trkpt>
      <trkpt lat="46.89271" lon="5.62327">
        <ele>242.87</ele>
        <time>2022-07-13T07:58:04Z</time>
      </trkpt>
      <trkpt lat="46.89355" lon="5.62381">
        <ele>242.87</ele>
        <time>2022-07-13T07:58:21Z</time>
      </trkpt>
      <trkpt lat="46.894" lon="5.62442">
        <ele>242.87</ele>
        <time>2022-07-13T07:58:34Z</time>
      </trkpt>
      <trkpt lat="46.89404" lon="5.62446">
        <ele>242.39</ele>
        <time>2022-07-13T07:58:35Z</time>
      </trkpt>
      <trkpt lat="46.89409" lon="5.62447">
        <ele>242.39</ele>
        <time>2022-07-13T07:58:36Z</time>
      </trkpt>
      <trkpt lat="46.89413" lon="5.62446">
        <ele>241.91</ele>
        <time>2022-07-13T07:58:37Z</time>
      </trkpt>
      <trkpt lat="46.89417" lon="5.62442">
        <ele>241.91</ele>
        <time>2022-07-13T07:58:38Z</time>
      </trkpt>
      <trkpt lat="46.8942" lon="5.62438">
        <ele>242.39</ele>
        <time>2022-07-13T07:58:39Z</time>
      </trkpt>
      <trkpt lat="46.89422" lon="5.62433">
        <ele>242.87</ele>
        <time>2022-07-13T07:58:40Z</time>
      </trkpt>
      <trkpt lat="46.89433" lon="5.62409">
        <ele>242.87</ele>
        <time>2022-07-13T07:58:45Z</time>
      </trkpt>
      <trkpt lat="46.8948" lon="5.62318">
        <ele>243.35</ele>
        <time>2022-07-13T07:59:05Z</time>
      </trkpt>
      <trkpt lat="46.89482" lon="5.62312">
        <ele>242.87</ele>
        <time>2022-07-13T07:59:06Z</time>
      </trkpt>
      <trkpt lat="46.89483" lon="5.62306">
        <ele>243.35</ele>
        <time>2022-07-13T07:59:07Z</time>
      </trkpt>
      <trkpt lat="46.89483" lon="5.623">
        <ele>242.87</ele>
        <time>2022-07-13T07:59:08Z</time>
      </trkpt>
      <trkpt lat="46.89482" lon="5.62294">
        <ele>242.87</ele>
        <time>2022-07-13T07:59:09Z</time>
      </trkpt>
      <trkpt lat="46.89481" lon="5.62288">
        <ele>243.35</ele>
        <time>2022-07-13T07:59:10Z</time>
      </trkpt>
      <trkpt lat="46.89479" lon="5.62282">
        <ele>242.87</ele>
        <time>2022-07-13T07:59:11Z</time>
      </trkpt>
      <trkpt lat="46.89477" lon="5.62276">
        <ele>242.87</ele>
        <time>2022-07-13T07:59:12Z</time>
      </trkpt>
      <trkpt lat="46.89445" lon="5.62173">
        <ele>243.83</ele>
        <time>2022-07-13T07:59:32Z</time>
      </trkpt>
      <trkpt lat="46.89431" lon="5.62101">
        <ele>245.27</ele>
        <time>2022-07-13T07:59:48Z</time>
      </trkpt>
      <trkpt lat="46.89412" lon="5.62022">
        <ele>245.75</ele>
        <time>2022-07-13T08:00:04Z</time>
      </trkpt>
      <trkpt lat="46.89393" lon="5.61912">
        <ele>245.27</ele>
        <time>2022-07-13T08:00:20Z</time>
      </trkpt>
      <trkpt lat="46.89401" lon="5.61774">
        <ele>244.31</ele>
        <time>2022-07-13T08:00:40Z</time>
      </trkpt>
      <trkpt lat="46.89389" lon="5.61665">
        <ele>243.35</ele>
        <time>2022-07-13T08:00:56Z</time>
      </trkpt>
      <trkpt lat="46.89369" lon="5.61594">
        <ele>243.35</ele>
        <time>2022-07-13T08:01:07Z</time>
      </trkpt>
      <trkpt lat="46.89364" lon="5.61583">
        <ele>243.35</ele>
        <time>2022-07-13T08:01:09Z</time>
      </trkpt>
      <trkpt lat="46.89351" lon="5.6154">
        <ele>242.87</ele>
        <time>2022-07-13T08:01:16Z</time>
      </trkpt>
      <trkpt lat="46.89351" lon="5.61533">
        <ele>242.39</ele>
        <time>2022-07-13T08:01:17Z</time>
      </trkpt>
      <trkpt lat="46.89353" lon="5.614">
        <ele>241.43</ele>
        <time>2022-07-13T08:01:34Z</time>
      </trkpt>
      <trkpt lat="46.89377" lon="5.61256">
        <ele>240.47</ele>
        <time>2022-07-13T08:01:53Z</time>
      </trkpt>
      <trkpt lat="46.89398" lon="5.6115">
        <ele>239.99</ele>
        <time>2022-07-13T08:02:07Z</time>
      </trkpt>
      <trkpt lat="46.89401" lon="5.61144">
        <ele>240.95</ele>
        <time>2022-07-13T08:02:08Z</time>
      </trkpt>
      <trkpt lat="46.89404" lon="5.61138">
        <ele>240.95</ele>
        <time>2022-07-13T08:02:09Z</time>
      </trkpt>
      <trkpt lat="46.89467" lon="5.61067">
        <ele>239.99</ele>
        <time>2022-07-13T08:02:24Z</time>
      </trkpt>
      <trkpt lat="46.89555" lon="5.61009">
        <ele>239.51</ele>
        <time>2022-07-13T08:02:42Z</time>
      </trkpt>
      <trkpt lat="46.89634" lon="5.60934">
        <ele>239.02</ele>
        <time>2022-07-13T08:02:59Z</time>
      </trkpt>
      <trkpt lat="46.89675" lon="5.60821">
        <ele>238.06</ele>
        <time>2022-07-13T08:03:15Z</time>
      </trkpt>
      <trkpt lat="46.89683" lon="5.60793">
        <ele>237.58</ele>
        <time>2022-07-13T08:03:19Z</time>
      </trkpt>
      <trkpt lat="46.89685" lon="5.60785">
        <ele>237.58</ele>
        <time>2022-07-13T08:03:20Z</time>
      </trkpt>
      <trkpt lat="46.89686" lon="5.60778">
        <ele>237.58</ele>
        <time>2022-07-13T08:03:21Z</time>
      </trkpt>
      <trkpt lat="46.89686" lon="5.6077">
        <ele>238.54</ele>
        <time>2022-07-13T08:03:22Z</time>
      </trkpt>
      <trkpt lat="46.89685" lon="5.60762">
        <ele>238.54</ele>
        <time>2022-07-13T08:03:23Z</time>
      </trkpt>
      <trkpt lat="46.89684" lon="5.60755">
        <ele>238.06</ele>
        <time>2022-07-13T08:03:24Z</time>
      </trkpt>
      <trkpt lat="46.89682" lon="5.60749">
        <ele>238.54</ele>
        <time>2022-07-13T08:03:25Z</time>
      </trkpt>
      <trkpt lat="46.8968" lon="5.60743">
        <ele>237.58</ele>
        <time>2022-07-13T08:03:26Z</time>
      </trkpt>
      <trkpt lat="46.89677" lon="5.60737">
        <ele>238.54</ele>
        <time>2022-07-13T08:03:27Z</time>
      </trkpt>
      <trkpt lat="46.89631" lon="5.60645">
        <ele>238.06</ele>
        <time>2022-07-13T08:03:44Z</time>
      </trkpt>
      <trkpt lat="46.89602" lon="5.60574">
        <ele>238.54</ele>
        <time>2022-07-13T08:04:01Z</time>
      </trkpt>
      <trkpt lat="46.89599" lon="5.6052">
        <ele>238.54</ele>
        <time>2022-07-13T08:04:15Z</time>
      </trkpt>
      <trkpt lat="46.89625" lon="5.60477">
        <ele>239.02</ele>
        <time>2022-07-13T08:04:28Z</time>
      </trkpt>
      <trkpt lat="46.89687" lon="5.60447">
        <ele>238.06</ele>
        <time>2022-07-13T08:04:43Z</time>
      </trkpt>
      <trkpt lat="46.8972" lon="5.60422">
        <ele>238.06</ele>
        <time>2022-07-13T08:04:50Z</time>
      </trkpt>
      <trkpt lat="46.89777" lon="5.60335">
        <ele>236.62</ele>
        <time>2022-07-13T08:05:05Z</time>
      </trkpt>
      <trkpt lat="46.8978" lon="5.60328">
        <ele>236.62</ele>
        <time>2022-07-13T08:05:06Z</time>
      </trkpt>
      <trkpt lat="46.89782" lon="5.6032">
        <ele>236.62</ele>
        <time>2022-07-13T08:05:07Z</time>
      </trkpt>
      <trkpt lat="46.89783" lon="5.60313">
        <ele>236.62</ele>
        <time>2022-07-13T08:05:08Z</time>
      </trkpt>
      <trkpt lat="46.89784" lon="5.60306">
        <ele>236.14</ele>
        <time>2022-07-13T08:05:09Z</time>
      </trkpt>
      <trkpt lat="46.89784" lon="5.60298">
        <ele>236.62</ele>
        <time>2022-07-13T08:05:10Z</time>
      </trkpt>
      <trkpt lat="46.89784" lon="5.60167">
        <ele>235.66</ele>
        <time>2022-07-13T08:05:28Z</time>
      </trkpt>
      <trkpt lat="46.89783" lon="5.60055">
        <ele>236.62</ele>
        <time>2022-07-13T08:05:44Z</time>
      </trkpt>
      <trkpt lat="46.89784" lon="5.59966">
        <ele>237.58</ele>
        <time>2022-07-13T08:05:59Z</time>
      </trkpt>
      <trkpt lat="46.8978" lon="5.5986">
        <ele>238.54</ele>
        <time>2022-07-13T08:06:15Z</time>
      </trkpt>
      <trkpt lat="46.89775" lon="5.59778">
        <ele>239.02</ele>
        <time>2022-07-13T08:06:30Z</time>
      </trkpt>
      <trkpt lat="46.89773" lon="5.59693">
        <ele>239.99</ele>
        <time>2022-07-13T08:06:44Z</time>
      </trkpt>
      <trkpt lat="46.89773" lon="5.5968">
        <ele>239.51</ele>
        <time>2022-07-13T08:06:46Z</time>
      </trkpt>
      <trkpt lat="46.89772" lon="5.59575">
        <ele>239.02</ele>
        <time>2022-07-13T08:07:02Z</time>
      </trkpt>
      <trkpt lat="46.89766" lon="5.59489">
        <ele>238.06</ele>
        <time>2022-07-13T08:07:17Z</time>
      </trkpt>
      <trkpt lat="46.89748" lon="5.59385">
        <ele>239.02</ele>
        <time>2022-07-13T08:07:35Z</time>
      </trkpt>
      <trkpt lat="46.89748" lon="5.59379">
        <ele>238.54</ele>
        <time>2022-07-13T08:07:36Z</time>
      </trkpt>
      <trkpt lat="46.89754" lon="5.59326">
        <ele>238.06</ele>
        <time>2022-07-13T08:07:45Z</time>
      </trkpt>
      <trkpt lat="46.89756" lon="5.59321">
        <ele>237.58</ele>
        <time>2022-07-13T08:07:46Z</time>
      </trkpt>
      <trkpt lat="46.89758" lon="5.59315">
        <ele>238.06</ele>
        <time>2022-07-13T08:07:47Z</time>
      </trkpt>
      <trkpt lat="46.89761" lon="5.5931">
        <ele>237.58</ele>
        <time>2022-07-13T08:07:48Z</time>
      </trkpt>
      <trkpt lat="46.89765" lon="5.59305">
        <ele>237.1</ele>
        <time>2022-07-13T08:07:49Z</time>
      </trkpt>
      <trkpt lat="46.89769" lon="5.59302">
        <ele>237.58</ele>
        <time>2022-07-13T08:07:50Z</time>
      </trkpt>
      <trkpt lat="46.89774" lon="5.593">
        <ele>237.58</ele>
        <time>2022-07-13T08:07:51Z</time>
      </trkpt>
      <trkpt lat="46.89779" lon="5.59299">
        <ele>237.1</ele>
        <time>2022-07-13T08:07:52Z</time>
      </trkpt>
      <trkpt lat="46.89784" lon="5.59298">
        <ele>237.1</ele>
        <time>2022-07-13T08:07:53Z</time>
      </trkpt>
      <trkpt lat="46.89789" lon="5.59297">
        <ele>237.58</ele>
        <time>2022-07-13T08:07:54Z</time>
      </trkpt>
      <trkpt lat="46.89794" lon="5.59297">
        <ele>237.58</ele>
        <time>2022-07-13T08:07:55Z</time>
      </trkpt>
      <trkpt lat="46.89878" lon="5.5928">
        <ele>239.02</ele>
        <time>2022-07-13T08:08:13Z</time>
      </trkpt>
      <trkpt lat="46.89902" lon="5.59277">
        <ele>237.1</ele>
        <time>2022-07-13T08:08:18Z</time>
      </trkpt>
      <trkpt lat="46.89917" lon="5.59272">
        <ele>236.62</ele>
        <time>2022-07-13T08:08:21Z</time>
      </trkpt>
      <trkpt lat="46.8992" lon="5.59269">
        <ele>236.14</ele>
        <time>2022-07-13T08:08:22Z</time>
      </trkpt>
      <trkpt lat="46.89922" lon="5.59265">
        <ele>236.62</ele>
        <time>2022-07-13T08:08:23Z</time>
      </trkpt>
      <trkpt lat="46.89924" lon="5.5926">
        <ele>236.62</ele>
        <time>2022-07-13T08:08:24Z</time>
      </trkpt>
      <trkpt lat="46.89925" lon="5.59254">
        <ele>236.14</ele>
        <time>2022-07-13T08:08:25Z</time>
      </trkpt>
      <trkpt lat="46.89926" lon="5.59248">
        <ele>235.66</ele>
        <time>2022-07-13T08:08:26Z</time>
      </trkpt>
      <trkpt lat="46.89926" lon="5.59242">
        <ele>236.62</ele>
        <time>2022-07-13T08:08:27Z</time>
      </trkpt>
      <trkpt lat="46.89926" lon="5.59235">
        <ele>235.66</ele>
        <time>2022-07-13T08:08:28Z</time>
      </trkpt>
      <trkpt lat="46.89924" lon="5.59128">
        <ele>235.18</ele>
        <time>2022-07-13T08:08:44Z</time>
      </trkpt>
      <trkpt lat="46.8992" lon="5.58979">
        <ele>233.26</ele>
        <time>2022-07-13T08:09:05Z</time>
      </trkpt>
      <trkpt lat="46.89918" lon="5.58856">
        <ele>233.74</ele>
        <time>2022-07-13T08:09:23Z</time>
      </trkpt>
      <trkpt lat="46.89917" lon="5.58809">
        <ele>233.74</ele>
        <time>2022-07-13T08:09:30Z</time>
      </trkpt>
      <trkpt lat="46.89919" lon="5.58804">
        <ele>232.78</ele>
        <time>2022-07-13T08:09:31Z</time>
      </trkpt>
      <trkpt lat="46.89921" lon="5.58798">
        <ele>233.26</ele>
        <time>2022-07-13T08:09:32Z</time>
      </trkpt>
      <trkpt lat="46.89923" lon="5.58793">
        <ele>233.26</ele>
        <time>2022-07-13T08:09:33Z</time>
      </trkpt>
      <trkpt lat="46.89927" lon="5.5879">
        <ele>232.78</ele>
        <time>2022-07-13T08:09:34Z</time>
      </trkpt>
      <trkpt lat="46.89932" lon="5.58787">
        <ele>232.3</ele>
        <time>2022-07-13T08:09:35Z</time>
      </trkpt>
      <trkpt lat="46.89937" lon="5.58785">
        <ele>232.78</ele>
        <time>2022-07-13T08:09:36Z</time>
      </trkpt>
      <trkpt lat="46.89942" lon="5.58784">
        <ele>232.78</ele>
        <time>2022-07-13T08:09:37Z</time>
      </trkpt>
      <trkpt lat="46.89948" lon="5.58784">
        <ele>232.3</ele>
        <time>2022-07-13T08:09:38Z</time>
      </trkpt>
      <trkpt lat="46.90026" lon="5.58781">
        <ele>233.26</ele>
        <time>2022-07-13T08:09:53Z</time>
      </trkpt>
      <trkpt lat="46.90105" lon="5.58777">
        <ele>233.74</ele>
        <time>2022-07-13T08:10:09Z</time>
      </trkpt>
      <trkpt lat="46.90209" lon="5.58774">
        <ele>234.22</ele>
        <time>2022-07-13T08:10:30Z</time>
      </trkpt>
      <trkpt lat="46.90305" lon="5.58761">
        <ele>233.74</ele>
        <time>2022-07-13T08:10:50Z</time>
      </trkpt>
      <trkpt lat="46.9039" lon="5.58735">
        <ele>233.26</ele>
        <time>2022-07-13T08:11:07Z</time>
      </trkpt>
      <trkpt lat="46.90423" lon="5.58715">
        <ele>232.78</ele>
        <time>2022-07-13T08:11:14Z</time>
      </trkpt>
      <trkpt lat="46.90428" lon="5.58714">
        <ele>232.78</ele>
        <time>2022-07-13T08:11:15Z</time>
      </trkpt>
      <trkpt lat="46.90433" lon="5.58713">
        <ele>232.78</ele>
        <time>2022-07-13T08:11:16Z</time>
      </trkpt>
      <trkpt lat="46.90438" lon="5.58714">
        <ele>232.3</ele>
        <time>2022-07-13T08:11:17Z</time>
      </trkpt>
      <trkpt lat="46.90443" lon="5.58715">
        <ele>232.78</ele>
        <time>2022-07-13T08:11:18Z</time>
      </trkpt>
      <trkpt lat="46.90448" lon="5.58717">
        <ele>233.74</ele>
        <time>2022-07-13T08:11:19Z</time>
      </trkpt>
      <trkpt lat="46.90497" lon="5.58744">
        <ele>235.18</ele>
        <time>2022-07-13T08:11:33Z</time>
      </trkpt>
      <trkpt lat="46.90546" lon="5.58773">
        <ele>235.66</ele>
        <time>2022-07-13T08:11:50Z</time>
      </trkpt>
      <trkpt lat="46.90588" lon="5.58759">
        <ele>235.66</ele>
        <time>2022-07-13T08:12:03Z</time>
      </trkpt>
      <trkpt lat="46.90617" lon="5.58751">
        <ele>235.18</ele>
        <time>2022-07-13T08:12:10Z</time>
      </trkpt>
      <trkpt lat="46.90621" lon="5.58752">
        <ele>235.66</ele>
        <time>2022-07-13T08:12:11Z</time>
      </trkpt>
      <trkpt lat="46.90625" lon="5.58753">
        <ele>236.14</ele>
        <time>2022-07-13T08:12:12Z</time>
      </trkpt>
      <trkpt lat="46.90629" lon="5.58756">
        <ele>235.66</ele>
        <time>2022-07-13T08:12:13Z</time>
      </trkpt>
      <trkpt lat="46.90633" lon="5.58758">
        <ele>235.66</ele>
        <time>2022-07-13T08:12:14Z</time>
      </trkpt>
      <trkpt lat="46.9064" lon="5.58764">
        <ele>236.14</ele>
        <time>2022-07-13T08:12:16Z</time>
      </trkpt>
      <trkpt lat="46.90699" lon="5.58811">
        <ele>237.1</ele>
        <time>2022-07-13T08:12:33Z</time>
      </trkpt>
      <trkpt lat="46.90707" lon="5.58814">
        <ele>237.58</ele>
        <time>2022-07-13T08:12:35Z</time>
      </trkpt>
      <trkpt lat="46.9071" lon="5.58814">
        <ele>237.58</ele>
        <time>2022-07-13T08:12:36Z</time>
      </trkpt>
      <trkpt lat="46.90734" lon="5.58812">
        <ele>237.1</ele>
        <time>2022-07-13T08:12:42Z</time>
      </trkpt>
      <trkpt lat="46.90741" lon="5.58812">
        <ele>238.06</ele>
        <time>2022-07-13T08:12:44Z</time>
      </trkpt>
      <trkpt lat="46.9077" lon="5.5882">
        <ele>238.06</ele>
        <time>2022-07-13T08:12:52Z</time>
      </trkpt>
      <trkpt lat="46.90772" lon="5.58825">
        <ele>238.06</ele>
        <time>2022-07-13T08:12:53Z</time>
      </trkpt>
      <trkpt lat="46.90774" lon="5.5883">
        <ele>238.06</ele>
        <time>2022-07-13T08:12:54Z</time>
      </trkpt>
      <trkpt lat="46.90775" lon="5.58836">
        <ele>237.58</ele>
        <time>2022-07-13T08:12:55Z</time>
      </trkpt>
      <trkpt lat="46.90775" lon="5.58842">
        <ele>238.06</ele>
        <time>2022-07-13T08:12:56Z</time>
      </trkpt>
      <trkpt lat="46.90786" lon="5.58945">
        <ele>238.54</ele>
        <time>2022-07-13T08:13:13Z</time>
      </trkpt>
      <trkpt lat="46.90798" lon="5.59049">
        <ele>238.54</ele>
        <time>2022-07-13T08:13:31Z</time>
      </trkpt>
      <trkpt lat="46.9081" lon="5.59151">
        <ele>238.54</ele>
        <time>2022-07-13T08:13:48Z</time>
      </trkpt>
      <trkpt lat="46.90801" lon="5.59232">
        <ele>240.95</ele>
        <time>2022-07-13T08:14:03Z</time>
      </trkpt>
      <trkpt lat="46.90765" lon="5.59297">
        <ele>241.43</ele>
        <time>2022-07-13T08:14:18Z</time>
      </trkpt>
      <trkpt lat="46.90724" lon="5.59374">
        <ele>241.43</ele>
        <time>2022-07-13T08:14:36Z</time>
      </trkpt>
      <trkpt lat="46.90691" lon="5.59427">
        <ele>240.95</ele>
        <time>2022-07-13T08:14:51Z</time>
      </trkpt>
      <trkpt lat="46.90642" lon="5.59515">
        <ele>239.02</ele>
        <time>2022-07-13T08:15:08Z</time>
      </trkpt>
      <trkpt lat="46.90638" lon="5.5952">
        <ele>239.51</ele>
        <time>2022-07-13T08:15:09Z</time>
      </trkpt>
      <trkpt lat="46.90633" lon="5.59524">
        <ele>239.51</ele>
        <time>2022-07-13T08:15:10Z</time>
      </trkpt>
      <trkpt lat="46.90628" lon="5.59527">
        <ele>238.54</ele>
        <time>2022-07-13T08:15:11Z</time>
      </trkpt>
      <trkpt lat="46.90622" lon="5.59529">
        <ele>238.54</ele>
        <time>2022-07-13T08:15:12Z</time>
      </trkpt>
      <trkpt lat="46.90617" lon="5.5953">
        <ele>238.06</ele>
        <time>2022-07-13T08:15:13Z</time>
      </trkpt>
      <trkpt lat="46.90613" lon="5.59531">
        <ele>239.51</ele>
        <time>2022-07-13T08:15:14Z</time>
      </trkpt>
      <trkpt lat="46.90607" lon="5.5953">
        <ele>239.02</ele>
        <time>2022-07-13T08:15:15Z</time>
      </trkpt>
      <trkpt lat="46.90602" lon="5.59529">
        <ele>239.02</ele>
        <time>2022-07-13T08:15:16Z</time>
      </trkpt>
      <trkpt lat="46.90538" lon="5.59506">
        <ele>237.58</ele>
        <time>2022-07-13T08:15:29Z</time>
      </trkpt>
      <trkpt lat="46.90533" lon="5.59508">
        <ele>237.58</ele>
        <time>2022-07-13T08:15:30Z</time>
      </trkpt>
      <trkpt lat="46.90528" lon="5.59511">
        <ele>237.58</ele>
        <time>2022-07-13T08:15:31Z</time>
      </trkpt>
      <trkpt lat="46.90524" lon="5.59515">
        <ele>237.58</ele>
        <time>2022-07-13T08:15:32Z</time>
      </trkpt>
      <trkpt lat="46.90522" lon="5.59521">
        <ele>237.58</ele>
        <time>2022-07-13T08:15:33Z</time>
      </trkpt>
      <trkpt lat="46.90519" lon="5.59526">
        <ele>237.1</ele>
        <time>2022-07-13T08:15:34Z</time>
      </trkpt>
      <trkpt lat="46.90518" lon="5.59532">
        <ele>237.58</ele>
        <time>2022-07-13T08:15:35Z</time>
      </trkpt>
      <trkpt lat="46.90516" lon="5.59539">
        <ele>237.58</ele>
        <time>2022-07-13T08:15:36Z</time>
      </trkpt>
      <trkpt lat="46.90514" lon="5.59545">
        <ele>238.06</ele>
        <time>2022-07-13T08:15:37Z</time>
      </trkpt>
      <trkpt lat="46.9049" lon="5.59643">
        <ele>238.06</ele>
        <time>2022-07-13T08:15:51Z</time>
      </trkpt>
      <trkpt lat="46.90468" lon="5.59723">
        <ele>238.06</ele>
        <time>2022-07-13T08:16:05Z</time>
      </trkpt>
      <trkpt lat="46.90426" lon="5.5982">
        <ele>240.47</ele>
        <time>2022-07-13T08:16:24Z</time>
      </trkpt>
      <trkpt lat="46.9042" lon="5.59829">
        <ele>241.43</ele>
        <time>2022-07-13T08:16:26Z</time>
      </trkpt>
      <trkpt lat="46.9041" lon="5.59848">
        <ele>239.99</ele>
        <time>2022-07-13T08:16:30Z</time>
      </trkpt>
      <trkpt lat="46.90401" lon="5.59869">
        <ele>239.99</ele>
        <time>2022-07-13T08:16:34Z</time>
      </trkpt>
      <trkpt lat="46.90399" lon="5.59874">
        <ele>239.99</ele>
        <time>2022-07-13T08:16:35Z</time>
      </trkpt>
      <trkpt lat="46.90388" lon="5.59971">
        <ele>240.47</ele>
        <time>2022-07-13T08:16:51Z</time>
      </trkpt>
      <trkpt lat="46.90404" lon="5.60064">
        <ele>242.39</ele>
        <time>2022-07-13T08:17:08Z</time>
      </trkpt>
      <trkpt lat="46.9041" lon="5.60182">
        <ele>243.35</ele>
        <time>2022-07-13T08:17:28Z</time>
      </trkpt>
      <trkpt lat="46.90409" lon="5.60188">
        <ele>243.83</ele>
        <time>2022-07-13T08:17:29Z</time>
      </trkpt>
      <trkpt lat="46.904" lon="5.60221">
        <ele>243.35</ele>
        <time>2022-07-13T08:17:34Z</time>
      </trkpt>
      <trkpt lat="46.90366" lon="5.60285">
        <ele>240.47</ele>
        <time>2022-07-13T08:17:44Z</time>
      </trkpt>
      <trkpt lat="46.90315" lon="5.60376">
        <ele>240.47</ele>
        <time>2022-07-13T08:17:58Z</time>
      </trkpt>
      <trkpt lat="46.90275" lon="5.60459">
        <ele>241.43</ele>
        <time>2022-07-13T08:18:14Z</time>
      </trkpt>
      <trkpt lat="46.90237" lon="5.60542">
        <ele>244.79</ele>
        <time>2022-07-13T08:18:34Z</time>
      </trkpt>
      <trkpt lat="46.90208" lon="5.6062">
        <ele>247.2</ele>
        <time>2022-07-13T08:18:53Z</time>
      </trkpt>
      <trkpt lat="46.90175" lon="5.607">
        <ele>248.64</ele>
        <time>2022-07-13T08:19:15Z</time>
      </trkpt>
      <trkpt lat="46.90142" lon="5.60733">
        <ele>246.72</ele>
        <time>2022-07-13T08:19:27Z</time>
      </trkpt>
      <trkpt lat="46.90146" lon="5.60788">
        <ele>248.64</ele>
        <time>2022-07-13T08:19:40Z</time>
      </trkpt>
      <trkpt lat="46.90157" lon="5.60859">
        <ele>250.08</ele>
        <time>2022-07-13T08:19:57Z</time>
      </trkpt>
      <trkpt lat="46.90186" lon="5.60925">
        <ele>252</ele>
        <time>2022-07-13T08:20:15Z</time>
      </trkpt>
      <trkpt lat="46.9022" lon="5.60976">
        <ele>252.48</ele>
        <time>2022-07-13T08:20:31Z</time>
      </trkpt>
      <trkpt lat="46.90239" lon="5.61">
        <ele>252.48</ele>
        <time>2022-07-13T08:20:38Z</time>
      </trkpt>
      <trkpt lat="46.9031" lon="5.6108">
        <ele>252</ele>
        <time>2022-07-13T08:20:56Z</time>
      </trkpt>
      <trkpt lat="46.904" lon="5.6117">
        <ele>250.56</ele>
        <time>2022-07-13T08:21:15Z</time>
      </trkpt>
      <trkpt lat="46.90466" lon="5.61275">
        <ele>249.12</ele>
        <time>2022-07-13T08:21:32Z</time>
      </trkpt>
      <trkpt lat="46.90523" lon="5.61379">
        <ele>248.64</ele>
        <time>2022-07-13T08:21:48Z</time>
      </trkpt>
      <trkpt lat="46.90537" lon="5.61422">
        <ele>247.68</ele>
        <time>2022-07-13T08:21:54Z</time>
      </trkpt>
      <trkpt lat="46.90564" lon="5.61551">
        <ele>246.72</ele>
        <time>2022-07-13T08:22:12Z</time>
      </trkpt>
      <trkpt lat="46.90587" lon="5.61675">
        <ele>247.68</ele>
        <time>2022-07-13T08:22:30Z</time>
      </trkpt>
      <trkpt lat="46.90589" lon="5.61681">
        <ele>247.68</ele>
        <time>2022-07-13T08:22:31Z</time>
      </trkpt>
      <trkpt lat="46.9059" lon="5.61686">
        <ele>247.68</ele>
        <time>2022-07-13T08:22:32Z</time>
      </trkpt>
      <trkpt lat="46.90592" lon="5.61691">
        <ele>247.68</ele>
        <time>2022-07-13T08:22:33Z</time>
      </trkpt>
      <trkpt lat="46.90606" lon="5.61758">
        <ele>250.08</ele>
        <time>2022-07-13T08:22:50Z</time>
      </trkpt>
      <trkpt lat="46.90621" lon="5.61828">
        <ele>252.96</ele>
        <time>2022-07-13T08:23:08Z</time>
      </trkpt>
      <trkpt lat="46.90639" lon="5.61902">
        <ele>255.37</ele>
        <time>2022-07-13T08:23:26Z</time>
      </trkpt>
      <trkpt lat="46.90666" lon="5.61974">
        <ele>257.29</ele>
        <time>2022-07-13T08:23:44Z</time>
      </trkpt>
      <trkpt lat="46.90668" lon="5.61985">
        <ele>258.25</ele>
        <time>2022-07-13T08:23:47Z</time>
      </trkpt>
      <trkpt lat="46.90695" lon="5.62056">
        <ele>258.73</ele>
        <time>2022-07-13T08:24:04Z</time>
      </trkpt>
      <trkpt lat="46.90719" lon="5.6214">
        <ele>258.73</ele>
        <time>2022-07-13T08:24:19Z</time>
      </trkpt>
      <trkpt lat="46.90721" lon="5.62146">
        <ele>258.25</ele>
        <time>2022-07-13T08:24:20Z</time>
      </trkpt>
      <trkpt lat="46.90722" lon="5.62152">
        <ele>258.25</ele>
        <time>2022-07-13T08:24:21Z</time>
      </trkpt>
      <trkpt lat="46.90747" lon="5.62283">
        <ele>255.85</ele>
        <time>2022-07-13T08:24:38Z</time>
      </trkpt>
      <trkpt lat="46.90773" lon="5.62419">
        <ele>254.41</ele>
        <time>2022-07-13T08:24:54Z</time>
      </trkpt>
      <trkpt lat="46.90802" lon="5.62572">
        <ele>252</ele>
        <time>2022-07-13T08:25:12Z</time>
      </trkpt>
      <trkpt lat="46.90832" lon="5.62732">
        <ele>249.12</ele>
        <time>2022-07-13T08:25:30Z</time>
      </trkpt>
      <trkpt lat="46.90845" lon="5.628">
        <ele>249.12</ele>
        <time>2022-07-13T08:25:38Z</time>
      </trkpt>
      <trkpt lat="46.90852" lon="5.62823">
        <ele>249.12</ele>
        <time>2022-07-13T08:25:41Z</time>
      </trkpt>
      <trkpt lat="46.90853" lon="5.62831">
        <ele>249.6</ele>
        <time>2022-07-13T08:25:42Z</time>
      </trkpt>
      <trkpt lat="46.9087" lon="5.62931">
        <ele>250.56</ele>
        <time>2022-07-13T08:25:57Z</time>
      </trkpt>
      <trkpt lat="46.909" lon="5.63022">
        <ele>252</ele>
        <time>2022-07-13T08:26:13Z</time>
      </trkpt>
      <trkpt lat="46.9095" lon="5.63116">
        <ele>250.08</ele>
        <time>2022-07-13T08:26:27Z</time>
      </trkpt>
      <trkpt lat="46.91023" lon="5.63245">
        <ele>248.16</ele>
        <time>2022-07-13T08:26:48Z</time>
      </trkpt>
      <trkpt lat="46.9104" lon="5.63274">
        <ele>247.68</ele>
        <time>2022-07-13T08:26:57Z</time>
      </trkpt>
      <trkpt lat="46.91053" lon="5.6333">
        <ele>248.64</ele>
        <time>2022-07-13T08:27:10Z</time>
      </trkpt>
      <trkpt lat="46.91056" lon="5.63418">
        <ele>250.56</ele>
        <time>2022-07-13T08:27:29Z</time>
      </trkpt>
      <trkpt lat="46.91051" lon="5.63503">
        <ele>251.04</ele>
        <time>2022-07-13T08:27:47Z</time>
      </trkpt>
      <trkpt lat="46.91052" lon="5.63576">
        <ele>252.48</ele>
        <time>2022-07-13T08:28:02Z</time>
      </trkpt>
      <trkpt lat="46.91081" lon="5.63633">
        <ele>253.93</ele>
        <time>2022-07-13T08:28:18Z</time>
      </trkpt>
      <trkpt lat="46.91119" lon="5.63702">
        <ele>255.85</ele>
        <time>2022-07-13T08:28:37Z</time>
      </trkpt>
      <trkpt lat="46.91158" lon="5.63766">
        <ele>257.77</ele>
        <time>2022-07-13T08:28:55Z</time>
      </trkpt>
      <trkpt lat="46.91205" lon="5.63788">
        <ele>260.17</ele>
        <time>2022-07-13T08:29:12Z</time>
      </trkpt>
      <trkpt lat="46.91243" lon="5.63812">
        <ele>262.58</ele>
        <time>2022-07-13T08:29:28Z</time>
      </trkpt>
      <trkpt lat="46.91288" lon="5.63837">
        <ele>263.54</ele>
        <time>2022-07-13T08:29:44Z</time>
      </trkpt>
      <trkpt lat="46.91338" lon="5.63863">
        <ele>264.5</ele>
        <time>2022-07-13T08:30:00Z</time>
      </trkpt>
      <trkpt lat="46.91398" lon="5.63897">
        <ele>266.42</ele>
        <time>2022-07-13T08:30:20Z</time>
      </trkpt>
      <trkpt lat="46.91448" lon="5.63929">
        <ele>266.9</ele>
        <time>2022-07-13T08:30:37Z</time>
      </trkpt>
      <trkpt lat="46.91504" lon="5.63947">
        <ele>267.38</ele>
        <time>2022-07-13T08:30:54Z</time>
      </trkpt>
      <trkpt lat="46.91561" lon="5.63971">
        <ele>270.27</ele>
        <time>2022-07-13T08:31:12Z</time>
      </trkpt>
      <trkpt lat="46.91574" lon="5.63987">
        <ele>269.79</ele>
        <time>2022-07-13T08:31:19Z</time>
      </trkpt>
      <trkpt lat="46.91573" lon="5.63992">
        <ele>269.79</ele>
        <time>2022-07-13T08:31:35Z</time>
      </trkpt>
      <trkpt lat="46.91574" lon="5.63992">
        <ele>269.79</ele>
        <time>2022-07-13T08:32:05Z</time>
      </trkpt>
      <trkpt lat="46.91572" lon="5.63997">
        <ele>270.27</ele>
        <time>2022-07-13T08:32:45Z</time>
      </trkpt>
      <trkpt lat="46.91574" lon="5.63996">
        <ele>270.27</ele>
        <time>2022-07-13T08:33:20Z</time>
      </trkpt>
      <trkpt lat="46.91577" lon="5.63991">
        <ele>269.79</ele>
        <time>2022-07-13T08:33:52Z</time>
      </trkpt>
      <trkpt lat="46.91587" lon="5.6399">
        <ele>270.27</ele>
        <time>2022-07-13T08:34:24Z</time>
      </trkpt>
      <trkpt lat="46.91585" lon="5.63988">
        <ele>271.23</ele>
        <time>2022-07-13T08:34:43Z</time>
      </trkpt>
      <trkpt lat="46.91582" lon="5.6399">
        <ele>270.27</ele>
        <time>2022-07-13T08:34:57Z</time>
      </trkpt>
      <trkpt lat="46.91583" lon="5.63991">
        <ele>270.75</ele>
        <time>2022-07-13T08:35:02Z</time>
      </trkpt>
      <trkpt lat="46.91583" lon="5.63992">
        <ele>270.75</ele>
        <time>2022-07-13T08:35:03Z</time>
      </trkpt>
      <trkpt lat="46.91584" lon="5.63992">
        <ele>271.23</ele>
        <time>2022-07-13T08:35:04Z</time>
      </trkpt>
      <trkpt lat="46.91585" lon="5.63993">
        <ele>270.75</ele>
        <time>2022-07-13T08:35:05Z</time>
      </trkpt>
      <trkpt lat="46.91586" lon="5.63994">
        <ele>271.23</ele>
        <time>2022-07-13T08:35:06Z</time>
      </trkpt>
      <trkpt lat="46.91587" lon="5.63995">
        <ele>270.75</ele>
        <time>2022-07-13T08:35:07Z</time>
      </trkpt>
      <trkpt lat="46.91588" lon="5.63996">
        <ele>270.75</ele>
        <time>2022-07-13T08:35:08Z</time>
      </trkpt>
      <trkpt lat="46.91614" lon="5.64024">
        <ele>270.75</ele>
        <time>2022-07-13T08:35:22Z</time>
      </trkpt>
      <trkpt lat="46.91653" lon="5.64065">
        <ele>270.75</ele>
        <time>2022-07-13T08:35:38Z</time>
      </trkpt>
      <trkpt lat="46.91696" lon="5.64107">
        <ele>271.23</ele>
        <time>2022-07-13T08:35:54Z</time>
      </trkpt>
      <trkpt lat="46.91753" lon="5.64168">
        <ele>272.67</ele>
        <time>2022-07-13T08:36:13Z</time>
      </trkpt>
      <trkpt lat="46.91792" lon="5.64208">
        <ele>274.11</ele>
        <time>2022-07-13T08:36:27Z</time>
      </trkpt>
      <trkpt lat="46.91838" lon="5.64256">
        <ele>276.04</ele>
        <time>2022-07-13T08:36:45Z</time>
      </trkpt>
      <trkpt lat="46.91873" lon="5.64294">
        <ele>277.48</ele>
        <time>2022-07-13T08:36:59Z</time>
      </trkpt>
      <trkpt lat="46.91921" lon="5.64345">
        <ele>278.44</ele>
        <time>2022-07-13T08:37:17Z</time>
      </trkpt>
      <trkpt lat="46.91966" lon="5.64398">
        <ele>279.4</ele>
        <time>2022-07-13T08:37:34Z</time>
      </trkpt>
      <trkpt lat="46.92015" lon="5.64463">
        <ele>279.88</ele>
        <time>2022-07-13T08:37:53Z</time>
      </trkpt>
      <trkpt lat="46.9205" lon="5.64509">
        <ele>281.32</ele>
        <time>2022-07-13T08:38:08Z</time>
      </trkpt>
      <trkpt lat="46.92094" lon="5.64562">
        <ele>281.32</ele>
        <time>2022-07-13T08:38:25Z</time>
      </trkpt>
      <trkpt lat="46.92132" lon="5.64606">
        <ele>281.32</ele>
        <time>2022-07-13T08:38:41Z</time>
      </trkpt>
      <trkpt lat="46.92169" lon="5.64639">
        <ele>280.84</ele>
        <time>2022-07-13T08:38:51Z</time>
      </trkpt>
      <trkpt lat="46.92202" lon="5.64663">
        <ele>279.88</ele>
        <time>2022-07-13T08:39:01Z</time>
      </trkpt>
      <trkpt lat="46.92247" lon="5.64701">
        <ele>279.4</ele>
        <time>2022-07-13T08:39:13Z</time>
      </trkpt>
      <trkpt lat="46.9231" lon="5.64756">
        <ele>278.44</ele>
        <time>2022-07-13T08:39:27Z</time>
      </trkpt>
      <trkpt lat="46.92337" lon="5.64778">
        <ele>277.96</ele>
        <time>2022-07-13T08:39:34Z</time>
      </trkpt>
      <trkpt lat="46.92395" lon="5.64811">
        <ele>276.52</ele>
        <time>2022-07-13T08:39:47Z</time>
      </trkpt>
      <trkpt lat="46.92416" lon="5.6482">
        <ele>276.04</ele>
        <time>2022-07-13T08:39:51Z</time>
      </trkpt>
      <trkpt lat="46.92421" lon="5.64823">
        <ele>275.07</ele>
        <time>2022-07-13T08:39:52Z</time>
      </trkpt>
      <trkpt lat="46.92464" lon="5.64849">
        <ele>274.11</ele>
        <time>2022-07-13T08:39:59Z</time>
      </trkpt>
      <trkpt lat="46.92548" lon="5.64893">
        <ele>273.63</ele>
        <time>2022-07-13T08:40:10Z</time>
      </trkpt>
      <trkpt lat="46.92611" lon="5.64925">
        <ele>277</ele>
        <time>2022-07-13T08:40:22Z</time>
      </trkpt>
      <trkpt lat="46.92645" lon="5.64928">
        <ele>277.96</ele>
        <time>2022-07-13T08:40:33Z</time>
      </trkpt>
      <trkpt lat="46.92693" lon="5.64945">
        <ele>278.44</ele>
        <time>2022-07-13T08:40:47Z</time>
      </trkpt>
      <trkpt lat="46.92711" lon="5.64953">
        <ele>279.4</ele>
        <time>2022-07-13T08:40:51Z</time>
      </trkpt>
      <trkpt lat="46.92724" lon="5.64959">
        <ele>278.92</ele>
        <time>2022-07-13T08:40:54Z</time>
      </trkpt>
      <trkpt lat="46.92784" lon="5.64993">
        <ele>277</ele>
        <time>2022-07-13T08:41:06Z</time>
      </trkpt>
      <trkpt lat="46.92862" lon="5.65013">
        <ele>276.04</ele>
        <time>2022-07-13T08:41:20Z</time>
      </trkpt>
      <trkpt lat="46.92965" lon="5.65084">
        <ele>276.04</ele>
        <time>2022-07-13T08:41:39Z</time>
      </trkpt>
      <trkpt lat="46.93035" lon="5.65131">
        <ele>274.59</ele>
        <time>2022-07-13T08:41:55Z</time>
      </trkpt>
      <trkpt lat="46.93122" lon="5.65204">
        <ele>272.67</ele>
        <time>2022-07-13T08:42:13Z</time>
      </trkpt>
      <trkpt lat="46.93218" lon="5.65279">
        <ele>270.27</ele>
        <time>2022-07-13T08:42:30Z</time>
      </trkpt>
      <trkpt lat="46.93313" lon="5.65345">
        <ele>267.86</ele>
        <time>2022-07-13T08:42:46Z</time>
      </trkpt>
      <trkpt lat="46.9341" lon="5.6542">
        <ele>264.5</ele>
        <time>2022-07-13T08:43:01Z</time>
      </trkpt>
      <trkpt lat="46.93473" lon="5.65455">
        <ele>263.06</ele>
        <time>2022-07-13T08:43:10Z</time>
      </trkpt>
      <trkpt lat="46.93617" lon="5.65526">
        <ele>260.65</ele>
        <time>2022-07-13T08:43:31Z</time>
      </trkpt>
      <trkpt lat="46.93708" lon="5.65568">
        <ele>260.17</ele>
        <time>2022-07-13T08:43:46Z</time>
      </trkpt>
      <trkpt lat="46.938" lon="5.65604">
        <ele>259.69</ele>
        <time>2022-07-13T08:44:04Z</time>
      </trkpt>
      <trkpt lat="46.93809" lon="5.65608">
        <ele>259.69</ele>
        <time>2022-07-13T08:44:06Z</time>
      </trkpt>
      <trkpt lat="46.93831" lon="5.65622">
        <ele>259.21</ele>
        <time>2022-07-13T08:44:11Z</time>
      </trkpt>
      <trkpt lat="46.93836" lon="5.65627">
        <ele>259.21</ele>
        <time>2022-07-13T08:44:12Z</time>
      </trkpt>
      <trkpt lat="46.93861" lon="5.65658">
        <ele>256.81</ele>
        <time>2022-07-13T08:44:17Z</time>
      </trkpt>
      <trkpt lat="46.93868" lon="5.65664">
        <ele>256.33</ele>
        <time>2022-07-13T08:44:18Z</time>
      </trkpt>
      <trkpt lat="46.93875" lon="5.65669">
        <ele>254.89</ele>
        <time>2022-07-13T08:44:19Z</time>
      </trkpt>
      <trkpt lat="46.93905" lon="5.65686">
        <ele>254.41</ele>
        <time>2022-07-13T08:44:23Z</time>
      </trkpt>
      <trkpt lat="46.93913" lon="5.65689">
        <ele>253.93</ele>
        <time>2022-07-13T08:44:24Z</time>
      </trkpt>
      <trkpt lat="46.93922" lon="5.65689">
        <ele>253.44</ele>
        <time>2022-07-13T08:44:25Z</time>
      </trkpt>
      <trkpt lat="46.9393" lon="5.65689">
        <ele>252.48</ele>
        <time>2022-07-13T08:44:26Z</time>
      </trkpt>
      <trkpt lat="46.93939" lon="5.65689">
        <ele>252.48</ele>
        <time>2022-07-13T08:44:27Z</time>
      </trkpt>
      <trkpt lat="46.93947" lon="5.6569">
        <ele>251.04</ele>
        <time>2022-07-13T08:44:28Z</time>
      </trkpt>
      <trkpt lat="46.93954" lon="5.65691">
        <ele>251.04</ele>
        <time>2022-07-13T08:44:29Z</time>
      </trkpt>
      <trkpt lat="46.9396" lon="5.65694">
        <ele>250.56</ele>
        <time>2022-07-13T08:44:30Z</time>
      </trkpt>
      <trkpt lat="46.93965" lon="5.65699">
        <ele>250.56</ele>
        <time>2022-07-13T08:44:31Z</time>
      </trkpt>
      <trkpt lat="46.93968" lon="5.65705">
        <ele>250.08</ele>
        <time>2022-07-13T08:44:32Z</time>
      </trkpt>
      <trkpt lat="46.9397" lon="5.65712">
        <ele>249.6</ele>
        <time>2022-07-13T08:44:33Z</time>
      </trkpt>
      <trkpt lat="46.93972" lon="5.65718">
        <ele>249.12</ele>
        <time>2022-07-13T08:44:34Z</time>
      </trkpt>
      <trkpt lat="46.94" lon="5.65809">
        <ele>247.68</ele>
        <time>2022-07-13T08:44:41Z</time>
      </trkpt>
      <trkpt lat="46.94048" lon="5.65895">
        <ele>246.23</ele>
        <time>2022-07-13T08:44:52Z</time>
      </trkpt>
      <trkpt lat="46.94056" lon="5.65908">
        <ele>245.27</ele>
        <time>2022-07-13T08:44:54Z</time>
      </trkpt>
      <trkpt lat="46.94115" lon="5.65986">
        <ele>244.79</ele>
        <time>2022-07-13T08:45:08Z</time>
      </trkpt>
      <trkpt lat="46.94129" lon="5.65995">
        <ele>244.79</ele>
        <time>2022-07-13T08:45:11Z</time>
      </trkpt>
      <trkpt lat="46.94134" lon="5.65997">
        <ele>244.31</ele>
        <time>2022-07-13T08:45:12Z</time>
      </trkpt>
      <trkpt lat="46.94138" lon="5.65998">
        <ele>245.27</ele>
        <time>2022-07-13T08:45:13Z</time>
      </trkpt>
      <trkpt lat="46.94169" lon="5.66014">
        <ele>243.83</ele>
        <time>2022-07-13T08:45:22Z</time>
      </trkpt>
      <trkpt lat="46.94172" lon="5.66014">
        <ele>243.35</ele>
        <time>2022-07-13T08:45:23Z</time>
      </trkpt>
      <trkpt lat="46.94174" lon="5.66014">
        <ele>243.83</ele>
        <time>2022-07-13T08:45:24Z</time>
      </trkpt>
      <trkpt lat="46.94178" lon="5.66013">
        <ele>243.83</ele>
        <time>2022-07-13T08:45:26Z</time>
      </trkpt>
      <trkpt lat="46.94179" lon="5.66011">
        <ele>244.31</ele>
        <time>2022-07-13T08:45:27Z</time>
      </trkpt>
      <trkpt lat="46.9418" lon="5.66008">
        <ele>243.83</ele>
        <time>2022-07-13T08:45:28Z</time>
      </trkpt>
      <trkpt lat="46.94205" lon="5.65977">
        <ele>244.31</ele>
        <time>2022-07-13T08:45:42Z</time>
      </trkpt>
      <trkpt lat="46.9424" lon="5.65921">
        <ele>244.31</ele>
        <time>2022-07-13T08:45:58Z</time>
      </trkpt>
      <trkpt lat="46.94272" lon="5.65868">
        <ele>244.79</ele>
        <time>2022-07-13T08:46:13Z</time>
      </trkpt>
      <trkpt lat="46.94278" lon="5.65861">
        <ele>243.83</ele>
        <time>2022-07-13T08:46:15Z</time>
      </trkpt>
      <trkpt lat="46.94316" lon="5.65796">
        <ele>243.83</ele>
        <time>2022-07-13T08:46:30Z</time>
      </trkpt>
      <trkpt lat="46.9436" lon="5.6575">
        <ele>242.87</ele>
        <time>2022-07-13T08:46:44Z</time>
      </trkpt>
      <trkpt lat="46.94365" lon="5.65749">
        <ele>243.35</ele>
        <time>2022-07-13T08:46:45Z</time>
      </trkpt>
      <trkpt lat="46.94369" lon="5.65748">
        <ele>242.87</ele>
        <time>2022-07-13T08:46:46Z</time>
      </trkpt>
      <trkpt lat="46.94373" lon="5.65748">
        <ele>243.35</ele>
        <time>2022-07-13T08:46:47Z</time>
      </trkpt>
      <trkpt lat="46.94378" lon="5.65749">
        <ele>242.87</ele>
        <time>2022-07-13T08:46:48Z</time>
      </trkpt>
      <trkpt lat="46.94382" lon="5.6575">
        <ele>242.87</ele>
        <time>2022-07-13T08:46:49Z</time>
      </trkpt>
      <trkpt lat="46.94386" lon="5.65751">
        <ele>242.87</ele>
        <time>2022-07-13T08:46:50Z</time>
      </trkpt>
      <trkpt lat="46.9439" lon="5.65754">
        <ele>242.87</ele>
        <time>2022-07-13T08:46:51Z</time>
      </trkpt>
      <trkpt lat="46.94394" lon="5.65757">
        <ele>243.35</ele>
        <time>2022-07-13T08:46:52Z</time>
      </trkpt>
      <trkpt lat="46.94398" lon="5.6576">
        <ele>242.87</ele>
        <time>2022-07-13T08:46:53Z</time>
      </trkpt>
      <trkpt lat="46.94402" lon="5.65764">
        <ele>242.87</ele>
        <time>2022-07-13T08:46:54Z</time>
      </trkpt>
      <trkpt lat="46.94405" lon="5.65767">
        <ele>242.87</ele>
        <time>2022-07-13T08:46:55Z</time>
      </trkpt>
      <trkpt lat="46.94409" lon="5.65771">
        <ele>242.87</ele>
        <time>2022-07-13T08:46:56Z</time>
      </trkpt>
      <trkpt lat="46.94417" lon="5.65779">
        <ele>242.39</ele>
        <time>2022-07-13T08:46:58Z</time>
      </trkpt>
      <trkpt lat="46.9442" lon="5.65783">
        <ele>242.39</ele>
        <time>2022-07-13T08:46:59Z</time>
      </trkpt>
      <trkpt lat="46.94475" lon="5.65855">
        <ele>242.39</ele>
        <time>2022-07-13T08:47:14Z</time>
      </trkpt>
      <trkpt lat="46.94517" lon="5.65944">
        <ele>240.95</ele>
        <time>2022-07-13T08:47:29Z</time>
      </trkpt>
      <trkpt lat="46.94523" lon="5.65957">
        <ele>241.43</ele>
        <time>2022-07-13T08:47:31Z</time>
      </trkpt>
      <trkpt lat="46.94553" lon="5.66014">
        <ele>242.39</ele>
        <time>2022-07-13T08:47:44Z</time>
      </trkpt>
      <trkpt lat="46.94577" lon="5.66053">
        <ele>241.91</ele>
        <time>2022-07-13T08:47:53Z</time>
      </trkpt>
      <trkpt lat="46.9458" lon="5.66059">
        <ele>241.91</ele>
        <time>2022-07-13T08:47:54Z</time>
      </trkpt>
      <trkpt lat="46.94581" lon="5.66064">
        <ele>241.43</ele>
        <time>2022-07-13T08:47:55Z</time>
      </trkpt>
      <trkpt lat="46.94582" lon="5.6607">
        <ele>241.43</ele>
        <time>2022-07-13T08:47:56Z</time>
      </trkpt>
      <trkpt lat="46.94583" lon="5.66076">
        <ele>241.43</ele>
        <time>2022-07-13T08:47:57Z</time>
      </trkpt>
      <trkpt lat="46.94583" lon="5.66082">
        <ele>241.43</ele>
        <time>2022-07-13T08:47:58Z</time>
      </trkpt>
      <trkpt lat="46.94578" lon="5.66177">
        <ele>241.91</ele>
        <time>2022-07-13T08:48:14Z</time>
      </trkpt>
      <trkpt lat="46.94577" lon="5.66183">
        <ele>241.91</ele>
        <time>2022-07-13T08:48:15Z</time>
      </trkpt>
      <trkpt lat="46.94571" lon="5.66302">
        <ele>242.39</ele>
        <time>2022-07-13T08:48:34Z</time>
      </trkpt>
      <trkpt lat="46.94576" lon="5.6642">
        <ele>243.35</ele>
        <time>2022-07-13T08:48:52Z</time>
      </trkpt>
      <trkpt lat="46.9457" lon="5.66485">
        <ele>244.31</ele>
        <time>2022-07-13T08:49:02Z</time>
      </trkpt>
      <trkpt lat="46.94567" lon="5.66491">
        <ele>243.83</ele>
        <time>2022-07-13T08:49:03Z</time>
      </trkpt>
      <trkpt lat="46.9452" lon="5.66579">
        <ele>243.35</ele>
        <time>2022-07-13T08:49:20Z</time>
      </trkpt>
      <trkpt lat="46.94502" lon="5.66606">
        <ele>243.35</ele>
        <time>2022-07-13T08:49:31Z</time>
      </trkpt>
      <trkpt lat="46.94501" lon="5.66607">
        <ele>242.87</ele>
        <time>2022-07-13T08:49:54Z</time>
      </trkpt>
      <trkpt lat="46.945" lon="5.6661">
        <ele>242.87</ele>
        <time>2022-07-13T08:49:56Z</time>
      </trkpt>
      <trkpt lat="46.94483" lon="5.66638">
        <ele>243.35</ele>
        <time>2022-07-13T08:50:08Z</time>
      </trkpt>
      <trkpt lat="46.94436" lon="5.66692">
        <ele>242.87</ele>
        <time>2022-07-13T08:50:23Z</time>
      </trkpt>
      <trkpt lat="46.94357" lon="5.66774">
        <ele>242.87</ele>
        <time>2022-07-13T08:50:43Z</time>
      </trkpt>
      <trkpt lat="46.94266" lon="5.66871">
        <ele>243.35</ele>
        <time>2022-07-13T08:51:08Z</time>
      </trkpt>
      <trkpt lat="46.94248" lon="5.669">
        <ele>243.35</ele>
        <time>2022-07-13T08:51:14Z</time>
      </trkpt>
      <trkpt lat="46.94246" lon="5.66906">
        <ele>243.83</ele>
        <time>2022-07-13T08:51:15Z</time>
      </trkpt>
      <trkpt lat="46.94243" lon="5.66918">
        <ele>243.35</ele>
        <time>2022-07-13T08:51:17Z</time>
      </trkpt>
      <trkpt lat="46.94243" lon="5.66925">
        <ele>242.87</ele>
        <time>2022-07-13T08:51:18Z</time>
      </trkpt>
      <trkpt lat="46.94243" lon="5.66931">
        <ele>242.87</ele>
        <time>2022-07-13T08:51:19Z</time>
      </trkpt>
      <trkpt lat="46.94243" lon="5.66938">
        <ele>242.87</ele>
        <time>2022-07-13T08:51:20Z</time>
      </trkpt>
      <trkpt lat="46.94244" lon="5.66944">
        <ele>243.35</ele>
        <time>2022-07-13T08:51:21Z</time>
      </trkpt>
      <trkpt lat="46.94246" lon="5.66957">
        <ele>242.87</ele>
        <time>2022-07-13T08:51:23Z</time>
      </trkpt>
      <trkpt lat="46.94247" lon="5.66963">
        <ele>243.35</ele>
        <time>2022-07-13T08:51:24Z</time>
      </trkpt>
      <trkpt lat="46.94253" lon="5.66989">
        <ele>243.35</ele>
        <time>2022-07-13T08:51:28Z</time>
      </trkpt>
      <trkpt lat="46.94271" lon="5.67071">
        <ele>243.35</ele>
        <time>2022-07-13T08:51:41Z</time>
      </trkpt>
      <trkpt lat="46.94256" lon="5.67161">
        <ele>244.31</ele>
        <time>2022-07-13T08:51:57Z</time>
      </trkpt>
      <trkpt lat="46.94221" lon="5.67203">
        <ele>243.35</ele>
        <time>2022-07-13T08:52:12Z</time>
      </trkpt>
      <trkpt lat="46.94179" lon="5.67232">
        <ele>244.31</ele>
        <time>2022-07-13T08:52:24Z</time>
      </trkpt>
      <trkpt lat="46.94112" lon="5.67291">
        <ele>244.79</ele>
        <time>2022-07-13T08:52:42Z</time>
      </trkpt>
      <trkpt lat="46.94095" lon="5.67307">
        <ele>244.79</ele>
        <time>2022-07-13T08:52:47Z</time>
      </trkpt>
      <trkpt lat="46.94091" lon="5.67311">
        <ele>244.31</ele>
        <time>2022-07-13T08:52:48Z</time>
      </trkpt>
      <trkpt lat="46.94065" lon="5.67342">
        <ele>244.31</ele>
        <time>2022-07-13T08:52:56Z</time>
      </trkpt>
      <trkpt lat="46.94063" lon="5.67347">
        <ele>244.31</ele>
        <time>2022-07-13T08:52:57Z</time>
      </trkpt>
      <trkpt lat="46.9406" lon="5.67352">
        <ele>244.31</ele>
        <time>2022-07-13T08:52:58Z</time>
      </trkpt>
      <trkpt lat="46.94052" lon="5.67382">
        <ele>244.31</ele>
        <time>2022-07-13T08:53:03Z</time>
      </trkpt>
      <trkpt lat="46.94018" lon="5.67478">
        <ele>244.79</ele>
        <time>2022-07-13T08:53:20Z</time>
      </trkpt>
      <trkpt lat="46.93948" lon="5.67556">
        <ele>244.79</ele>
        <time>2022-07-13T08:53:40Z</time>
      </trkpt>
      <trkpt lat="46.93871" lon="5.67641">
        <ele>244.31</ele>
        <time>2022-07-13T08:54:01Z</time>
      </trkpt>
      <trkpt lat="46.93866" lon="5.67649">
        <ele>244.31</ele>
        <time>2022-07-13T08:54:03Z</time>
      </trkpt>
      <trkpt lat="46.93863" lon="5.67654">
        <ele>244.79</ele>
        <time>2022-07-13T08:54:04Z</time>
      </trkpt>
      <trkpt lat="46.93862" lon="5.6766">
        <ele>244.31</ele>
        <time>2022-07-13T08:54:05Z</time>
      </trkpt>
      <trkpt lat="46.93862" lon="5.67666">
        <ele>244.31</ele>
        <time>2022-07-13T08:54:06Z</time>
      </trkpt>
      <trkpt lat="46.93863" lon="5.67672">
        <ele>244.79</ele>
        <time>2022-07-13T08:54:07Z</time>
      </trkpt>
      <trkpt lat="46.93864" lon="5.67678">
        <ele>243.83</ele>
        <time>2022-07-13T08:54:08Z</time>
      </trkpt>
      <trkpt lat="46.93866" lon="5.67683">
        <ele>244.79</ele>
        <time>2022-07-13T08:54:09Z</time>
      </trkpt>
      <trkpt lat="46.93868" lon="5.67689">
        <ele>244.31</ele>
        <time>2022-07-13T08:54:10Z</time>
      </trkpt>
      <trkpt lat="46.9387" lon="5.67693">
        <ele>244.79</ele>
        <time>2022-07-13T08:54:11Z</time>
      </trkpt>
      <trkpt lat="46.93909" lon="5.6779">
        <ele>244.79</ele>
        <time>2022-07-13T08:54:29Z</time>
      </trkpt>
      <trkpt lat="46.93909" lon="5.67797">
        <ele>244.79</ele>
        <time>2022-07-13T08:54:30Z</time>
      </trkpt>
      <trkpt lat="46.93909" lon="5.67804">
        <ele>244.79</ele>
        <time>2022-07-13T08:54:31Z</time>
      </trkpt>
      <trkpt lat="46.93909" lon="5.67811">
        <ele>244.79</ele>
        <time>2022-07-13T08:54:32Z</time>
      </trkpt>
      <trkpt lat="46.93908" lon="5.67818">
        <ele>244.79</ele>
        <time>2022-07-13T08:54:33Z</time>
      </trkpt>
      <trkpt lat="46.93907" lon="5.67824">
        <ele>244.79</ele>
        <time>2022-07-13T08:54:34Z</time>
      </trkpt>
      <trkpt lat="46.93905" lon="5.6783">
        <ele>245.27</ele>
        <time>2022-07-13T08:54:35Z</time>
      </trkpt>
      <trkpt lat="46.93904" lon="5.67836">
        <ele>244.79</ele>
        <time>2022-07-13T08:54:36Z</time>
      </trkpt>
      <trkpt lat="46.93877" lon="5.67931">
        <ele>245.75</ele>
        <time>2022-07-13T08:54:53Z</time>
      </trkpt>
      <trkpt lat="46.93869" lon="5.68024">
        <ele>247.68</ele>
        <time>2022-07-13T08:55:11Z</time>
      </trkpt>
      <trkpt lat="46.93883" lon="5.68093">
        <ele>249.12</ele>
        <time>2022-07-13T08:55:28Z</time>
      </trkpt>
      <trkpt lat="46.93924" lon="5.68156">
        <ele>251.52</ele>
        <time>2022-07-13T08:55:47Z</time>
      </trkpt>
      <trkpt lat="46.93963" lon="5.68204">
        <ele>253.44</ele>
        <time>2022-07-13T08:56:05Z</time>
      </trkpt>
      <trkpt lat="46.94" lon="5.68254">
        <ele>256.33</ele>
        <time>2022-07-13T08:56:24Z</time>
      </trkpt>
      <trkpt lat="46.9403" lon="5.68296">
        <ele>259.69</ele>
        <time>2022-07-13T08:56:42Z</time>
      </trkpt>
      <trkpt lat="46.94068" lon="5.6833">
        <ele>261.14</ele>
        <time>2022-07-13T08:57:01Z</time>
      </trkpt>
      <trkpt lat="46.94086" lon="5.68356">
        <ele>261.62</ele>
        <time>2022-07-13T08:57:12Z</time>
      </trkpt>
      <trkpt lat="46.94086" lon="5.68359">
        <ele>262.1</ele>
        <time>2022-07-13T08:57:13Z</time>
      </trkpt>
      <trkpt lat="46.94085" lon="5.68362">
        <ele>261.62</ele>
        <time>2022-07-13T08:57:14Z</time>
      </trkpt>
      <trkpt lat="46.94084" lon="5.68365">
        <ele>261.62</ele>
        <time>2022-07-13T08:57:15Z</time>
      </trkpt>
      <trkpt lat="46.94083" lon="5.68368">
        <ele>262.1</ele>
        <time>2022-07-13T08:57:16Z</time>
      </trkpt>
      <trkpt lat="46.94082" lon="5.68372">
        <ele>262.58</ele>
        <time>2022-07-13T08:57:17Z</time>
      </trkpt>
      <trkpt lat="46.94056" lon="5.68426">
        <ele>264.5</ele>
        <time>2022-07-13T08:57:35Z</time>
      </trkpt>
      <trkpt lat="46.94019" lon="5.68457">
        <ele>266.9</ele>
        <time>2022-07-13T08:57:52Z</time>
      </trkpt>
      <trkpt lat="46.93998" lon="5.68457">
        <ele>267.38</ele>
        <time>2022-07-13T08:58:06Z</time>
      </trkpt>
      <trkpt lat="46.93995" lon="5.68443">
        <ele>267.38</ele>
        <time>2022-07-13T08:58:22Z</time>
      </trkpt>
      <trkpt lat="46.93993" lon="5.68439">
        <ele>267.86</ele>
        <time>2022-07-13T08:58:51Z</time>
      </trkpt>
      <trkpt lat="46.93995" lon="5.68433">
        <ele>268.35</ele>
        <time>2022-07-13T08:59:26Z</time>
      </trkpt>
      <trkpt lat="46.93996" lon="5.68435">
        <ele>268.35</ele>
        <time>2022-07-13T09:00:07Z</time>
      </trkpt>
      <trkpt lat="46.93998" lon="5.68441">
        <ele>268.35</ele>
        <time>2022-07-13T09:00:39Z</time>
      </trkpt>
      <trkpt lat="46.93964" lon="5.68437">
        <ele>266.42</ele>
        <time>2022-07-13T09:00:47Z</time>
      </trkpt>
      <trkpt lat="46.93945" lon="5.68421">
        <ele>264.98</ele>
        <time>2022-07-13T09:00:50Z</time>
      </trkpt>
      <trkpt lat="46.93916" lon="5.68394">
        <ele>263.06</ele>
        <time>2022-07-13T09:00:54Z</time>
      </trkpt>
      <trkpt lat="46.93873" lon="5.68351">
        <ele>259.21</ele>
        <time>2022-07-13T09:01:00Z</time>
      </trkpt>
      <trkpt lat="46.93859" lon="5.68339">
        <ele>258.73</ele>
        <time>2022-07-13T09:01:02Z</time>
      </trkpt>
      <trkpt lat="46.93851" lon="5.68334">
        <ele>258.73</ele>
        <time>2022-07-13T09:01:03Z</time>
      </trkpt>
      <trkpt lat="46.93799" lon="5.68312">
        <ele>257.77</ele>
        <time>2022-07-13T09:01:13Z</time>
      </trkpt>
      <trkpt lat="46.93798" lon="5.68312">
        <ele>257.77</ele>
        <time>2022-07-13T09:01:24Z</time>
      </trkpt>
      <trkpt lat="46.93797" lon="5.68311">
        <ele>258.25</ele>
        <time>2022-07-13T09:02:08Z</time>
      </trkpt>
      <trkpt lat="46.93793" lon="5.68309">
        <ele>258.25</ele>
        <time>2022-07-13T09:02:17Z</time>
      </trkpt>
      <trkpt lat="46.93792" lon="5.68308">
        <ele>257.77</ele>
        <time>2022-07-13T09:02:18Z</time>
      </trkpt>
      <trkpt lat="46.93791" lon="5.68306">
        <ele>257.77</ele>
        <time>2022-07-13T09:02:19Z</time>
      </trkpt>
      <trkpt lat="46.93789" lon="5.68305">
        <ele>258.25</ele>
        <time>2022-07-13T09:02:20Z</time>
      </trkpt>
      <trkpt lat="46.93787" lon="5.68304">
        <ele>258.25</ele>
        <time>2022-07-13T09:02:21Z</time>
      </trkpt>
      <trkpt lat="46.93785" lon="5.68303">
        <ele>258.73</ele>
        <time>2022-07-13T09:02:22Z</time>
      </trkpt>
      <trkpt lat="46.93783" lon="5.68301">
        <ele>258.25</ele>
        <time>2022-07-13T09:02:23Z</time>
      </trkpt>
      <trkpt lat="46.9378" lon="5.683">
        <ele>258.25</ele>
        <time>2022-07-13T09:02:24Z</time>
      </trkpt>
      <trkpt lat="46.93777" lon="5.68298">
        <ele>258.73</ele>
        <time>2022-07-13T09:02:25Z</time>
      </trkpt>
      <trkpt lat="46.93739" lon="5.68265">
        <ele>259.21</ele>
        <time>2022-07-13T09:02:38Z</time>
      </trkpt>
      <trkpt lat="46.93686" lon="5.68205">
        <ele>259.21</ele>
        <time>2022-07-13T09:02:53Z</time>
      </trkpt>
      <trkpt lat="46.93634" lon="5.6816">
        <ele>257.77</ele>
        <time>2022-07-13T09:03:04Z</time>
      </trkpt>
      <trkpt lat="46.93628" lon="5.68158">
        <ele>257.77</ele>
        <time>2022-07-13T09:03:05Z</time>
      </trkpt>
      <trkpt lat="46.93622" lon="5.68158">
        <ele>257.77</ele>
        <time>2022-07-13T09:03:06Z</time>
      </trkpt>
      <trkpt lat="46.93616" lon="5.68159">
        <ele>257.77</ele>
        <time>2022-07-13T09:03:07Z</time>
      </trkpt>
      <trkpt lat="46.9361" lon="5.68161">
        <ele>256.81</ele>
        <time>2022-07-13T09:03:08Z</time>
      </trkpt>
      <trkpt lat="46.93558" lon="5.6818">
        <ele>255.85</ele>
        <time>2022-07-13T09:03:17Z</time>
      </trkpt>
      <trkpt lat="46.9354" lon="5.68194">
        <ele>254.41</ele>
        <time>2022-07-13T09:03:20Z</time>
      </trkpt>
      <trkpt lat="46.93535" lon="5.68201">
        <ele>254.41</ele>
        <time>2022-07-13T09:03:21Z</time>
      </trkpt>
      <trkpt lat="46.93531" lon="5.68211">
        <ele>253.93</ele>
        <time>2022-07-13T09:03:22Z</time>
      </trkpt>
      <trkpt lat="46.93528" lon="5.68222">
        <ele>253.93</ele>
        <time>2022-07-13T09:03:23Z</time>
      </trkpt>
      <trkpt lat="46.93524" lon="5.68233">
        <ele>253.44</ele>
        <time>2022-07-13T09:03:24Z</time>
      </trkpt>
      <trkpt lat="46.93498" lon="5.68316">
        <ele>249.6</ele>
        <time>2022-07-13T09:03:31Z</time>
      </trkpt>
      <trkpt lat="46.93487" lon="5.68338">
        <ele>249.12</ele>
        <time>2022-07-13T09:03:33Z</time>
      </trkpt>
      <trkpt lat="46.9348" lon="5.68346">
        <ele>248.64</ele>
        <time>2022-07-13T09:03:34Z</time>
      </trkpt>
      <trkpt lat="46.93473" lon="5.68354">
        <ele>248.16</ele>
        <time>2022-07-13T09:03:35Z</time>
      </trkpt>
      <trkpt lat="46.93404" lon="5.68432">
        <ele>248.16</ele>
        <time>2022-07-13T09:03:47Z</time>
      </trkpt>
      <trkpt lat="46.93322" lon="5.68549">
        <ele>248.64</ele>
        <time>2022-07-13T09:04:06Z</time>
      </trkpt>
      <trkpt lat="46.9328" lon="5.68618">
        <ele>248.16</ele>
        <time>2022-07-13T09:04:18Z</time>
      </trkpt>
      <trkpt lat="46.93276" lon="5.68621">
        <ele>248.16</ele>
        <time>2022-07-13T09:04:19Z</time>
      </trkpt>
      <trkpt lat="46.93272" lon="5.68622">
        <ele>248.16</ele>
        <time>2022-07-13T09:04:20Z</time>
      </trkpt>
      <trkpt lat="46.93268" lon="5.68622">
        <ele>248.64</ele>
        <time>2022-07-13T09:04:21Z</time>
      </trkpt>
      <trkpt lat="46.93263" lon="5.68621">
        <ele>247.68</ele>
        <time>2022-07-13T09:04:22Z</time>
      </trkpt>
      <trkpt lat="46.93259" lon="5.68621">
        <ele>248.16</ele>
        <time>2022-07-13T09:04:23Z</time>
      </trkpt>
      <trkpt lat="46.93255" lon="5.6862">
        <ele>248.16</ele>
        <time>2022-07-13T09:04:24Z</time>
      </trkpt>
      <trkpt lat="46.93251" lon="5.68621">
        <ele>248.64</ele>
        <time>2022-07-13T09:04:25Z</time>
      </trkpt>
      <trkpt lat="46.93247" lon="5.68623">
        <ele>248.64</ele>
        <time>2022-07-13T09:04:26Z</time>
      </trkpt>
      <trkpt lat="46.93244" lon="5.68626">
        <ele>248.16</ele>
        <time>2022-07-13T09:04:27Z</time>
      </trkpt>
      <trkpt lat="46.93241" lon="5.68629">
        <ele>248.16</ele>
        <time>2022-07-13T09:04:28Z</time>
      </trkpt>
      <trkpt lat="46.93238" lon="5.68634">
        <ele>248.64</ele>
        <time>2022-07-13T09:04:29Z</time>
      </trkpt>
      <trkpt lat="46.93236" lon="5.68639">
        <ele>247.68</ele>
        <time>2022-07-13T09:04:30Z</time>
      </trkpt>
      <trkpt lat="46.93234" lon="5.68645">
        <ele>247.68</ele>
        <time>2022-07-13T09:04:31Z</time>
      </trkpt>
      <trkpt lat="46.93232" lon="5.68651">
        <ele>248.64</ele>
        <time>2022-07-13T09:04:32Z</time>
      </trkpt>
      <trkpt lat="46.93229" lon="5.68663">
        <ele>248.64</ele>
        <time>2022-07-13T09:04:34Z</time>
      </trkpt>
      <trkpt lat="46.93196" lon="5.68758">
        <ele>248.64</ele>
        <time>2022-07-13T09:04:51Z</time>
      </trkpt>
      <trkpt lat="46.93193" lon="5.68789">
        <ele>248.64</ele>
        <time>2022-07-13T09:04:56Z</time>
      </trkpt>
      <trkpt lat="46.93179" lon="5.68852">
        <ele>248.16</ele>
        <time>2022-07-13T09:05:07Z</time>
      </trkpt>
      <trkpt lat="46.93144" lon="5.68939">
        <ele>248.64</ele>
        <time>2022-07-13T09:05:24Z</time>
      </trkpt>
      <trkpt lat="46.93101" lon="5.69034">
        <ele>249.12</ele>
        <time>2022-07-13T09:05:43Z</time>
      </trkpt>
      <trkpt lat="46.93046" lon="5.69135">
        <ele>249.12</ele>
        <time>2022-07-13T09:06:03Z</time>
      </trkpt>
      <trkpt lat="46.9299" lon="5.69179">
        <ele>249.6</ele>
        <time>2022-07-13T09:06:19Z</time>
      </trkpt>
      <trkpt lat="46.92947" lon="5.69233">
        <ele>250.56</ele>
        <time>2022-07-13T09:06:37Z</time>
      </trkpt>
      <trkpt lat="46.92936" lon="5.69303">
        <ele>250.56</ele>
        <time>2022-07-13T09:06:51Z</time>
      </trkpt>
      <trkpt lat="46.9294" lon="5.69413">
        <ele>251.52</ele>
        <time>2022-07-13T09:07:11Z</time>
      </trkpt>
      <trkpt lat="46.92934" lon="5.69529">
        <ele>252.48</ele>
        <time>2022-07-13T09:07:31Z</time>
      </trkpt>
      <trkpt lat="46.9293" lon="5.69576">
        <ele>252.48</ele>
        <time>2022-07-13T09:07:39Z</time>
      </trkpt>
      <trkpt lat="46.9293" lon="5.69582">
        <ele>252.96</ele>
        <time>2022-07-13T09:07:40Z</time>
      </trkpt>
      <trkpt lat="46.92924" lon="5.69647">
        <ele>252</ele>
        <time>2022-07-13T09:07:50Z</time>
      </trkpt>
      <trkpt lat="46.92924" lon="5.69654">
        <ele>252.48</ele>
        <time>2022-07-13T09:07:51Z</time>
      </trkpt>
      <trkpt lat="46.92926" lon="5.6966">
        <ele>252.48</ele>
        <time>2022-07-13T09:07:52Z</time>
      </trkpt>
      <trkpt lat="46.92927" lon="5.69666">
        <ele>252.48</ele>
        <time>2022-07-13T09:07:53Z</time>
      </trkpt>
      <trkpt lat="46.92929" lon="5.69673">
        <ele>252.48</ele>
        <time>2022-07-13T09:07:54Z</time>
      </trkpt>
      <trkpt lat="46.92931" lon="5.6968">
        <ele>252</ele>
        <time>2022-07-13T09:07:55Z</time>
      </trkpt>
      <trkpt lat="46.92949" lon="5.69747">
        <ele>252.48</ele>
        <time>2022-07-13T09:08:05Z</time>
      </trkpt>
      <trkpt lat="46.92949" lon="5.69754">
        <ele>252.48</ele>
        <time>2022-07-13T09:08:06Z</time>
      </trkpt>
      <trkpt lat="46.92945" lon="5.6978">
        <ele>252.96</ele>
        <time>2022-07-13T09:08:10Z</time>
      </trkpt>
      <trkpt lat="46.92905" lon="5.69899">
        <ele>252.48</ele>
        <time>2022-07-13T09:08:30Z</time>
      </trkpt>
      <trkpt lat="46.9289" lon="5.69998">
        <ele>252.96</ele>
        <time>2022-07-13T09:08:48Z</time>
      </trkpt>
      <trkpt lat="46.92918" lon="5.70063">
        <ele>253.44</ele>
        <time>2022-07-13T09:09:02Z</time>
      </trkpt>
      <trkpt lat="46.92955" lon="5.70138">
        <ele>254.89</ele>
        <time>2022-07-13T09:09:18Z</time>
      </trkpt>
      <trkpt lat="46.92983" lon="5.70227">
        <ele>255.37</ele>
        <time>2022-07-13T09:09:35Z</time>
      </trkpt>
      <trkpt lat="46.92997" lon="5.70267">
        <ele>256.33</ele>
        <time>2022-07-13T09:09:45Z</time>
      </trkpt>
      <trkpt lat="46.92995" lon="5.7027">
        <ele>256.33</ele>
        <time>2022-07-13T09:09:46Z</time>
      </trkpt>
      <trkpt lat="46.92993" lon="5.70272">
        <ele>256.33</ele>
        <time>2022-07-13T09:09:47Z</time>
      </trkpt>
      <trkpt lat="46.9299" lon="5.70274">
        <ele>256.33</ele>
        <time>2022-07-13T09:09:48Z</time>
      </trkpt>
      <trkpt lat="46.92986" lon="5.70275">
        <ele>256.81</ele>
        <time>2022-07-13T09:09:49Z</time>
      </trkpt>
      <trkpt lat="46.92978" lon="5.70277">
        <ele>256.33</ele>
        <time>2022-07-13T09:09:51Z</time>
      </trkpt>
      <trkpt lat="46.92905" lon="5.70286">
        <ele>253.93</ele>
        <time>2022-07-13T09:10:05Z</time>
      </trkpt>
      <trkpt lat="46.92835" lon="5.7026">
        <ele>253.44</ele>
        <time>2022-07-13T09:10:17Z</time>
      </trkpt>
      <trkpt lat="46.92758" lon="5.70244">
        <ele>252.96</ele>
        <time>2022-07-13T09:10:33Z</time>
      </trkpt>
      <trkpt lat="46.92728" lon="5.70236">
        <ele>252.48</ele>
        <time>2022-07-13T09:10:39Z</time>
      </trkpt>
      <trkpt lat="46.92659" lon="5.70226">
        <ele>252.48</ele>
        <time>2022-07-13T09:10:54Z</time>
      </trkpt>
      <trkpt lat="46.92577" lon="5.70237">
        <ele>252.96</ele>
        <time>2022-07-13T09:11:12Z</time>
      </trkpt>
      <trkpt lat="46.92488" lon="5.70241">
        <ele>253.44</ele>
        <time>2022-07-13T09:11:29Z</time>
      </trkpt>
      <trkpt lat="46.92421" lon="5.70235">
        <ele>252.48</ele>
        <time>2022-07-13T09:11:43Z</time>
      </trkpt>
      <trkpt lat="46.9236" lon="5.70228">
        <ele>252.48</ele>
        <time>2022-07-13T09:11:58Z</time>
      </trkpt>
      <trkpt lat="46.92287" lon="5.70223">
        <ele>253.44</ele>
        <time>2022-07-13T09:12:17Z</time>
      </trkpt>
      <trkpt lat="46.92253" lon="5.70217">
        <ele>253.93</ele>
        <time>2022-07-13T09:12:31Z</time>
      </trkpt>
      <trkpt lat="46.92236" lon="5.70214">
        <ele>253.44</ele>
        <time>2022-07-13T09:12:40Z</time>
      </trkpt>
      <trkpt lat="46.92199" lon="5.70196">
        <ele>254.41</ele>
        <time>2022-07-13T09:12:53Z</time>
      </trkpt>
      <trkpt lat="46.92167" lon="5.70145">
        <ele>255.37</ele>
        <time>2022-07-13T09:13:07Z</time>
      </trkpt>
      <trkpt lat="46.92139" lon="5.70143">
        <ele>255.85</ele>
        <time>2022-07-13T09:13:16Z</time>
      </trkpt>
      <trkpt lat="46.9209" lon="5.70147">
        <ele>258.25</ele>
        <time>2022-07-13T09:13:33Z</time>
      </trkpt>
      <trkpt lat="46.92044" lon="5.7013">
        <ele>261.14</ele>
        <time>2022-07-13T09:13:49Z</time>
      </trkpt>
      <trkpt lat="46.92" lon="5.70127">
        <ele>263.06</ele>
        <time>2022-07-13T09:14:05Z</time>
      </trkpt>
      <trkpt lat="46.91954" lon="5.70118">
        <ele>264.5</ele>
        <time>2022-07-13T09:14:21Z</time>
      </trkpt>
      <trkpt lat="46.919" lon="5.70102">
        <ele>265.46</ele>
        <time>2022-07-13T09:14:41Z</time>
      </trkpt>
      <trkpt lat="46.91853" lon="5.70083">
        <ele>266.9</ele>
        <time>2022-07-13T09:15:01Z</time>
      </trkpt>
      <trkpt lat="46.91792" lon="5.70049">
        <ele>267.86</ele>
        <time>2022-07-13T09:15:21Z</time>
      </trkpt>
      <trkpt lat="46.91725" lon="5.70016">
        <ele>270.27</ele>
        <time>2022-07-13T09:15:43Z</time>
      </trkpt>
      <trkpt lat="46.91668" lon="5.69988">
        <ele>270.75</ele>
        <time>2022-07-13T09:16:01Z</time>
      </trkpt>
      <trkpt lat="46.91595" lon="5.69947">
        <ele>271.71</ele>
        <time>2022-07-13T09:16:21Z</time>
      </trkpt>
      <trkpt lat="46.91529" lon="5.69924">
        <ele>272.67</ele>
        <time>2022-07-13T09:16:39Z</time>
      </trkpt>
      <trkpt lat="46.91457" lon="5.69895">
        <ele>275.07</ele>
        <time>2022-07-13T09:17:01Z</time>
      </trkpt>
      <trkpt lat="46.91423" lon="5.69878">
        <ele>277.48</ele>
        <time>2022-07-13T09:17:17Z</time>
      </trkpt>
      <trkpt lat="46.91394" lon="5.69863">
        <ele>279.4</ele>
        <time>2022-07-13T09:17:31Z</time>
      </trkpt>
      <trkpt lat="46.91364" lon="5.69848">
        <ele>281.8</ele>
        <time>2022-07-13T09:17:46Z</time>
      </trkpt>
      <trkpt lat="46.91331" lon="5.69829">
        <ele>284.21</ele>
        <time>2022-07-13T09:18:01Z</time>
      </trkpt>
      <trkpt lat="46.91308" lon="5.69807">
        <ele>285.17</ele>
        <time>2022-07-13T09:18:12Z</time>
      </trkpt>
      <trkpt lat="46.91295" lon="5.69794">
        <ele>285.17</ele>
        <time>2022-07-13T09:18:22Z</time>
      </trkpt>
      <trkpt lat="46.91293" lon="5.69793">
        <ele>285.65</ele>
        <time>2022-07-13T09:18:23Z</time>
      </trkpt>
      <trkpt lat="46.9129" lon="5.69791">
        <ele>285.65</ele>
        <time>2022-07-13T09:18:24Z</time>
      </trkpt>
      <trkpt lat="46.91287" lon="5.69789">
        <ele>285.65</ele>
        <time>2022-07-13T09:18:25Z</time>
      </trkpt>
      <trkpt lat="46.91286" lon="5.69787">
        <ele>285.65</ele>
        <time>2022-07-13T09:18:26Z</time>
      </trkpt>
      <trkpt lat="46.91284" lon="5.69785">
        <ele>286.13</ele>
        <time>2022-07-13T09:18:27Z</time>
      </trkpt>
      <trkpt lat="46.91258" lon="5.69752">
        <ele>287.09</ele>
        <time>2022-07-13T09:18:40Z</time>
      </trkpt>
      <trkpt lat="46.91252" lon="5.69745">
        <ele>288.05</ele>
        <time>2022-07-13T09:18:42Z</time>
      </trkpt>
      <trkpt lat="46.9125" lon="5.69741">
        <ele>287.57</ele>
        <time>2022-07-13T09:18:43Z</time>
      </trkpt>
      <trkpt lat="46.91248" lon="5.69739">
        <ele>288.05</ele>
        <time>2022-07-13T09:18:44Z</time>
      </trkpt>
      <trkpt lat="46.91215" lon="5.69707">
        <ele>288.53</ele>
        <time>2022-07-13T09:18:56Z</time>
      </trkpt>
      <trkpt lat="46.91174" lon="5.69675">
        <ele>289.49</ele>
        <time>2022-07-13T09:19:07Z</time>
      </trkpt>
      <trkpt lat="46.91124" lon="5.69655">
        <ele>290.46</ele>
        <time>2022-07-13T09:19:19Z</time>
      </trkpt>
      <trkpt lat="46.91077" lon="5.69633">
        <ele>291.9</ele>
        <time>2022-07-13T09:19:31Z</time>
      </trkpt>
      <trkpt lat="46.91024" lon="5.69622">
        <ele>291.9</ele>
        <time>2022-07-13T09:19:44Z</time>
      </trkpt>
      <trkpt lat="46.90937" lon="5.69605">
        <ele>289.01</ele>
        <time>2022-07-13T09:19:57Z</time>
      </trkpt>
      <trkpt lat="46.90838" lon="5.69585">
        <ele>286.13</ele>
        <time>2022-07-13T09:20:11Z</time>
      </trkpt>
      <trkpt lat="46.90743" lon="5.69561">
        <ele>285.17</ele>
        <time>2022-07-13T09:20:26Z</time>
      </trkpt>
      <trkpt lat="46.90662" lon="5.69538">
        <ele>284.69</ele>
        <time>2022-07-13T09:20:42Z</time>
      </trkpt>
      <trkpt lat="46.90584" lon="5.6955">
        <ele>285.17</ele>
        <time>2022-07-13T09:20:57Z</time>
      </trkpt>
      <trkpt lat="46.9051" lon="5.6959">
        <ele>287.09</ele>
        <time>2022-07-13T09:21:15Z</time>
      </trkpt>
      <trkpt lat="46.90468" lon="5.69615">
        <ele>288.05</ele>
        <time>2022-07-13T09:21:28Z</time>
      </trkpt>
      <trkpt lat="46.90414" lon="5.69643">
        <ele>289.97</ele>
        <time>2022-07-13T09:21:46Z</time>
      </trkpt>
      <trkpt lat="46.90372" lon="5.69664">
        <ele>289.49</ele>
        <time>2022-07-13T09:22:01Z</time>
      </trkpt>
      <trkpt lat="46.90346" lon="5.69671">
        <ele>288.53</ele>
        <time>2022-07-13T09:22:07Z</time>
      </trkpt>
      <trkpt lat="46.90341" lon="5.69671">
        <ele>288.53</ele>
        <time>2022-07-13T09:22:08Z</time>
      </trkpt>
      <trkpt lat="46.90336" lon="5.69671">
        <ele>288.53</ele>
        <time>2022-07-13T09:22:09Z</time>
      </trkpt>
      <trkpt lat="46.9033" lon="5.6967">
        <ele>287.57</ele>
        <time>2022-07-13T09:22:10Z</time>
      </trkpt>
      <trkpt lat="46.90324" lon="5.69667">
        <ele>287.57</ele>
        <time>2022-07-13T09:22:11Z</time>
      </trkpt>
      <trkpt lat="46.90319" lon="5.69665">
        <ele>287.09</ele>
        <time>2022-07-13T09:22:12Z</time>
      </trkpt>
      <trkpt lat="46.90313" lon="5.69662">
        <ele>286.61</ele>
        <time>2022-07-13T09:22:13Z</time>
      </trkpt>
      <trkpt lat="46.90289" lon="5.69646">
        <ele>286.13</ele>
        <time>2022-07-13T09:22:18Z</time>
      </trkpt>
      <trkpt lat="46.90285" lon="5.69644">
        <ele>286.13</ele>
        <time>2022-07-13T09:22:19Z</time>
      </trkpt>
      <trkpt lat="46.9028" lon="5.69643">
        <ele>286.61</ele>
        <time>2022-07-13T09:22:20Z</time>
      </trkpt>
      <trkpt lat="46.90266" lon="5.69642">
        <ele>286.13</ele>
        <time>2022-07-13T09:22:23Z</time>
      </trkpt>
      <trkpt lat="46.90261" lon="5.6964">
        <ele>285.65</ele>
        <time>2022-07-13T09:22:24Z</time>
      </trkpt>
      <trkpt lat="46.90256" lon="5.69638">
        <ele>285.65</ele>
        <time>2022-07-13T09:22:25Z</time>
      </trkpt>
      <trkpt lat="46.90251" lon="5.69636">
        <ele>285.65</ele>
        <time>2022-07-13T09:22:26Z</time>
      </trkpt>
      <trkpt lat="46.90246" lon="5.69632">
        <ele>285.65</ele>
        <time>2022-07-13T09:22:27Z</time>
      </trkpt>
      <trkpt lat="46.90243" lon="5.69627">
        <ele>285.65</ele>
        <time>2022-07-13T09:22:28Z</time>
      </trkpt>
      <trkpt lat="46.90239" lon="5.69623">
        <ele>285.17</ele>
        <time>2022-07-13T09:22:29Z</time>
      </trkpt>
      <trkpt lat="46.90204" lon="5.6959">
        <ele>286.13</ele>
        <time>2022-07-13T09:22:41Z</time>
      </trkpt>
      <trkpt lat="46.9019" lon="5.69594">
        <ele>286.61</ele>
        <time>2022-07-13T09:22:45Z</time>
      </trkpt>
      <trkpt lat="46.90186" lon="5.69597">
        <ele>286.61</ele>
        <time>2022-07-13T09:22:46Z</time>
      </trkpt>
      <trkpt lat="46.90183" lon="5.69601">
        <ele>286.13</ele>
        <time>2022-07-13T09:22:47Z</time>
      </trkpt>
      <trkpt lat="46.90155" lon="5.69629">
        <ele>284.69</ele>
        <time>2022-07-13T09:22:54Z</time>
      </trkpt>
      <trkpt lat="46.90144" lon="5.69635">
        <ele>284.21</ele>
        <time>2022-07-13T09:22:56Z</time>
      </trkpt>
      <trkpt lat="46.90138" lon="5.69637">
        <ele>283.73</ele>
        <time>2022-07-13T09:22:57Z</time>
      </trkpt>
      <trkpt lat="46.90132" lon="5.69638">
        <ele>282.77</ele>
        <time>2022-07-13T09:22:58Z</time>
      </trkpt>
      <trkpt lat="46.90125" lon="5.69638">
        <ele>282.77</ele>
        <time>2022-07-13T09:22:59Z</time>
      </trkpt>
      <trkpt lat="46.90118" lon="5.69638">
        <ele>282.77</ele>
        <time>2022-07-13T09:23:00Z</time>
      </trkpt>
      <trkpt lat="46.90059" lon="5.69617">
        <ele>279.4</ele>
        <time>2022-07-13T09:23:08Z</time>
      </trkpt>
      <trkpt lat="46.90009" lon="5.69587">
        <ele>276.52</ele>
        <time>2022-07-13T09:23:14Z</time>
      </trkpt>
      <trkpt lat="46.90001" lon="5.69581">
        <ele>275.56</ele>
        <time>2022-07-13T09:23:15Z</time>
      </trkpt>
      <trkpt lat="46.89993" lon="5.69573">
        <ele>275.07</ele>
        <time>2022-07-13T09:23:16Z</time>
      </trkpt>
      <trkpt lat="46.89985" lon="5.69565">
        <ele>275.07</ele>
        <time>2022-07-13T09:23:17Z</time>
      </trkpt>
      <trkpt lat="46.89978" lon="5.69555">
        <ele>274.11</ele>
        <time>2022-07-13T09:23:18Z</time>
      </trkpt>
      <trkpt lat="46.89972" lon="5.69545">
        <ele>273.63</ele>
        <time>2022-07-13T09:23:19Z</time>
      </trkpt>
      <trkpt lat="46.89956" lon="5.6951">
        <ele>272.19</ele>
        <time>2022-07-13T09:23:22Z</time>
      </trkpt>
      <trkpt lat="46.89952" lon="5.69496">
        <ele>271.71</ele>
        <time>2022-07-13T09:23:23Z</time>
      </trkpt>
      <trkpt lat="46.89946" lon="5.69469">
        <ele>269.79</ele>
        <time>2022-07-13T09:23:25Z</time>
      </trkpt>
      <trkpt lat="46.89941" lon="5.69456">
        <ele>269.79</ele>
        <time>2022-07-13T09:23:26Z</time>
      </trkpt>
      <trkpt lat="46.89935" lon="5.69446">
        <ele>269.79</ele>
        <time>2022-07-13T09:23:27Z</time>
      </trkpt>
      <trkpt lat="46.89929" lon="5.69438">
        <ele>270.27</ele>
        <time>2022-07-13T09:23:28Z</time>
      </trkpt>
      <trkpt lat="46.89922" lon="5.69431">
        <ele>269.79</ele>
        <time>2022-07-13T09:23:29Z</time>
      </trkpt>
      <trkpt lat="46.89915" lon="5.69425">
        <ele>269.79</ele>
        <time>2022-07-13T09:23:30Z</time>
      </trkpt>
      <trkpt lat="46.89909" lon="5.6942">
        <ele>270.27</ele>
        <time>2022-07-13T09:23:31Z</time>
      </trkpt>
      <trkpt lat="46.89903" lon="5.69417">
        <ele>270.27</ele>
        <time>2022-07-13T09:23:32Z</time>
      </trkpt>
      <trkpt lat="46.89869" lon="5.694">
        <ele>271.23</ele>
        <time>2022-07-13T09:23:41Z</time>
      </trkpt>
      <trkpt lat="46.89836" lon="5.694">
        <ele>274.59</ele>
        <time>2022-07-13T09:23:56Z</time>
      </trkpt>
      <trkpt lat="46.89796" lon="5.69408">
        <ele>277</ele>
        <time>2022-07-13T09:24:15Z</time>
      </trkpt>
      <trkpt lat="46.89757" lon="5.69431">
        <ele>278.92</ele>
        <time>2022-07-13T09:24:35Z</time>
      </trkpt>
      <trkpt lat="46.89737" lon="5.69465">
        <ele>280.84</ele>
        <time>2022-07-13T09:24:49Z</time>
      </trkpt>
      <trkpt lat="46.89708" lon="5.69515">
        <ele>281.8</ele>
        <time>2022-07-13T09:25:11Z</time>
      </trkpt>
      <trkpt lat="46.89679" lon="5.69554">
        <ele>280.84</ele>
        <time>2022-07-13T09:25:25Z</time>
      </trkpt>
      <trkpt lat="46.8963" lon="5.6961">
        <ele>282.77</ele>
        <time>2022-07-13T09:25:43Z</time>
      </trkpt>
      <trkpt lat="46.89593" lon="5.69652">
        <ele>285.65</ele>
        <time>2022-07-13T09:26:01Z</time>
      </trkpt>
      <trkpt lat="46.89558" lon="5.69698">
        <ele>285.65</ele>
        <time>2022-07-13T09:26:18Z</time>
      </trkpt>
      <trkpt lat="46.89508" lon="5.69774">
        <ele>283.25</ele>
        <time>2022-07-13T09:26:32Z</time>
      </trkpt>
      <trkpt lat="46.89437" lon="5.69872">
        <ele>281.32</ele>
        <time>2022-07-13T09:26:50Z</time>
      </trkpt>
      <trkpt lat="46.89389" lon="5.69916">
        <ele>281.32</ele>
        <time>2022-07-13T09:27:05Z</time>
      </trkpt>
      <trkpt lat="46.89338" lon="5.69972">
        <ele>280.36</ele>
        <time>2022-07-13T09:27:22Z</time>
      </trkpt>
      <trkpt lat="46.89319" lon="5.69984">
        <ele>279.4</ele>
        <time>2022-07-13T09:27:26Z</time>
      </trkpt>
      <trkpt lat="46.89313" lon="5.69986">
        <ele>279.4</ele>
        <time>2022-07-13T09:27:27Z</time>
      </trkpt>
      <trkpt lat="46.89307" lon="5.69988">
        <ele>279.4</ele>
        <time>2022-07-13T09:27:28Z</time>
      </trkpt>
      <trkpt lat="46.89296" lon="5.6999">
        <ele>277.96</ele>
        <time>2022-07-13T09:27:30Z</time>
      </trkpt>
      <trkpt lat="46.89275" lon="5.69997">
        <ele>275.07</ele>
        <time>2022-07-13T09:27:34Z</time>
      </trkpt>
      <trkpt lat="46.8927" lon="5.69998">
        <ele>275.07</ele>
        <time>2022-07-13T09:27:35Z</time>
      </trkpt>
      <trkpt lat="46.89256" lon="5.69998">
        <ele>274.11</ele>
        <time>2022-07-13T09:27:38Z</time>
      </trkpt>
      <trkpt lat="46.89236" lon="5.69989">
        <ele>272.19</ele>
        <time>2022-07-13T09:27:47Z</time>
      </trkpt>
      <trkpt lat="46.89234" lon="5.69989">
        <ele>272.67</ele>
        <time>2022-07-13T09:27:48Z</time>
      </trkpt>
      <trkpt lat="46.89234" lon="5.69995">
        <ele>272.19</ele>
        <time>2022-07-13T09:27:56Z</time>
      </trkpt>
      <trkpt lat="46.89234" lon="5.69982">
        <ele>272.67</ele>
        <time>2022-07-13T09:28:24Z</time>
      </trkpt>
      <trkpt lat="46.8923" lon="5.69985">
        <ele>271.71</ele>
        <time>2022-07-13T09:28:53Z</time>
      </trkpt>
      <trkpt lat="46.89229" lon="5.69988">
        <ele>272.19</ele>
        <time>2022-07-13T09:28:59Z</time>
      </trkpt>
      <trkpt lat="46.89222" lon="5.69983">
        <ele>271.71</ele>
        <time>2022-07-13T09:29:06Z</time>
      </trkpt>
      <trkpt lat="46.89184" lon="5.69965">
        <ele>271.23</ele>
        <time>2022-07-13T09:29:20Z</time>
      </trkpt>
      <trkpt lat="46.89121" lon="5.69946">
        <ele>270.75</ele>
        <time>2022-07-13T09:29:37Z</time>
      </trkpt>
      <trkpt lat="46.89092" lon="5.69967">
        <ele>270.75</ele>
        <time>2022-07-13T09:29:47Z</time>
      </trkpt>
      <trkpt lat="46.89057" lon="5.70027">
        <ele>271.71</ele>
        <time>2022-07-13T09:30:03Z</time>
      </trkpt>
      <trkpt lat="46.89029" lon="5.70067">
        <ele>272.19</ele>
        <time>2022-07-13T09:30:16Z</time>
      </trkpt>
      <trkpt lat="46.89003" lon="5.70058">
        <ele>271.71</ele>
        <time>2022-07-13T09:30:27Z</time>
      </trkpt>
      <trkpt lat="46.8897" lon="5.69999">
        <ele>271.23</ele>
        <time>2022-07-13T09:30:43Z</time>
      </trkpt>
      <trkpt lat="46.88946" lon="5.69933">
        <ele>271.23</ele>
        <time>2022-07-13T09:30:58Z</time>
      </trkpt>
      <trkpt lat="46.88923" lon="5.69877">
        <ele>271.71</ele>
        <time>2022-07-13T09:31:12Z</time>
      </trkpt>
      <trkpt lat="46.88893" lon="5.6981">
        <ele>270.27</ele>
        <time>2022-07-13T09:31:27Z</time>
      </trkpt>
      <trkpt lat="46.88892" lon="5.69805">
        <ele>269.79</ele>
        <time>2022-07-13T09:31:28Z</time>
      </trkpt>
      <trkpt lat="46.8889" lon="5.698">
        <ele>269.79</ele>
        <time>2022-07-13T09:31:29Z</time>
      </trkpt>
      <trkpt lat="46.88889" lon="5.69795">
        <ele>269.79</ele>
        <time>2022-07-13T09:31:30Z</time>
      </trkpt>
      <trkpt lat="46.88889" lon="5.69789">
        <ele>270.27</ele>
        <time>2022-07-13T09:31:31Z</time>
      </trkpt>
      <trkpt lat="46.88889" lon="5.69784">
        <ele>269.79</ele>
        <time>2022-07-13T09:31:32Z</time>
      </trkpt>
      <trkpt lat="46.88889" lon="5.69778">
        <ele>269.79</ele>
        <time>2022-07-13T09:31:33Z</time>
      </trkpt>
      <trkpt lat="46.88889" lon="5.69773">
        <ele>270.27</ele>
        <time>2022-07-13T09:31:34Z</time>
      </trkpt>
      <trkpt lat="46.88904" lon="5.69711">
        <ele>271.23</ele>
        <time>2022-07-13T09:31:47Z</time>
      </trkpt>
      <trkpt lat="46.88923" lon="5.69663">
        <ele>273.15</ele>
        <time>2022-07-13T09:32:01Z</time>
      </trkpt>
      <trkpt lat="46.88908" lon="5.69599">
        <ele>273.63</ele>
        <time>2022-07-13T09:32:17Z</time>
      </trkpt>
      <trkpt lat="46.8888" lon="5.69549">
        <ele>274.11</ele>
        <time>2022-07-13T09:32:31Z</time>
      </trkpt>
      <trkpt lat="46.88835" lon="5.69488">
        <ele>274.59</ele>
        <time>2022-07-13T09:32:49Z</time>
      </trkpt>
      <trkpt lat="46.888" lon="5.69469">
        <ele>276.52</ele>
        <time>2022-07-13T09:33:03Z</time>
      </trkpt>
      <trkpt lat="46.88769" lon="5.69447">
        <ele>277.96</ele>
        <time>2022-07-13T09:33:18Z</time>
      </trkpt>
      <trkpt lat="46.8874" lon="5.69425">
        <ele>279.88</ele>
        <time>2022-07-13T09:33:32Z</time>
      </trkpt>
      <trkpt lat="46.88712" lon="5.69398">
        <ele>282.28</ele>
        <time>2022-07-13T09:33:47Z</time>
      </trkpt>
      <trkpt lat="46.88706" lon="5.6939">
        <ele>283.73</ele>
        <time>2022-07-13T09:33:52Z</time>
      </trkpt>
      <trkpt lat="46.88705" lon="5.69389">
        <ele>283.73</ele>
        <time>2022-07-13T09:33:53Z</time>
      </trkpt>
      <trkpt lat="46.88703" lon="5.69387">
        <ele>283.25</ele>
        <time>2022-07-13T09:33:54Z</time>
      </trkpt>
      <trkpt lat="46.88702" lon="5.69385">
        <ele>283.73</ele>
        <time>2022-07-13T09:33:55Z</time>
      </trkpt>
      <trkpt lat="46.88701" lon="5.69383">
        <ele>284.21</ele>
        <time>2022-07-13T09:33:56Z</time>
      </trkpt>
      <trkpt lat="46.887" lon="5.69381">
        <ele>284.21</ele>
        <time>2022-07-13T09:33:57Z</time>
      </trkpt>
      <trkpt lat="46.88674" lon="5.69349">
        <ele>287.09</ele>
        <time>2022-07-13T09:34:15Z</time>
      </trkpt>
      <trkpt lat="46.88634" lon="5.69326">
        <ele>290.46</ele>
        <time>2022-07-13T09:34:37Z</time>
      </trkpt>
      <trkpt lat="46.88606" lon="5.69314">
        <ele>291.9</ele>
        <time>2022-07-13T09:34:53Z</time>
      </trkpt>
      <trkpt lat="46.88567" lon="5.69316">
        <ele>292.86</ele>
        <time>2022-07-13T09:35:11Z</time>
      </trkpt>
      <trkpt lat="46.88528" lon="5.69342">
        <ele>294.78</ele>
        <time>2022-07-13T09:35:30Z</time>
      </trkpt>
      <trkpt lat="46.88492" lon="5.69382">
        <ele>297.67</ele>
        <time>2022-07-13T09:35:50Z</time>
      </trkpt>
      <trkpt lat="46.88464" lon="5.6941">
        <ele>300.55</ele>
        <time>2022-07-13T09:36:08Z</time>
      </trkpt>
      <trkpt lat="46.88429" lon="5.69423">
        <ele>301.99</ele>
        <time>2022-07-13T09:36:25Z</time>
      </trkpt>
      <trkpt lat="46.88386" lon="5.69449">
        <ele>300.55</ele>
        <time>2022-07-13T09:36:39Z</time>
      </trkpt>
      <trkpt lat="46.88341" lon="5.6946">
        <ele>300.07</ele>
        <time>2022-07-13T09:36:56Z</time>
      </trkpt>
      <trkpt lat="46.88284" lon="5.6946">
        <ele>297.67</ele>
        <time>2022-07-13T09:37:09Z</time>
      </trkpt>
      <trkpt lat="46.88217" lon="5.6947">
        <ele>296.22</ele>
        <time>2022-07-13T09:37:21Z</time>
      </trkpt>
      <trkpt lat="46.88212" lon="5.69471">
        <ele>296.22</ele>
        <time>2022-07-13T09:37:22Z</time>
      </trkpt>
      <trkpt lat="46.88207" lon="5.69472">
        <ele>296.7</ele>
        <time>2022-07-13T09:37:23Z</time>
      </trkpt>
      <trkpt lat="46.88202" lon="5.69473">
        <ele>296.7</ele>
        <time>2022-07-13T09:37:24Z</time>
      </trkpt>
      <trkpt lat="46.88197" lon="5.69473">
        <ele>296.22</ele>
        <time>2022-07-13T09:37:25Z</time>
      </trkpt>
      <trkpt lat="46.88097" lon="5.69493">
        <ele>295.74</ele>
        <time>2022-07-13T09:37:44Z</time>
      </trkpt>
      <trkpt lat="46.88092" lon="5.69491">
        <ele>295.74</ele>
        <time>2022-07-13T09:37:45Z</time>
      </trkpt>
      <trkpt lat="46.88087" lon="5.69489">
        <ele>295.74</ele>
        <time>2022-07-13T09:37:46Z</time>
      </trkpt>
      <trkpt lat="46.88082" lon="5.69486">
        <ele>295.74</ele>
        <time>2022-07-13T09:37:47Z</time>
      </trkpt>
      <trkpt lat="46.88077" lon="5.69482">
        <ele>296.22</ele>
        <time>2022-07-13T09:37:48Z</time>
      </trkpt>
      <trkpt lat="46.88073" lon="5.69477">
        <ele>296.22</ele>
        <time>2022-07-13T09:37:49Z</time>
      </trkpt>
      <trkpt lat="46.88069" lon="5.69473">
        <ele>296.7</ele>
        <time>2022-07-13T09:37:50Z</time>
      </trkpt>
      <trkpt lat="46.88009" lon="5.69395">
        <ele>297.18</ele>
        <time>2022-07-13T09:38:06Z</time>
      </trkpt>
      <trkpt lat="46.87944" lon="5.69339">
        <ele>298.63</ele>
        <time>2022-07-13T09:38:23Z</time>
      </trkpt>
      <trkpt lat="46.87903" lon="5.69309">
        <ele>297.18</ele>
        <time>2022-07-13T09:38:32Z</time>
      </trkpt>
      <trkpt lat="46.8782" lon="5.69253">
        <ele>293.82</ele>
        <time>2022-07-13T09:38:48Z</time>
      </trkpt>
      <trkpt lat="46.87796" lon="5.69224">
        <ele>292.38</ele>
        <time>2022-07-13T09:38:53Z</time>
      </trkpt>
      <trkpt lat="46.87792" lon="5.69215">
        <ele>291.9</ele>
        <time>2022-07-13T09:38:54Z</time>
      </trkpt>
      <trkpt lat="46.8777" lon="5.69139">
        <ele>287.57</ele>
        <time>2022-07-13T09:39:01Z</time>
      </trkpt>
      <trkpt lat="46.87753" lon="5.6909">
        <ele>285.65</ele>
        <time>2022-07-13T09:39:05Z</time>
      </trkpt>
      <trkpt lat="46.87747" lon="5.6908">
        <ele>285.65</ele>
        <time>2022-07-13T09:39:06Z</time>
      </trkpt>
      <trkpt lat="46.87741" lon="5.6907">
        <ele>286.13</ele>
        <time>2022-07-13T09:39:07Z</time>
      </trkpt>
      <trkpt lat="46.87734" lon="5.69062">
        <ele>285.65</ele>
        <time>2022-07-13T09:39:08Z</time>
      </trkpt>
      <trkpt lat="46.87727" lon="5.69057">
        <ele>285.17</ele>
        <time>2022-07-13T09:39:09Z</time>
      </trkpt>
      <trkpt lat="46.8772" lon="5.69052">
        <ele>286.13</ele>
        <time>2022-07-13T09:39:10Z</time>
      </trkpt>
      <trkpt lat="46.87713" lon="5.69049">
        <ele>286.61</ele>
        <time>2022-07-13T09:39:11Z</time>
      </trkpt>
      <trkpt lat="46.87707" lon="5.69047">
        <ele>286.13</ele>
        <time>2022-07-13T09:39:12Z</time>
      </trkpt>
      <trkpt lat="46.87701" lon="5.69045">
        <ele>286.13</ele>
        <time>2022-07-13T09:39:13Z</time>
      </trkpt>
      <trkpt lat="46.87696" lon="5.69044">
        <ele>286.61</ele>
        <time>2022-07-13T09:39:14Z</time>
      </trkpt>
      <trkpt lat="46.87691" lon="5.69044">
        <ele>287.09</ele>
        <time>2022-07-13T09:39:15Z</time>
      </trkpt>
      <trkpt lat="46.87658" lon="5.69045">
        <ele>288.53</ele>
        <time>2022-07-13T09:39:26Z</time>
      </trkpt>
      <trkpt lat="46.87649" lon="5.69047">
        <ele>289.49</ele>
        <time>2022-07-13T09:39:31Z</time>
      </trkpt>
      <trkpt lat="46.87625" lon="5.69065">
        <ele>291.42</ele>
        <time>2022-07-13T09:39:46Z</time>
      </trkpt>
      <trkpt lat="46.87598" lon="5.69098">
        <ele>294.3</ele>
        <time>2022-07-13T09:40:04Z</time>
      </trkpt>
      <trkpt lat="46.87575" lon="5.69125">
        <ele>296.22</ele>
        <time>2022-07-13T09:40:19Z</time>
      </trkpt>
      <trkpt lat="46.8755" lon="5.69159">
        <ele>298.15</ele>
        <time>2022-07-13T09:40:38Z</time>
      </trkpt>
      <trkpt lat="46.87528" lon="5.69187">
        <ele>300.55</ele>
        <time>2022-07-13T09:40:54Z</time>
      </trkpt>
      <trkpt lat="46.87498" lon="5.69214">
        <ele>302.47</ele>
        <time>2022-07-13T09:41:12Z</time>
      </trkpt>
      <trkpt lat="46.87456" lon="5.69228">
        <ele>303.91</ele>
        <time>2022-07-13T09:41:28Z</time>
      </trkpt>
      <trkpt lat="46.87436" lon="5.6923">
        <ele>304.88</ele>
        <time>2022-07-13T09:41:39Z</time>
      </trkpt>
      <trkpt lat="46.87434" lon="5.6923">
        <ele>304.39</ele>
        <time>2022-07-13T09:41:58Z</time>
      </trkpt>
      <trkpt lat="46.87431" lon="5.69231">
        <ele>304.39</ele>
        <time>2022-07-13T09:42:27Z</time>
      </trkpt>
      <trkpt lat="46.87431" lon="5.69229">
        <ele>304.39</ele>
        <time>2022-07-13T09:43:01Z</time>
      </trkpt>
      <trkpt lat="46.87431" lon="5.69229">
        <ele>304.88</ele>
        <time>2022-07-13T09:43:36Z</time>
      </trkpt>
      <trkpt lat="46.87431" lon="5.69223">
        <ele>304.88</ele>
        <time>2022-07-13T09:43:48Z</time>
      </trkpt>
      <trkpt lat="46.87428" lon="5.69217">
        <ele>305.36</ele>
        <time>2022-07-13T09:43:51Z</time>
      </trkpt>
      <trkpt lat="46.87426" lon="5.69216">
        <ele>305.84</ele>
        <time>2022-07-13T09:43:52Z</time>
      </trkpt>
      <trkpt lat="46.87388" lon="5.69201">
        <ele>306.8</ele>
        <time>2022-07-13T09:44:09Z</time>
      </trkpt>
      <trkpt lat="46.87377" lon="5.69205">
        <ele>307.28</ele>
        <time>2022-07-13T09:44:14Z</time>
      </trkpt>
      <trkpt lat="46.87376" lon="5.69208">
        <ele>307.28</ele>
        <time>2022-07-13T09:44:15Z</time>
      </trkpt>
      <trkpt lat="46.87375" lon="5.6921">
        <ele>307.76</ele>
        <time>2022-07-13T09:44:16Z</time>
      </trkpt>
      <trkpt lat="46.87374" lon="5.69213">
        <ele>307.76</ele>
        <time>2022-07-13T09:44:17Z</time>
      </trkpt>
      <trkpt lat="46.87373" lon="5.69216">
        <ele>307.76</ele>
        <time>2022-07-13T09:44:18Z</time>
      </trkpt>
      <trkpt lat="46.87372" lon="5.69218">
        <ele>308.24</ele>
        <time>2022-07-13T09:44:19Z</time>
      </trkpt>
      <trkpt lat="46.87371" lon="5.69221">
        <ele>307.76</ele>
        <time>2022-07-13T09:44:20Z</time>
      </trkpt>
      <trkpt lat="46.8737" lon="5.69224">
        <ele>308.24</ele>
        <time>2022-07-13T09:44:21Z</time>
      </trkpt>
      <trkpt lat="46.87369" lon="5.69227">
        <ele>308.24</ele>
        <time>2022-07-13T09:44:22Z</time>
      </trkpt>
      <trkpt lat="46.87357" lon="5.69279">
        <ele>309.2</ele>
        <time>2022-07-13T09:44:37Z</time>
      </trkpt>
      <trkpt lat="46.87334" lon="5.69325">
        <ele>310.64</ele>
        <time>2022-07-13T09:44:53Z</time>
      </trkpt>
      <trkpt lat="46.87314" lon="5.69378">
        <ele>311.6</ele>
        <time>2022-07-13T09:45:10Z</time>
      </trkpt>
      <trkpt lat="46.87308" lon="5.6939">
        <ele>311.12</ele>
        <time>2022-07-13T09:45:16Z</time>
      </trkpt>
      <trkpt lat="46.87307" lon="5.69391">
        <ele>311.6</ele>
        <time>2022-07-13T09:45:17Z</time>
      </trkpt>
      <trkpt lat="46.87277" lon="5.69378">
        <ele>311.12</ele>
        <time>2022-07-13T09:45:29Z</time>
      </trkpt>
      <trkpt lat="46.87227" lon="5.69353">
        <ele>310.64</ele>
        <time>2022-07-13T09:45:44Z</time>
      </trkpt>
      <trkpt lat="46.87156" lon="5.69335">
        <ele>309.68</ele>
        <time>2022-07-13T09:46:02Z</time>
      </trkpt>
      <trkpt lat="46.871" lon="5.69337">
        <ele>308.24</ele>
        <time>2022-07-13T09:46:16Z</time>
      </trkpt>
      <trkpt lat="46.87076" lon="5.69324">
        <ele>307.28</ele>
        <time>2022-07-13T09:46:22Z</time>
      </trkpt>
      <trkpt lat="46.87059" lon="5.69312">
        <ele>306.32</ele>
        <time>2022-07-13T09:46:31Z</time>
      </trkpt>
      <trkpt lat="46.87056" lon="5.6931">
        <ele>306.32</ele>
        <time>2022-07-13T09:46:58Z</time>
      </trkpt>
      <trkpt lat="46.87055" lon="5.6931">
        <ele>306.32</ele>
        <time>2022-07-13T09:46:59Z</time>
      </trkpt>
      <trkpt lat="46.87025" lon="5.69287">
        <ele>304.88</ele>
        <time>2022-07-13T09:47:10Z</time>
      </trkpt>
      <trkpt lat="46.87014" lon="5.69278">
        <ele>304.88</ele>
        <time>2022-07-13T09:47:13Z</time>
      </trkpt>
      <trkpt lat="46.8701" lon="5.69275">
        <ele>303.91</ele>
        <time>2022-07-13T09:47:14Z</time>
      </trkpt>
      <trkpt lat="46.87006" lon="5.69272">
        <ele>303.91</ele>
        <time>2022-07-13T09:47:15Z</time>
      </trkpt>
      <trkpt lat="46.86994" lon="5.69262">
        <ele>302.95</ele>
        <time>2022-07-13T09:47:18Z</time>
      </trkpt>
      <trkpt lat="46.8698" lon="5.69253">
        <ele>302.47</ele>
        <time>2022-07-13T09:47:21Z</time>
      </trkpt>
      <trkpt lat="46.86975" lon="5.69252">
        <ele>301.99</ele>
        <time>2022-07-13T09:47:22Z</time>
      </trkpt>
      <trkpt lat="46.86942" lon="5.6925">
        <ele>301.51</ele>
        <time>2022-07-13T09:47:29Z</time>
      </trkpt>
      <trkpt lat="46.86938" lon="5.6925">
        <ele>301.51</ele>
        <time>2022-07-13T09:47:30Z</time>
      </trkpt>
      <trkpt lat="46.86934" lon="5.69249">
        <ele>301.03</ele>
        <time>2022-07-13T09:47:31Z</time>
      </trkpt>
      <trkpt lat="46.86904" lon="5.69251">
        <ele>301.99</ele>
        <time>2022-07-13T09:47:44Z</time>
      </trkpt>
      <trkpt lat="46.8688" lon="5.69252">
        <ele>303.43</ele>
        <time>2022-07-13T09:48:00Z</time>
      </trkpt>
      <trkpt lat="46.86849" lon="5.69254">
        <ele>303.91</ele>
        <time>2022-07-13T09:48:15Z</time>
      </trkpt>
      <trkpt lat="46.86819" lon="5.69257">
        <ele>304.39</ele>
        <time>2022-07-13T09:48:27Z</time>
      </trkpt>
      <trkpt lat="46.86786" lon="5.69264">
        <ele>305.36</ele>
        <time>2022-07-13T09:48:40Z</time>
      </trkpt>
      <trkpt lat="46.86747" lon="5.69271">
        <ele>306.32</ele>
        <time>2022-07-13T09:48:57Z</time>
      </trkpt>
      <trkpt lat="46.86708" lon="5.69276">
        <ele>306.8</ele>
        <time>2022-07-13T09:49:11Z</time>
      </trkpt>
      <trkpt lat="46.8666" lon="5.69281">
        <ele>305.84</ele>
        <time>2022-07-13T09:49:26Z</time>
      </trkpt>
      <trkpt lat="46.86634" lon="5.69282">
        <ele>304.88</ele>
        <time>2022-07-13T09:49:33Z</time>
      </trkpt>
      <trkpt lat="46.86579" lon="5.69285">
        <ele>304.88</ele>
        <time>2022-07-13T09:49:47Z</time>
      </trkpt>
      <trkpt lat="46.86519" lon="5.69294">
        <ele>304.39</ele>
        <time>2022-07-13T09:50:02Z</time>
      </trkpt>
      <trkpt lat="46.86466" lon="5.69299">
        <ele>304.88</ele>
        <time>2022-07-13T09:50:18Z</time>
      </trkpt>
      <trkpt lat="46.86405" lon="5.69305">
        <ele>303.91</ele>
        <time>2022-07-13T09:50:33Z</time>
      </trkpt>
      <trkpt lat="46.86346" lon="5.6931">
        <ele>303.91</ele>
        <time>2022-07-13T09:50:48Z</time>
      </trkpt>
      <trkpt lat="46.86281" lon="5.69318">
        <ele>305.36</ele>
        <time>2022-07-13T09:51:06Z</time>
      </trkpt>
      <trkpt lat="46.86272" lon="5.6932">
        <ele>304.39</ele>
        <time>2022-07-13T09:51:08Z</time>
      </trkpt>
      <trkpt lat="46.86268" lon="5.69321">
        <ele>304.88</ele>
        <time>2022-07-13T09:51:09Z</time>
      </trkpt>
      <trkpt lat="46.8626" lon="5.69322">
        <ele>304.39</ele>
        <time>2022-07-13T09:51:11Z</time>
      </trkpt>
      <trkpt lat="46.86256" lon="5.69322">
        <ele>304.88</ele>
        <time>2022-07-13T09:51:12Z</time>
      </trkpt>
      <trkpt lat="46.8619" lon="5.69331">
        <ele>303.43</ele>
        <time>2022-07-13T09:51:29Z</time>
      </trkpt>
      <trkpt lat="46.8613" lon="5.69337">
        <ele>302.47</ele>
        <time>2022-07-13T09:51:50Z</time>
      </trkpt>
      <trkpt lat="46.86087" lon="5.69343">
        <ele>302.47</ele>
        <time>2022-07-13T09:52:01Z</time>
      </trkpt>
      <trkpt lat="46.86082" lon="5.69344">
        <ele>301.99</ele>
        <time>2022-07-13T09:52:02Z</time>
      </trkpt>
      <trkpt lat="46.86017" lon="5.69349">
        <ele>301.99</ele>
        <time>2022-07-13T09:52:19Z</time>
      </trkpt>
      <trkpt lat="46.85959" lon="5.69353">
        <ele>302.95</ele>
        <time>2022-07-13T09:52:35Z</time>
      </trkpt>
      <trkpt lat="46.859" lon="5.69371">
        <ele>302.95</ele>
        <time>2022-07-13T09:52:49Z</time>
      </trkpt>
      <trkpt lat="46.85873" lon="5.694">
        <ele>304.88</ele>
        <time>2022-07-13T09:53:02Z</time>
      </trkpt>
      <trkpt lat="46.85849" lon="5.69384">
        <ele>305.36</ele>
        <time>2022-07-13T09:53:14Z</time>
      </trkpt>
      <trkpt lat="46.85813" lon="5.69372">
        <ele>306.32</ele>
        <time>2022-07-13T09:53:29Z</time>
      </trkpt>
      <trkpt lat="46.85774" lon="5.69373">
        <ele>307.28</ele>
        <time>2022-07-13T09:53:45Z</time>
      </trkpt>
      <trkpt lat="46.85738" lon="5.69385">
        <ele>308.72</ele>
        <time>2022-07-13T09:54:00Z</time>
      </trkpt>
      <trkpt lat="46.85709" lon="5.69416">
        <ele>310.16</ele>
        <time>2022-07-13T09:54:16Z</time>
      </trkpt>
      <trkpt lat="46.85708" lon="5.69418">
        <ele>310.16</ele>
        <time>2022-07-13T09:54:30Z</time>
      </trkpt>
      <trkpt lat="46.85707" lon="5.69418">
        <ele>310.16</ele>
        <time>2022-07-13T09:54:31Z</time>
      </trkpt>
      <trkpt lat="46.85706" lon="5.69419">
        <ele>310.64</ele>
        <time>2022-07-13T09:54:32Z</time>
      </trkpt>
      <trkpt lat="46.85704" lon="5.6942">
        <ele>311.12</ele>
        <time>2022-07-13T09:54:33Z</time>
      </trkpt>
      <trkpt lat="46.85702" lon="5.69421">
        <ele>310.64</ele>
        <time>2022-07-13T09:54:34Z</time>
      </trkpt>
      <trkpt lat="46.857" lon="5.69422">
        <ele>310.64</ele>
        <time>2022-07-13T09:54:35Z</time>
      </trkpt>
      <trkpt lat="46.85697" lon="5.69424">
        <ele>311.12</ele>
        <time>2022-07-13T09:54:36Z</time>
      </trkpt>
      <trkpt lat="46.85695" lon="5.69425">
        <ele>311.12</ele>
        <time>2022-07-13T09:54:37Z</time>
      </trkpt>
      <trkpt lat="46.85653" lon="5.6943">
        <ele>312.57</ele>
        <time>2022-07-13T09:54:54Z</time>
      </trkpt>
      <trkpt lat="46.85606" lon="5.69448">
        <ele>310.64</ele>
        <time>2022-07-13T09:55:08Z</time>
      </trkpt>
      <trkpt lat="46.85568" lon="5.6948">
        <ele>308.24</ele>
        <time>2022-07-13T09:55:15Z</time>
      </trkpt>
      <trkpt lat="46.85548" lon="5.69501">
        <ele>305.84</ele>
        <time>2022-07-13T09:55:20Z</time>
      </trkpt>
      <trkpt lat="46.85544" lon="5.69504">
        <ele>305.84</ele>
        <time>2022-07-13T09:55:21Z</time>
      </trkpt>
      <trkpt lat="46.85541" lon="5.69508">
        <ele>305.36</ele>
        <time>2022-07-13T09:55:22Z</time>
      </trkpt>
      <trkpt lat="46.85539" lon="5.69511">
        <ele>305.36</ele>
        <time>2022-07-13T09:55:23Z</time>
      </trkpt>
      <trkpt lat="46.85536" lon="5.69513">
        <ele>305.84</ele>
        <time>2022-07-13T09:55:24Z</time>
      </trkpt>
      <trkpt lat="46.85534" lon="5.69516">
        <ele>304.88</ele>
        <time>2022-07-13T09:55:25Z</time>
      </trkpt>
      <trkpt lat="46.85531" lon="5.69518">
        <ele>304.39</ele>
        <time>2022-07-13T09:55:26Z</time>
      </trkpt>
      <trkpt lat="46.85529" lon="5.6952">
        <ele>304.39</ele>
        <time>2022-07-13T09:55:27Z</time>
      </trkpt>
      <trkpt lat="46.85527" lon="5.69523">
        <ele>303.91</ele>
        <time>2022-07-13T09:55:28Z</time>
      </trkpt>
      <trkpt lat="46.85525" lon="5.69526">
        <ele>303.91</ele>
        <time>2022-07-13T09:55:29Z</time>
      </trkpt>
      <trkpt lat="46.85522" lon="5.69529">
        <ele>303.43</ele>
        <time>2022-07-13T09:55:30Z</time>
      </trkpt>
      <trkpt lat="46.85515" lon="5.69535">
        <ele>302.95</ele>
        <time>2022-07-13T09:55:32Z</time>
      </trkpt>
      <trkpt lat="46.85511" lon="5.69537">
        <ele>301.99</ele>
        <time>2022-07-13T09:55:33Z</time>
      </trkpt>
      <trkpt lat="46.85505" lon="5.69538">
        <ele>301.03</ele>
        <time>2022-07-13T09:55:34Z</time>
      </trkpt>
      <trkpt lat="46.855" lon="5.69538">
        <ele>300.55</ele>
        <time>2022-07-13T09:55:35Z</time>
      </trkpt>
      <trkpt lat="46.85496" lon="5.69538">
        <ele>299.59</ele>
        <time>2022-07-13T09:55:36Z</time>
      </trkpt>
      <trkpt lat="46.85491" lon="5.69538">
        <ele>299.59</ele>
        <time>2022-07-13T09:55:37Z</time>
      </trkpt>
      <trkpt lat="46.85476" lon="5.69537">
        <ele>297.18</ele>
        <time>2022-07-13T09:55:41Z</time>
      </trkpt>
      <trkpt lat="46.85458" lon="5.69547">
        <ele>295.26</ele>
        <time>2022-07-13T09:55:50Z</time>
      </trkpt>
      <trkpt lat="46.85438" lon="5.69566">
        <ele>295.74</ele>
        <time>2022-07-13T09:56:02Z</time>
      </trkpt>
      <trkpt lat="46.85415" lon="5.6959">
        <ele>296.7</ele>
        <time>2022-07-13T09:56:17Z</time>
      </trkpt>
      <trkpt lat="46.85384" lon="5.69619">
        <ele>295.74</ele>
        <time>2022-07-13T09:56:33Z</time>
      </trkpt>
      <trkpt lat="46.85343" lon="5.69657">
        <ele>297.18</ele>
        <time>2022-07-13T09:56:53Z</time>
      </trkpt>
      <trkpt lat="46.85313" lon="5.69684">
        <ele>298.15</ele>
        <time>2022-07-13T09:57:09Z</time>
      </trkpt>
      <trkpt lat="46.85285" lon="5.6971">
        <ele>299.59</ele>
        <time>2022-07-13T09:57:25Z</time>
      </trkpt>
      <trkpt lat="46.85256" lon="5.69737">
        <ele>301.99</ele>
        <time>2022-07-13T09:57:43Z</time>
      </trkpt>
      <trkpt lat="46.85239" lon="5.69759">
        <ele>303.43</ele>
        <time>2022-07-13T09:58:00Z</time>
      </trkpt>
      <trkpt lat="46.85214" lon="5.69786">
        <ele>303.91</ele>
        <time>2022-07-13T09:58:16Z</time>
      </trkpt>
      <trkpt lat="46.85182" lon="5.69812">
        <ele>303.43</ele>
        <time>2022-07-13T09:58:30Z</time>
      </trkpt>
      <trkpt lat="46.85143" lon="5.69846">
        <ele>301.99</ele>
        <time>2022-07-13T09:58:43Z</time>
      </trkpt>
      <trkpt lat="46.85094" lon="5.69893">
        <ele>300.07</ele>
        <time>2022-07-13T09:59:01Z</time>
      </trkpt>
      <trkpt lat="46.85075" lon="5.69913">
        <ele>299.11</ele>
        <time>2022-07-13T09:59:11Z</time>
      </trkpt>
      <trkpt lat="46.85071" lon="5.69916">
        <ele>299.11</ele>
        <time>2022-07-13T09:59:12Z</time>
      </trkpt>
      <trkpt lat="46.85067" lon="5.69919">
        <ele>298.15</ele>
        <time>2022-07-13T09:59:13Z</time>
      </trkpt>
      <trkpt lat="46.85" lon="5.69988">
        <ele>295.74</ele>
        <time>2022-07-13T09:59:27Z</time>
      </trkpt>
      <trkpt lat="46.84928" lon="5.70045">
        <ele>295.26</ele>
        <time>2022-07-13T09:59:42Z</time>
      </trkpt>
      <trkpt lat="46.84863" lon="5.70083">
        <ele>296.22</ele>
        <time>2022-07-13T09:59:58Z</time>
      </trkpt>
      <trkpt lat="46.84805" lon="5.70102">
        <ele>297.67</ele>
        <time>2022-07-13T10:00:14Z</time>
      </trkpt>
      <trkpt lat="46.84754" lon="5.70133">
        <ele>298.15</ele>
        <time>2022-07-13T10:00:29Z</time>
      </trkpt>
      <trkpt lat="46.84729" lon="5.70222">
        <ele>299.11</ele>
        <time>2022-07-13T10:00:48Z</time>
      </trkpt>
      <trkpt lat="46.84698" lon="5.70299">
        <ele>300.07</ele>
        <time>2022-07-13T10:01:07Z</time>
      </trkpt>
      <trkpt lat="46.84672" lon="5.70355">
        <ele>301.03</ele>
        <time>2022-07-13T10:01:21Z</time>
      </trkpt>
      <trkpt lat="46.84665" lon="5.7037">
        <ele>301.51</ele>
        <time>2022-07-13T10:01:32Z</time>
      </trkpt>
      <trkpt lat="46.84667" lon="5.70372">
        <ele>301.99</ele>
        <time>2022-07-13T10:02:02Z</time>
      </trkpt>
      <trkpt lat="46.84666" lon="5.70373">
        <ele>301.51</ele>
        <time>2022-07-13T10:02:04Z</time>
      </trkpt>
      <trkpt lat="46.84665" lon="5.70374">
        <ele>302.47</ele>
        <time>2022-07-13T10:02:05Z</time>
      </trkpt>
      <trkpt lat="46.84664" lon="5.70376">
        <ele>301.99</ele>
        <time>2022-07-13T10:02:06Z</time>
      </trkpt>
      <trkpt lat="46.84663" lon="5.7038">
        <ele>302.47</ele>
        <time>2022-07-13T10:02:07Z</time>
      </trkpt>
      <trkpt lat="46.84663" lon="5.70384">
        <ele>302.47</ele>
        <time>2022-07-13T10:02:08Z</time>
      </trkpt>
      <trkpt lat="46.84662" lon="5.70388">
        <ele>302.47</ele>
        <time>2022-07-13T10:02:09Z</time>
      </trkpt>
      <trkpt lat="46.8466" lon="5.70393">
        <ele>302.47</ele>
        <time>2022-07-13T10:02:10Z</time>
      </trkpt>
      <trkpt lat="46.84659" lon="5.70398">
        <ele>301.99</ele>
        <time>2022-07-13T10:02:11Z</time>
      </trkpt>
      <trkpt lat="46.84657" lon="5.70403">
        <ele>301.99</ele>
        <time>2022-07-13T10:02:12Z</time>
      </trkpt>
      <trkpt lat="46.84655" lon="5.70409">
        <ele>301.99</ele>
        <time>2022-07-13T10:02:13Z</time>
      </trkpt>
      <trkpt lat="46.84652" lon="5.7042">
        <ele>302.47</ele>
        <time>2022-07-13T10:02:15Z</time>
      </trkpt>
      <trkpt lat="46.84641" lon="5.70478">
        <ele>303.43</ele>
        <time>2022-07-13T10:02:27Z</time>
      </trkpt>
      <trkpt lat="46.84621" lon="5.70497">
        <ele>304.39</ele>
        <time>2022-07-13T10:02:38Z</time>
      </trkpt>
      <trkpt lat="46.84619" lon="5.70499">
        <ele>304.39</ele>
        <time>2022-07-13T10:02:39Z</time>
      </trkpt>
      <trkpt lat="46.84617" lon="5.70502">
        <ele>304.39</ele>
        <time>2022-07-13T10:02:40Z</time>
      </trkpt>
      <trkpt lat="46.84616" lon="5.70506">
        <ele>304.88</ele>
        <time>2022-07-13T10:02:41Z</time>
      </trkpt>
      <trkpt lat="46.84591" lon="5.70555">
        <ele>303.91</ele>
        <time>2022-07-13T10:02:54Z</time>
      </trkpt>
      <trkpt lat="46.84548" lon="5.70584">
        <ele>305.36</ele>
        <time>2022-07-13T10:03:10Z</time>
      </trkpt>
      <trkpt lat="46.84508" lon="5.70623">
        <ele>306.8</ele>
        <time>2022-07-13T10:03:25Z</time>
      </trkpt>
      <trkpt lat="46.84466" lon="5.70667">
        <ele>307.28</ele>
        <time>2022-07-13T10:03:41Z</time>
      </trkpt>
      <trkpt lat="46.84412" lon="5.70698">
        <ele>308.72</ele>
        <time>2022-07-13T10:04:00Z</time>
      </trkpt>
      <trkpt lat="46.84383" lon="5.70731">
        <ele>310.64</ele>
        <time>2022-07-13T10:04:14Z</time>
      </trkpt>
      <trkpt lat="46.84353" lon="5.70766">
        <ele>312.09</ele>
        <time>2022-07-13T10:04:30Z</time>
      </trkpt>
      <trkpt lat="46.8432" lon="5.70804">
        <ele>314.01</ele>
        <time>2022-07-13T10:04:48Z</time>
      </trkpt>
      <trkpt lat="46.84289" lon="5.70838">
        <ele>315.45</ele>
        <time>2022-07-13T10:05:04Z</time>
      </trkpt>
      <trkpt lat="46.84251" lon="5.70873">
        <ele>317.85</ele>
        <time>2022-07-13T10:05:22Z</time>
      </trkpt>
      <trkpt lat="46.84217" lon="5.70883">
        <ele>318.33</ele>
        <time>2022-07-13T10:05:36Z</time>
      </trkpt>
      <trkpt lat="46.84173" lon="5.7088">
        <ele>318.33</ele>
        <time>2022-07-13T10:05:51Z</time>
      </trkpt>
      <trkpt lat="46.84134" lon="5.70884">
        <ele>318.33</ele>
        <time>2022-07-13T10:06:05Z</time>
      </trkpt>
      <trkpt lat="46.84101" lon="5.70901">
        <ele>319.3</ele>
        <time>2022-07-13T10:06:20Z</time>
      </trkpt>
      <trkpt lat="46.84099" lon="5.70902">
        <ele>318.81</ele>
        <time>2022-07-13T10:06:21Z</time>
      </trkpt>
      <trkpt lat="46.84097" lon="5.70903">
        <ele>319.78</ele>
        <time>2022-07-13T10:06:22Z</time>
      </trkpt>
      <trkpt lat="46.8407" lon="5.70927">
        <ele>320.26</ele>
        <time>2022-07-13T10:06:34Z</time>
      </trkpt>
      <trkpt lat="46.84069" lon="5.70928">
        <ele>319.78</ele>
        <time>2022-07-13T10:06:35Z</time>
      </trkpt>
      <trkpt lat="46.84067" lon="5.70929">
        <ele>320.26</ele>
        <time>2022-07-13T10:06:36Z</time>
      </trkpt>
      <trkpt lat="46.84065" lon="5.70929">
        <ele>320.74</ele>
        <time>2022-07-13T10:06:37Z</time>
      </trkpt>
      <trkpt lat="46.84064" lon="5.70929">
        <ele>320.26</ele>
        <time>2022-07-13T10:06:38Z</time>
      </trkpt>
      <trkpt lat="46.84062" lon="5.70929">
        <ele>320.74</ele>
        <time>2022-07-13T10:06:39Z</time>
      </trkpt>
      <trkpt lat="46.8406" lon="5.7093">
        <ele>320.74</ele>
        <time>2022-07-13T10:06:40Z</time>
      </trkpt>
      <trkpt lat="46.84058" lon="5.7093">
        <ele>320.26</ele>
        <time>2022-07-13T10:06:41Z</time>
      </trkpt>
      <trkpt lat="46.84057" lon="5.7093">
        <ele>319.78</ele>
        <time>2022-07-13T10:06:42Z</time>
      </trkpt>
      <trkpt lat="46.84055" lon="5.7093">
        <ele>320.74</ele>
        <time>2022-07-13T10:06:43Z</time>
      </trkpt>
      <trkpt lat="46.84054" lon="5.70931">
        <ele>320.74</ele>
        <time>2022-07-13T10:06:44Z</time>
      </trkpt>
      <trkpt lat="46.84053" lon="5.70932">
        <ele>320.74</ele>
        <time>2022-07-13T10:06:45Z</time>
      </trkpt>
      <trkpt lat="46.84052" lon="5.70933">
        <ele>321.22</ele>
        <time>2022-07-13T10:06:46Z</time>
      </trkpt>
      <trkpt lat="46.84051" lon="5.70934">
        <ele>321.22</ele>
        <time>2022-07-13T10:06:47Z</time>
      </trkpt>
      <trkpt lat="46.84049" lon="5.70935">
        <ele>321.22</ele>
        <time>2022-07-13T10:06:48Z</time>
      </trkpt>
      <trkpt lat="46.84031" lon="5.70958">
        <ele>322.18</ele>
        <time>2022-07-13T10:07:00Z</time>
      </trkpt>
      <trkpt lat="46.84024" lon="5.70979">
        <ele>323.14</ele>
        <time>2022-07-13T10:07:09Z</time>
      </trkpt>
      <trkpt lat="46.83995" lon="5.70972">
        <ele>322.66</ele>
        <time>2022-07-13T10:07:19Z</time>
      </trkpt>
      <trkpt lat="46.83973" lon="5.70948">
        <ele>324.58</ele>
        <time>2022-07-13T10:07:32Z</time>
      </trkpt>
      <trkpt lat="46.83935" lon="5.70928">
        <ele>326.02</ele>
        <time>2022-07-13T10:07:46Z</time>
      </trkpt>
      <trkpt lat="46.83929" lon="5.70928">
        <ele>326.02</ele>
        <time>2022-07-13T10:07:51Z</time>
      </trkpt>
      <trkpt lat="46.83928" lon="5.70927">
        <ele>326.99</ele>
        <time>2022-07-13T10:07:52Z</time>
      </trkpt>
      <trkpt lat="46.83927" lon="5.70925">
        <ele>326.5</ele>
        <time>2022-07-13T10:07:53Z</time>
      </trkpt>
      <trkpt lat="46.83925" lon="5.70923">
        <ele>326.5</ele>
        <time>2022-07-13T10:07:54Z</time>
      </trkpt>
      <trkpt lat="46.83923" lon="5.70923">
        <ele>326.5</ele>
        <time>2022-07-13T10:07:55Z</time>
      </trkpt>
      <trkpt lat="46.83929" lon="5.70929">
        <ele>326.5</ele>
        <time>2022-07-13T10:08:09Z</time>
      </trkpt>
      <trkpt lat="46.83925" lon="5.70932">
        <ele>326.99</ele>
        <time>2022-07-13T10:08:36Z</time>
      </trkpt>
      <trkpt lat="46.83925" lon="5.7093">
        <ele>326.5</ele>
        <time>2022-07-13T10:08:53Z</time>
      </trkpt>
      <trkpt lat="46.83926" lon="5.7093">
        <ele>326.99</ele>
        <time>2022-07-13T10:09:06Z</time>
      </trkpt>
      <trkpt lat="46.83921" lon="5.70936">
        <ele>326.99</ele>
        <time>2022-07-13T10:09:19Z</time>
      </trkpt>
      <trkpt lat="46.83914" lon="5.70944">
        <ele>327.95</ele>
        <time>2022-07-13T10:09:27Z</time>
      </trkpt>
      <trkpt lat="46.83885" lon="5.70953">
        <ele>329.39</ele>
        <time>2022-07-13T10:09:39Z</time>
      </trkpt>
      <trkpt lat="46.83842" lon="5.70945">
        <ele>330.35</ele>
        <time>2022-07-13T10:09:55Z</time>
      </trkpt>
      <trkpt lat="46.83808" lon="5.70937">
        <ele>331.31</ele>
        <time>2022-07-13T10:10:08Z</time>
      </trkpt>
      <trkpt lat="46.83786" lon="5.7092">
        <ele>332.27</ele>
        <time>2022-07-13T10:10:19Z</time>
      </trkpt>
      <trkpt lat="46.83777" lon="5.70917">
        <ele>332.75</ele>
        <time>2022-07-13T10:10:27Z</time>
      </trkpt>
      <trkpt lat="46.83772" lon="5.70915">
        <ele>333.23</ele>
        <time>2022-07-13T10:10:31Z</time>
      </trkpt>
      <trkpt lat="46.83766" lon="5.70914">
        <ele>333.71</ele>
        <time>2022-07-13T10:10:35Z</time>
      </trkpt>
      <trkpt lat="46.83764" lon="5.70913">
        <ele>334.2</ele>
        <time>2022-07-13T10:10:36Z</time>
      </trkpt>
      <trkpt lat="46.83763" lon="5.70913">
        <ele>333.71</ele>
        <time>2022-07-13T10:10:37Z</time>
      </trkpt>
      <trkpt lat="46.83762" lon="5.70913">
        <ele>334.2</ele>
        <time>2022-07-13T10:10:38Z</time>
      </trkpt>
      <trkpt lat="46.8376" lon="5.70912">
        <ele>333.71</ele>
        <time>2022-07-13T10:10:39Z</time>
      </trkpt>
      <trkpt lat="46.83758" lon="5.70912">
        <ele>333.71</ele>
        <time>2022-07-13T10:10:40Z</time>
      </trkpt>
      <trkpt lat="46.83755" lon="5.70911">
        <ele>334.2</ele>
        <time>2022-07-13T10:10:41Z</time>
      </trkpt>
      <trkpt lat="46.83753" lon="5.70911">
        <ele>334.68</ele>
        <time>2022-07-13T10:10:42Z</time>
      </trkpt>
      <trkpt lat="46.83751" lon="5.70911">
        <ele>334.2</ele>
        <time>2022-07-13T10:10:43Z</time>
      </trkpt>
      <trkpt lat="46.83736" lon="5.70915">
        <ele>335.16</ele>
        <time>2022-07-13T10:10:49Z</time>
      </trkpt>
      <trkpt lat="46.83735" lon="5.70913">
        <ele>335.64</ele>
        <time>2022-07-13T10:10:50Z</time>
      </trkpt>
      <trkpt lat="46.83734" lon="5.70911">
        <ele>334.68</ele>
        <time>2022-07-13T10:10:51Z</time>
      </trkpt>
      <trkpt lat="46.83732" lon="5.70909">
        <ele>334.68</ele>
        <time>2022-07-13T10:10:52Z</time>
      </trkpt>
      <trkpt lat="46.8373" lon="5.70908">
        <ele>334.68</ele>
        <time>2022-07-13T10:10:53Z</time>
      </trkpt>
      <trkpt lat="46.83725" lon="5.70903">
        <ele>335.16</ele>
        <time>2022-07-13T10:10:55Z</time>
      </trkpt>
      <trkpt lat="46.83724" lon="5.70901">
        <ele>335.16</ele>
        <time>2022-07-13T10:10:56Z</time>
      </trkpt>
      <trkpt lat="46.83721" lon="5.70899">
        <ele>335.16</ele>
        <time>2022-07-13T10:10:57Z</time>
      </trkpt>
      <trkpt lat="46.83698" lon="5.70894">
        <ele>336.12</ele>
        <time>2022-07-13T10:11:09Z</time>
      </trkpt>
      <trkpt lat="46.83665" lon="5.70883">
        <ele>337.56</ele>
        <time>2022-07-13T10:11:24Z</time>
      </trkpt>
      <trkpt lat="46.83623" lon="5.70863">
        <ele>338.04</ele>
        <time>2022-07-13T10:11:39Z</time>
      </trkpt>
      <trkpt lat="46.836" lon="5.70856">
        <ele>339</ele>
        <time>2022-07-13T10:11:54Z</time>
      </trkpt>
      <trkpt lat="46.83589" lon="5.70841">
        <ele>339.48</ele>
        <time>2022-07-13T10:12:21Z</time>
      </trkpt>
      <trkpt lat="46.83599" lon="5.70852">
        <ele>339.48</ele>
        <time>2022-07-13T10:12:47Z</time>
      </trkpt>
      <trkpt lat="46.83602" lon="5.70855">
        <ele>339.96</ele>
        <time>2022-07-13T10:13:13Z</time>
      </trkpt>
      <trkpt lat="46.83603" lon="5.70855">
        <ele>340.44</ele>
        <time>2022-07-13T10:13:41Z</time>
      </trkpt>
      <trkpt lat="46.83607" lon="5.70854">
        <ele>339.96</ele>
        <time>2022-07-13T10:14:05Z</time>
      </trkpt>
      <trkpt lat="46.83587" lon="5.70856">
        <ele>338.52</ele>
        <time>2022-07-13T10:14:59Z</time>
      </trkpt>
      <trkpt lat="46.83579" lon="5.70853">
        <ele>339</ele>
        <time>2022-07-13T10:15:01Z</time>
      </trkpt>
      <trkpt lat="46.83568" lon="5.70857">
        <ele>339.48</ele>
        <time>2022-07-13T10:15:11Z</time>
      </trkpt>
      <trkpt lat="46.8356" lon="5.70853">
        <ele>339.96</ele>
        <time>2022-07-13T10:15:18Z</time>
      </trkpt>
      <trkpt lat="46.83555" lon="5.70851">
        <ele>338.04</ele>
        <time>2022-07-13T10:15:27Z</time>
      </trkpt>
      <trkpt lat="46.83461" lon="5.70854">
        <ele>341.89</ele>
        <time>2022-07-13T10:19:24Z</time>
      </trkpt>
      <trkpt lat="46.83444" lon="5.70848">
        <ele>341.41</ele>
        <time>2022-07-13T10:19:34Z</time>
      </trkpt>
      <trkpt lat="46.83438" lon="5.70844">
        <ele>340.92</ele>
        <time>2022-07-13T10:19:41Z</time>
      </trkpt>
      <trkpt lat="46.83443" lon="5.7083">
        <ele>340.92</ele>
        <time>2022-07-13T10:19:48Z</time>
      </trkpt>
      <trkpt lat="46.83443" lon="5.70828">
        <ele>340.92</ele>
        <time>2022-07-13T10:19:49Z</time>
      </trkpt>
      <trkpt lat="46.83443" lon="5.70825">
        <ele>340.92</ele>
        <time>2022-07-13T10:19:50Z</time>
      </trkpt>
      <trkpt lat="46.83443" lon="5.70823">
        <ele>340.92</ele>
        <time>2022-07-13T10:19:51Z</time>
      </trkpt>
      <trkpt lat="46.83441" lon="5.70818">
        <ele>341.41</ele>
        <time>2022-07-13T10:19:52Z</time>
      </trkpt>
      <trkpt lat="46.83437" lon="5.70812">
        <ele>339.96</ele>
        <time>2022-07-13T10:19:54Z</time>
      </trkpt>
      <trkpt lat="46.83397" lon="5.70752">
        <ele>340.92</ele>
        <time>2022-07-13T10:20:06Z</time>
      </trkpt>
      <trkpt lat="46.83384" lon="5.70739">
        <ele>340.92</ele>
        <time>2022-07-13T10:20:11Z</time>
      </trkpt>
      <trkpt lat="46.83355" lon="5.70738">
        <ele>341.41</ele>
        <time>2022-07-13T10:20:20Z</time>
      </trkpt>
      <trkpt lat="46.8335" lon="5.70732">
        <ele>341.89</ele>
        <time>2022-07-13T10:20:22Z</time>
      </trkpt>
      <trkpt lat="46.83348" lon="5.70731">
        <ele>341.89</ele>
        <time>2022-07-13T10:20:23Z</time>
      </trkpt>
      <trkpt lat="46.83345" lon="5.70731">
        <ele>342.37</ele>
        <time>2022-07-13T10:20:24Z</time>
      </trkpt>
      <trkpt lat="46.83342" lon="5.70731">
        <ele>342.37</ele>
        <time>2022-07-13T10:20:25Z</time>
      </trkpt>
      <trkpt lat="46.83339" lon="5.70732">
        <ele>342.37</ele>
        <time>2022-07-13T10:20:26Z</time>
      </trkpt>
      <trkpt lat="46.83337" lon="5.70732">
        <ele>342.37</ele>
        <time>2022-07-13T10:20:27Z</time>
      </trkpt>
      <trkpt lat="46.83335" lon="5.70733">
        <ele>342.37</ele>
        <time>2022-07-13T10:20:28Z</time>
      </trkpt>
      <trkpt lat="46.83319" lon="5.7073">
        <ele>342.85</ele>
        <time>2022-07-13T10:20:39Z</time>
      </trkpt>
      <trkpt lat="46.83317" lon="5.70728">
        <ele>343.33</ele>
        <time>2022-07-13T10:20:45Z</time>
      </trkpt>
      <trkpt lat="46.83317" lon="5.70726">
        <ele>342.85</ele>
        <time>2022-07-13T10:20:46Z</time>
      </trkpt>
      <trkpt lat="46.83317" lon="5.70723">
        <ele>342.85</ele>
        <time>2022-07-13T10:20:47Z</time>
      </trkpt>
      <trkpt lat="46.83317" lon="5.70718">
        <ele>342.37</ele>
        <time>2022-07-13T10:20:48Z</time>
      </trkpt>
      <trkpt lat="46.83317" lon="5.70713">
        <ele>342.85</ele>
        <time>2022-07-13T10:20:49Z</time>
      </trkpt>
      <trkpt lat="46.83317" lon="5.70708">
        <ele>342.37</ele>
        <time>2022-07-13T10:20:50Z</time>
      </trkpt>
      <trkpt lat="46.83319" lon="5.70668">
        <ele>342.37</ele>
        <time>2022-07-13T10:20:56Z</time>
      </trkpt>
      <trkpt lat="46.83317" lon="5.7066">
        <ele>342.37</ele>
        <time>2022-07-13T10:20:57Z</time>
      </trkpt>
      <trkpt lat="46.83314" lon="5.70554">
        <ele>339</ele>
        <time>2022-07-13T10:21:11Z</time>
      </trkpt>
      <trkpt lat="46.83325" lon="5.70448">
        <ele>337.56</ele>
        <time>2022-07-13T10:21:24Z</time>
      </trkpt>
      <trkpt lat="46.83326" lon="5.70431">
        <ele>337.56</ele>
        <time>2022-07-13T10:21:26Z</time>
      </trkpt>
      <trkpt lat="46.83345" lon="5.70334">
        <ele>335.64</ele>
        <time>2022-07-13T10:21:38Z</time>
      </trkpt>
      <trkpt lat="46.83362" lon="5.70257">
        <ele>334.2</ele>
        <time>2022-07-13T10:21:47Z</time>
      </trkpt>
      <trkpt lat="46.83368" lon="5.70231">
        <ele>332.75</ele>
        <time>2022-07-13T10:21:50Z</time>
      </trkpt>
      <trkpt lat="46.83401" lon="5.70081">
        <ele>329.39</ele>
        <time>2022-07-13T10:22:07Z</time>
      </trkpt>
      <trkpt lat="46.83409" lon="5.70047">
        <ele>328.43</ele>
        <time>2022-07-13T10:22:11Z</time>
      </trkpt>
      <trkpt lat="46.83436" lon="5.69922">
        <ele>325.54</ele>
        <time>2022-07-13T10:22:27Z</time>
      </trkpt>
      <trkpt lat="46.83438" lon="5.69905">
        <ele>325.06</ele>
        <time>2022-07-13T10:22:29Z</time>
      </trkpt>
      <trkpt lat="46.83437" lon="5.69889">
        <ele>325.06</ele>
        <time>2022-07-13T10:22:31Z</time>
      </trkpt>
      <trkpt lat="46.83438" lon="5.69882">
        <ele>324.58</ele>
        <time>2022-07-13T10:22:32Z</time>
      </trkpt>
      <trkpt lat="46.8344" lon="5.69876">
        <ele>324.58</ele>
        <time>2022-07-13T10:22:33Z</time>
      </trkpt>
      <trkpt lat="46.83441" lon="5.6987">
        <ele>323.62</ele>
        <time>2022-07-13T10:22:34Z</time>
      </trkpt>
      <trkpt lat="46.83443" lon="5.69864">
        <ele>323.62</ele>
        <time>2022-07-13T10:22:35Z</time>
      </trkpt>
      <trkpt lat="46.8345" lon="5.69822">
        <ele>322.66</ele>
        <time>2022-07-13T10:22:43Z</time>
      </trkpt>
      <trkpt lat="46.83448" lon="5.69819">
        <ele>322.66</ele>
        <time>2022-07-13T10:22:44Z</time>
      </trkpt>
      <trkpt lat="46.83445" lon="5.69817">
        <ele>322.18</ele>
        <time>2022-07-13T10:22:45Z</time>
      </trkpt>
      <trkpt lat="46.83407" lon="5.69799">
        <ele>323.14</ele>
        <time>2022-07-13T10:22:57Z</time>
      </trkpt>
      <trkpt lat="46.83405" lon="5.69795">
        <ele>323.14</ele>
        <time>2022-07-13T10:22:58Z</time>
      </trkpt>
      <trkpt lat="46.83403" lon="5.69784">
        <ele>322.66</ele>
        <time>2022-07-13T10:23:00Z</time>
      </trkpt>
      <trkpt lat="46.83402" lon="5.69779">
        <ele>322.66</ele>
        <time>2022-07-13T10:23:01Z</time>
      </trkpt>
      <trkpt lat="46.834" lon="5.69776">
        <ele>323.14</ele>
        <time>2022-07-13T10:23:02Z</time>
      </trkpt>
      <trkpt lat="46.83397" lon="5.69772">
        <ele>322.18</ele>
        <time>2022-07-13T10:23:03Z</time>
      </trkpt>
      <trkpt lat="46.83375" lon="5.69772">
        <ele>323.14</ele>
        <time>2022-07-13T10:23:12Z</time>
      </trkpt>
      <trkpt lat="46.83371" lon="5.69773">
        <ele>322.66</ele>
        <time>2022-07-13T10:23:14Z</time>
      </trkpt>
      <trkpt lat="46.83369" lon="5.69774">
        <ele>323.14</ele>
        <time>2022-07-13T10:23:15Z</time>
      </trkpt>
      <trkpt lat="46.83368" lon="5.69775">
        <ele>323.62</ele>
        <time>2022-07-13T10:23:16Z</time>
      </trkpt>
    </trkseg>
  </trk>
</gpx>